<?xml version="1.0" encoding="UTF-8" standalone="no" ?>
<gpx xmlns="http://www.topografix.com/GPX/1/1" xmlns:xsi="http://www.w3.org/2001/XMLSchema-instance" xsi:schemaLocation="http://www.topografix.com/GPX/1/1 http://www.topografix.com/GPX/1/1/gpx.xsd" version="1.1" creator="VisuGPX - https://www.visugpx.com">
  <metadata>
    <name>Découverte trail dans les Monts d\'Or</name>
    <desc><![CDATA[Première initiation]]></desc>
  </metadata>
  <trk>
    <name><![CDATA[Thomas Orenes on GPSies.com]]></name>
    <trkseg>
      <trkpt lat="45.8358" lon="4.82253">
        <ele>217</ele>
        <time>2010-01-01T00:00:00Z</time>
      </trkpt>
      <trkpt lat="45.83593" lon="4.8226">
        <ele>216.8</ele>
        <time>2010-01-01T00:00:05Z</time>
      </trkpt>
      <trkpt lat="45.83602" lon="4.82266">
        <ele>216.8</ele>
        <time>2010-01-01T00:00:09Z</time>
      </trkpt>
      <trkpt lat="45.83603" lon="4.8227">
        <ele>216.8</ele>
        <time>2010-01-01T00:00:10Z</time>
      </trkpt>
      <trkpt lat="45.836" lon="4.82279">
        <ele>216.6</ele>
        <time>2010-01-01T00:00:13Z</time>
      </trkpt>
      <trkpt lat="45.83599" lon="4.82283">
        <ele>216.6</ele>
        <time>2010-01-01T00:00:14Z</time>
      </trkpt>
      <trkpt lat="45.836" lon="4.823">
        <ele>216.6</ele>
        <time>2010-01-01T00:00:19Z</time>
      </trkpt>
      <trkpt lat="45.83603" lon="4.82319">
        <ele>216.6</ele>
        <time>2010-01-01T00:00:24Z</time>
      </trkpt>
      <trkpt lat="45.83604" lon="4.82342">
        <ele>216.8</ele>
        <time>2010-01-01T00:00:31Z</time>
      </trkpt>
      <trkpt lat="45.83606" lon="4.82357">
        <ele>217</ele>
        <time>2010-01-01T00:00:35Z</time>
      </trkpt>
      <trkpt lat="45.83604" lon="4.82381">
        <ele>217.8</ele>
        <time>2010-01-01T00:00:42Z</time>
      </trkpt>
      <trkpt lat="45.836" lon="4.824">
        <ele>218.39999</ele>
        <time>2010-01-01T00:00:47Z</time>
      </trkpt>
      <trkpt lat="45.83593" lon="4.82415">
        <ele>219</ele>
        <time>2010-01-01T00:00:52Z</time>
      </trkpt>
      <trkpt lat="45.83586" lon="4.82429">
        <ele>219.8</ele>
        <time>2010-01-01T00:00:57Z</time>
      </trkpt>
      <trkpt lat="45.83577" lon="4.82445">
        <ele>220.6</ele>
        <time>2010-01-01T00:01:03Z</time>
      </trkpt>
      <trkpt lat="45.83568" lon="4.82466">
        <ele>222</ele>
        <time>2010-01-01T00:01:10Z</time>
      </trkpt>
      <trkpt lat="45.83563" lon="4.82479">
        <ele>222.6</ele>
        <time>2010-01-01T00:01:14Z</time>
      </trkpt>
      <trkpt lat="45.83557" lon="4.82499">
        <ele>223.8</ele>
        <time>2010-01-01T00:01:20Z</time>
      </trkpt>
      <trkpt lat="45.83555" lon="4.82503">
        <ele>224.19999</ele>
        <time>2010-01-01T00:01:21Z</time>
      </trkpt>
      <trkpt lat="45.83552" lon="4.82501">
        <ele>224.6</ele>
        <time>2010-01-01T00:01:23Z</time>
      </trkpt>
      <trkpt lat="45.83551" lon="4.82497">
        <ele>224.8</ele>
        <time>2010-01-01T00:01:24Z</time>
      </trkpt>
      <trkpt lat="45.8355" lon="4.82489">
        <ele>225.19999</ele>
        <time>2010-01-01T00:01:26Z</time>
      </trkpt>
      <trkpt lat="45.83547" lon="4.82473">
        <ele>226</ele>
        <time>2010-01-01T00:01:31Z</time>
      </trkpt>
      <trkpt lat="45.83543" lon="4.82456">
        <ele>227.19999</ele>
        <time>2010-01-01T00:01:36Z</time>
      </trkpt>
      <trkpt lat="45.83541" lon="4.82442">
        <ele>228.19999</ele>
        <time>2010-01-01T00:01:40Z</time>
      </trkpt>
      <trkpt lat="45.83539" lon="4.82427">
        <ele>229</ele>
        <time>2010-01-01T00:01:44Z</time>
      </trkpt>
      <trkpt lat="45.83538" lon="4.82411">
        <ele>230</ele>
        <time>2010-01-01T00:01:48Z</time>
      </trkpt>
      <trkpt lat="45.83534" lon="4.82394">
        <ele>231</ele>
        <time>2010-01-01T00:01:54Z</time>
      </trkpt>
      <trkpt lat="45.8353" lon="4.82382">
        <ele>231.8</ele>
        <time>2010-01-01T00:01:57Z</time>
      </trkpt>
      <trkpt lat="45.8353" lon="4.82378">
        <ele>232.19999</ele>
        <time>2010-01-01T00:01:58Z</time>
      </trkpt>
      <trkpt lat="45.83529" lon="4.82374">
        <ele>232.6</ele>
        <time>2010-01-01T00:01:59Z</time>
      </trkpt>
      <trkpt lat="45.83526" lon="4.82369">
        <ele>233.19999</ele>
        <time>2010-01-01T00:02:01Z</time>
      </trkpt>
      <trkpt lat="45.83518" lon="4.82367">
        <ele>234</ele>
        <time>2010-01-01T00:02:05Z</time>
      </trkpt>
      <trkpt lat="45.83511" lon="4.82365">
        <ele>234.6</ele>
        <time>2010-01-01T00:02:07Z</time>
      </trkpt>
      <trkpt lat="45.83505" lon="4.82366">
        <ele>235.19999</ele>
        <time>2010-01-01T00:02:10Z</time>
      </trkpt>
      <trkpt lat="45.83492" lon="4.82366">
        <ele>236.6</ele>
        <time>2010-01-01T00:02:15Z</time>
      </trkpt>
      <trkpt lat="45.83481" lon="4.82365">
        <ele>237.6</ele>
        <time>2010-01-01T00:02:19Z</time>
      </trkpt>
      <trkpt lat="45.83469" lon="4.82364">
        <ele>238.8</ele>
        <time>2010-01-01T00:02:24Z</time>
      </trkpt>
      <trkpt lat="45.83465" lon="4.82358">
        <ele>239.6</ele>
        <time>2010-01-01T00:02:27Z</time>
      </trkpt>
      <trkpt lat="45.83462" lon="4.82354">
        <ele>240</ele>
        <time>2010-01-01T00:02:28Z</time>
      </trkpt>
      <trkpt lat="45.83455" lon="4.82344">
        <ele>240.8</ele>
        <time>2010-01-01T00:02:32Z</time>
      </trkpt>
      <trkpt lat="45.83447" lon="4.82332">
        <ele>242.19999</ele>
        <time>2010-01-01T00:02:37Z</time>
      </trkpt>
      <trkpt lat="45.8344" lon="4.82321">
        <ele>243.6</ele>
        <time>2010-01-01T00:02:41Z</time>
      </trkpt>
      <trkpt lat="45.83433" lon="4.8231">
        <ele>244.6</ele>
        <time>2010-01-01T00:02:45Z</time>
      </trkpt>
      <trkpt lat="45.83423" lon="4.823">
        <ele>245.8</ele>
        <time>2010-01-01T00:02:50Z</time>
      </trkpt>
      <trkpt lat="45.83419" lon="4.82296">
        <ele>246.19999</ele>
        <time>2010-01-01T00:02:52Z</time>
      </trkpt>
      <trkpt lat="45.83414" lon="4.82293">
        <ele>246.8</ele>
        <time>2010-01-01T00:02:54Z</time>
      </trkpt>
      <trkpt lat="45.83404" lon="4.82287">
        <ele>248</ele>
        <time>2010-01-01T00:02:59Z</time>
      </trkpt>
      <trkpt lat="45.83402" lon="4.82287">
        <ele>248.19999</ele>
        <time>2010-01-01T00:02:59Z</time>
      </trkpt>
      <trkpt lat="45.834" lon="4.82285">
        <ele>248.6</ele>
        <time>2010-01-01T00:03:00Z</time>
      </trkpt>
      <trkpt lat="45.83398" lon="4.82285">
        <ele>248.8</ele>
        <time>2010-01-01T00:03:01Z</time>
      </trkpt>
      <trkpt lat="45.8339" lon="4.82277">
        <ele>250.19999</ele>
        <time>2010-01-01T00:03:05Z</time>
      </trkpt>
      <trkpt lat="45.83383" lon="4.82269">
        <ele>251.39999</ele>
        <time>2010-01-01T00:03:08Z</time>
      </trkpt>
      <trkpt lat="45.83382" lon="4.82266">
        <ele>251.6</ele>
        <time>2010-01-01T00:03:09Z</time>
      </trkpt>
      <trkpt lat="45.83375" lon="4.82256">
        <ele>252.8</ele>
        <time>2010-01-01T00:03:13Z</time>
      </trkpt>
      <trkpt lat="45.83364" lon="4.82242">
        <ele>254.19999</ele>
        <time>2010-01-01T00:03:19Z</time>
      </trkpt>
      <trkpt lat="45.83349" lon="4.82225">
        <ele>255.6</ele>
        <time>2010-01-01T00:03:27Z</time>
      </trkpt>
      <trkpt lat="45.83339" lon="4.8221">
        <ele>256.79998</ele>
        <time>2010-01-01T00:03:33Z</time>
      </trkpt>
      <trkpt lat="45.83329" lon="4.82195">
        <ele>258.20001</ele>
        <time>2010-01-01T00:03:38Z</time>
      </trkpt>
      <trkpt lat="45.83317" lon="4.82183">
        <ele>259.6</ele>
        <time>2010-01-01T00:03:44Z</time>
      </trkpt>
      <trkpt lat="45.83304" lon="4.82172">
        <ele>261</ele>
        <time>2010-01-01T00:03:50Z</time>
      </trkpt>
      <trkpt lat="45.83301" lon="4.82169">
        <ele>261.39999</ele>
        <time>2010-01-01T00:03:52Z</time>
      </trkpt>
      <trkpt lat="45.83294" lon="4.82164">
        <ele>262.20001</ele>
        <time>2010-01-01T00:03:55Z</time>
      </trkpt>
      <trkpt lat="45.83285" lon="4.82158">
        <ele>263.20001</ele>
        <time>2010-01-01T00:03:59Z</time>
      </trkpt>
      <trkpt lat="45.83276" lon="4.82148">
        <ele>264.20001</ele>
        <time>2010-01-01T00:04:03Z</time>
      </trkpt>
      <trkpt lat="45.83269" lon="4.8214">
        <ele>265.20001</ele>
        <time>2010-01-01T00:04:07Z</time>
      </trkpt>
      <trkpt lat="45.83266" lon="4.82137">
        <ele>265.6</ele>
        <time>2010-01-01T00:04:09Z</time>
      </trkpt>
      <trkpt lat="45.83256" lon="4.82128">
        <ele>266.79998</ele>
        <time>2010-01-01T00:04:13Z</time>
      </trkpt>
      <trkpt lat="45.83255" lon="4.82127">
        <ele>267</ele>
        <time>2010-01-01T00:04:14Z</time>
      </trkpt>
      <trkpt lat="45.8325" lon="4.82122">
        <ele>267.6</ele>
        <time>2010-01-01T00:04:16Z</time>
      </trkpt>
      <trkpt lat="45.83247" lon="4.82119">
        <ele>268</ele>
        <time>2010-01-01T00:04:18Z</time>
      </trkpt>
      <trkpt lat="45.83234" lon="4.82109">
        <ele>269.6</ele>
        <time>2010-01-01T00:04:23Z</time>
      </trkpt>
      <trkpt lat="45.83228" lon="4.82102">
        <ele>270.6</ele>
        <time>2010-01-01T00:04:27Z</time>
      </trkpt>
      <trkpt lat="45.83226" lon="4.82099">
        <ele>270.79998</ele>
        <time>2010-01-01T00:04:28Z</time>
      </trkpt>
      <trkpt lat="45.83219" lon="4.82093">
        <ele>272</ele>
        <time>2010-01-01T00:04:31Z</time>
      </trkpt>
      <trkpt lat="45.83209" lon="4.82084">
        <ele>273.6</ele>
        <time>2010-01-01T00:04:36Z</time>
      </trkpt>
      <trkpt lat="45.83201" lon="4.82067">
        <ele>274.79998</ele>
        <time>2010-01-01T00:04:41Z</time>
      </trkpt>
      <trkpt lat="45.83199" lon="4.8206">
        <ele>275.39999</ele>
        <time>2010-01-01T00:04:44Z</time>
      </trkpt>
      <trkpt lat="45.83196" lon="4.82053">
        <ele>275.79998</ele>
        <time>2010-01-01T00:04:46Z</time>
      </trkpt>
      <trkpt lat="45.83191" lon="4.82046">
        <ele>276.39999</ele>
        <time>2010-01-01T00:04:49Z</time>
      </trkpt>
      <trkpt lat="45.8319" lon="4.82046">
        <ele>276.39999</ele>
        <time>2010-01-01T00:04:49Z</time>
      </trkpt>
      <trkpt lat="45.83189" lon="4.82048">
        <ele>276.6</ele>
        <time>2010-01-01T00:04:50Z</time>
      </trkpt>
      <trkpt lat="45.83189" lon="4.82051">
        <ele>276.79998</ele>
        <time>2010-01-01T00:04:51Z</time>
      </trkpt>
      <trkpt lat="45.83189" lon="4.82053">
        <ele>277</ele>
        <time>2010-01-01T00:04:51Z</time>
      </trkpt>
      <trkpt lat="45.83194" lon="4.82074">
        <ele>278.20001</ele>
        <time>2010-01-01T00:04:57Z</time>
      </trkpt>
      <trkpt lat="45.832" lon="4.82093">
        <ele>279.20001</ele>
        <time>2010-01-01T00:05:03Z</time>
      </trkpt>
      <trkpt lat="45.83206" lon="4.8211">
        <ele>280.6</ele>
        <time>2010-01-01T00:05:08Z</time>
      </trkpt>
      <trkpt lat="45.8321" lon="4.82119">
        <ele>281.39999</ele>
        <time>2010-01-01T00:05:12Z</time>
      </trkpt>
      <trkpt lat="45.83212" lon="4.82122">
        <ele>281.79998</ele>
        <time>2010-01-01T00:05:13Z</time>
      </trkpt>
      <trkpt lat="45.83214" lon="4.82127">
        <ele>282.39999</ele>
        <time>2010-01-01T00:05:14Z</time>
      </trkpt>
      <trkpt lat="45.83219" lon="4.82132">
        <ele>283.39999</ele>
        <time>2010-01-01T00:05:17Z</time>
      </trkpt>
      <trkpt lat="45.8322" lon="4.82134">
        <ele>283.6</ele>
        <time>2010-01-01T00:05:17Z</time>
      </trkpt>
      <trkpt lat="45.83229" lon="4.82141">
        <ele>285</ele>
        <time>2010-01-01T00:05:21Z</time>
      </trkpt>
      <trkpt lat="45.83239" lon="4.82155">
        <ele>286.79998</ele>
        <time>2010-01-01T00:05:27Z</time>
      </trkpt>
      <trkpt lat="45.83247" lon="4.82173">
        <ele>288</ele>
        <time>2010-01-01T00:05:33Z</time>
      </trkpt>
      <trkpt lat="45.83252" lon="4.82185">
        <ele>288.79998</ele>
        <time>2010-01-01T00:05:37Z</time>
      </trkpt>
      <trkpt lat="45.8326" lon="4.82202">
        <ele>289.79998</ele>
        <time>2010-01-01T00:05:42Z</time>
      </trkpt>
      <trkpt lat="45.83268" lon="4.82216">
        <ele>291.20001</ele>
        <time>2010-01-01T00:05:48Z</time>
      </trkpt>
      <trkpt lat="45.83283" lon="4.82234">
        <ele>292.79998</ele>
        <time>2010-01-01T00:05:55Z</time>
      </trkpt>
      <trkpt lat="45.83286" lon="4.82238">
        <ele>293.20001</ele>
        <time>2010-01-01T00:05:57Z</time>
      </trkpt>
      <trkpt lat="45.833" lon="4.82251">
        <ele>294.39999</ele>
        <time>2010-01-01T00:06:04Z</time>
      </trkpt>
      <trkpt lat="45.83315" lon="4.82265">
        <ele>295.39999</ele>
        <time>2010-01-01T00:06:11Z</time>
      </trkpt>
      <trkpt lat="45.83327" lon="4.82281">
        <ele>296</ele>
        <time>2010-01-01T00:06:17Z</time>
      </trkpt>
      <trkpt lat="45.83333" lon="4.82292">
        <ele>296.39999</ele>
        <time>2010-01-01T00:06:21Z</time>
      </trkpt>
      <trkpt lat="45.8334" lon="4.82309">
        <ele>296.6</ele>
        <time>2010-01-01T00:06:27Z</time>
      </trkpt>
      <trkpt lat="45.83342" lon="4.82323">
        <ele>296.79998</ele>
        <time>2010-01-01T00:06:31Z</time>
      </trkpt>
      <trkpt lat="45.83339" lon="4.82334">
        <ele>297</ele>
        <time>2010-01-01T00:06:34Z</time>
      </trkpt>
      <trkpt lat="45.83339" lon="4.82337">
        <ele>297</ele>
        <time>2010-01-01T00:06:35Z</time>
      </trkpt>
      <trkpt lat="45.83332" lon="4.82358">
        <ele>297.39999</ele>
        <time>2010-01-01T00:06:41Z</time>
      </trkpt>
      <trkpt lat="45.83326" lon="4.82381">
        <ele>298</ele>
        <time>2010-01-01T00:06:48Z</time>
      </trkpt>
      <trkpt lat="45.8332" lon="4.82405">
        <ele>298.39999</ele>
        <time>2010-01-01T00:06:55Z</time>
      </trkpt>
      <trkpt lat="45.83316" lon="4.82425">
        <ele>298.79998</ele>
        <time>2010-01-01T00:07:01Z</time>
      </trkpt>
      <trkpt lat="45.8331" lon="4.82446">
        <ele>299</ele>
        <time>2010-01-01T00:07:07Z</time>
      </trkpt>
      <trkpt lat="45.83303" lon="4.82464">
        <ele>299.20001</ele>
        <time>2010-01-01T00:07:13Z</time>
      </trkpt>
      <trkpt lat="45.83295" lon="4.82489">
        <ele>299.20001</ele>
        <time>2010-01-01T00:07:21Z</time>
      </trkpt>
      <trkpt lat="45.83288" lon="4.82505">
        <ele>299.20001</ele>
        <time>2010-01-01T00:07:26Z</time>
      </trkpt>
      <trkpt lat="45.83284" lon="4.82528">
        <ele>299.39999</ele>
        <time>2010-01-01T00:07:33Z</time>
      </trkpt>
      <trkpt lat="45.83281" lon="4.82546">
        <ele>299.6</ele>
        <time>2010-01-01T00:07:38Z</time>
      </trkpt>
      <trkpt lat="45.83283" lon="4.82565">
        <ele>299.79998</ele>
        <time>2010-01-01T00:07:43Z</time>
      </trkpt>
      <trkpt lat="45.83282" lon="4.82586">
        <ele>300.20001</ele>
        <time>2010-01-01T00:07:49Z</time>
      </trkpt>
      <trkpt lat="45.83276" lon="4.82608">
        <ele>300.39999</ele>
        <time>2010-01-01T00:07:56Z</time>
      </trkpt>
      <trkpt lat="45.83268" lon="4.82624">
        <ele>300.6</ele>
        <time>2010-01-01T00:08:01Z</time>
      </trkpt>
      <trkpt lat="45.83259" lon="4.82635">
        <ele>300.79998</ele>
        <time>2010-01-01T00:08:06Z</time>
      </trkpt>
      <trkpt lat="45.83246" lon="4.82651">
        <ele>301</ele>
        <time>2010-01-01T00:08:13Z</time>
      </trkpt>
      <trkpt lat="45.83239" lon="4.82668">
        <ele>301</ele>
        <time>2010-01-01T00:08:18Z</time>
      </trkpt>
      <trkpt lat="45.83234" lon="4.82687">
        <ele>300.79998</ele>
        <time>2010-01-01T00:08:24Z</time>
      </trkpt>
      <trkpt lat="45.8323" lon="4.8271">
        <ele>300.79998</ele>
        <time>2010-01-01T00:08:30Z</time>
      </trkpt>
      <trkpt lat="45.8323" lon="4.82713">
        <ele>300.79998</ele>
        <time>2010-01-01T00:08:31Z</time>
      </trkpt>
      <trkpt lat="45.83228" lon="4.82725">
        <ele>300.79998</ele>
        <time>2010-01-01T00:08:35Z</time>
      </trkpt>
      <trkpt lat="45.83226" lon="4.82733">
        <ele>300.79998</ele>
        <time>2010-01-01T00:08:37Z</time>
      </trkpt>
      <trkpt lat="45.83223" lon="4.82748">
        <ele>300.79998</ele>
        <time>2010-01-01T00:08:42Z</time>
      </trkpt>
      <trkpt lat="45.8322" lon="4.82765">
        <ele>300.79998</ele>
        <time>2010-01-01T00:08:46Z</time>
      </trkpt>
      <trkpt lat="45.83217" lon="4.82778">
        <ele>300.79998</ele>
        <time>2010-01-01T00:08:50Z</time>
      </trkpt>
      <trkpt lat="45.83216" lon="4.82791">
        <ele>300.79998</ele>
        <time>2010-01-01T00:08:54Z</time>
      </trkpt>
      <trkpt lat="45.83219" lon="4.82812">
        <ele>300.79998</ele>
        <time>2010-01-01T00:09:00Z</time>
      </trkpt>
      <trkpt lat="45.83218" lon="4.82825">
        <ele>300.79998</ele>
        <time>2010-01-01T00:09:03Z</time>
      </trkpt>
      <trkpt lat="45.83216" lon="4.82832">
        <ele>300.79998</ele>
        <time>2010-01-01T00:09:06Z</time>
      </trkpt>
      <trkpt lat="45.8321" lon="4.8285">
        <ele>300.79998</ele>
        <time>2010-01-01T00:09:11Z</time>
      </trkpt>
      <trkpt lat="45.83202" lon="4.82874">
        <ele>301</ele>
        <time>2010-01-01T00:09:19Z</time>
      </trkpt>
      <trkpt lat="45.83193" lon="4.82897">
        <ele>301</ele>
        <time>2010-01-01T00:09:26Z</time>
      </trkpt>
      <trkpt lat="45.83184" lon="4.82912">
        <ele>301</ele>
        <time>2010-01-01T00:09:31Z</time>
      </trkpt>
      <trkpt lat="45.83173" lon="4.82928">
        <ele>301</ele>
        <time>2010-01-01T00:09:38Z</time>
      </trkpt>
      <trkpt lat="45.8317" lon="4.82933">
        <ele>301</ele>
        <time>2010-01-01T00:09:39Z</time>
      </trkpt>
      <trkpt lat="45.83168" lon="4.82939">
        <ele>301</ele>
        <time>2010-01-01T00:09:41Z</time>
      </trkpt>
      <trkpt lat="45.83166" lon="4.8294">
        <ele>301</ele>
        <time>2010-01-01T00:09:42Z</time>
      </trkpt>
      <trkpt lat="45.8316" lon="4.82948">
        <ele>300.79998</ele>
        <time>2010-01-01T00:09:45Z</time>
      </trkpt>
      <trkpt lat="45.83159" lon="4.82951">
        <ele>300.79998</ele>
        <time>2010-01-01T00:09:46Z</time>
      </trkpt>
      <trkpt lat="45.83157" lon="4.8296">
        <ele>300.79998</ele>
        <time>2010-01-01T00:09:49Z</time>
      </trkpt>
      <trkpt lat="45.83155" lon="4.82981">
        <ele>300.79998</ele>
        <time>2010-01-01T00:09:55Z</time>
      </trkpt>
      <trkpt lat="45.83152" lon="4.83008">
        <ele>301.20001</ele>
        <time>2010-01-01T00:10:02Z</time>
      </trkpt>
      <trkpt lat="45.83149" lon="4.83015">
        <ele>301.39999</ele>
        <time>2010-01-01T00:10:05Z</time>
      </trkpt>
      <trkpt lat="45.83149" lon="4.83017">
        <ele>301.39999</ele>
        <time>2010-01-01T00:10:05Z</time>
      </trkpt>
      <trkpt lat="45.83148" lon="4.83021">
        <ele>301.6</ele>
        <time>2010-01-01T00:10:07Z</time>
      </trkpt>
      <trkpt lat="45.83147" lon="4.83026">
        <ele>301.79998</ele>
        <time>2010-01-01T00:10:08Z</time>
      </trkpt>
      <trkpt lat="45.83145" lon="4.83033">
        <ele>302.20001</ele>
        <time>2010-01-01T00:10:10Z</time>
      </trkpt>
      <trkpt lat="45.83145" lon="4.83038">
        <ele>302.39999</ele>
        <time>2010-01-01T00:10:11Z</time>
      </trkpt>
      <trkpt lat="45.83143" lon="4.83047">
        <ele>302.6</ele>
        <time>2010-01-01T00:10:14Z</time>
      </trkpt>
      <trkpt lat="45.83143" lon="4.83049">
        <ele>302.79998</ele>
        <time>2010-01-01T00:10:15Z</time>
      </trkpt>
      <trkpt lat="45.83143" lon="4.83051">
        <ele>302.79998</ele>
        <time>2010-01-01T00:10:15Z</time>
      </trkpt>
      <trkpt lat="45.83138" lon="4.83067">
        <ele>303.39999</ele>
        <time>2010-01-01T00:10:20Z</time>
      </trkpt>
      <trkpt lat="45.83131" lon="4.83078">
        <ele>303.79998</ele>
        <time>2010-01-01T00:10:24Z</time>
      </trkpt>
      <trkpt lat="45.83119" lon="4.8308">
        <ele>304.39999</ele>
        <time>2010-01-01T00:10:29Z</time>
      </trkpt>
      <trkpt lat="45.83117" lon="4.83081">
        <ele>304.39999</ele>
        <time>2010-01-01T00:10:30Z</time>
      </trkpt>
      <trkpt lat="45.83106" lon="4.83081">
        <ele>305</ele>
        <time>2010-01-01T00:10:34Z</time>
      </trkpt>
      <trkpt lat="45.83096" lon="4.83082">
        <ele>305.39999</ele>
        <time>2010-01-01T00:10:39Z</time>
      </trkpt>
      <trkpt lat="45.83085" lon="4.83083">
        <ele>306.20001</ele>
        <time>2010-01-01T00:10:43Z</time>
      </trkpt>
      <trkpt lat="45.83074" lon="4.83083">
        <ele>306.79998</ele>
        <time>2010-01-01T00:10:47Z</time>
      </trkpt>
      <trkpt lat="45.83063" lon="4.8308">
        <ele>307.39999</ele>
        <time>2010-01-01T00:10:52Z</time>
      </trkpt>
      <trkpt lat="45.8305" lon="4.8308">
        <ele>308.39999</ele>
        <time>2010-01-01T00:10:57Z</time>
      </trkpt>
      <trkpt lat="45.83041" lon="4.83078">
        <ele>309</ele>
        <time>2010-01-01T00:11:01Z</time>
      </trkpt>
      <trkpt lat="45.8304" lon="4.83077">
        <ele>309</ele>
        <time>2010-01-01T00:11:01Z</time>
      </trkpt>
      <trkpt lat="45.83037" lon="4.83071">
        <ele>309.6</ele>
        <time>2010-01-01T00:11:03Z</time>
      </trkpt>
      <trkpt lat="45.83037" lon="4.83069">
        <ele>309.6</ele>
        <time>2010-01-01T00:11:04Z</time>
      </trkpt>
      <trkpt lat="45.83037" lon="4.83067">
        <ele>309.6</ele>
        <time>2010-01-01T00:11:04Z</time>
      </trkpt>
      <trkpt lat="45.83038" lon="4.83059">
        <ele>310</ele>
        <time>2010-01-01T00:11:07Z</time>
      </trkpt>
      <trkpt lat="45.83039" lon="4.83035">
        <ele>311</ele>
        <time>2010-01-01T00:11:13Z</time>
      </trkpt>
      <trkpt lat="45.8304" lon="4.83015">
        <ele>311.79998</ele>
        <time>2010-01-01T00:11:19Z</time>
      </trkpt>
      <trkpt lat="45.83042" lon="4.82994">
        <ele>312.20001</ele>
        <time>2010-01-01T00:11:25Z</time>
      </trkpt>
      <trkpt lat="45.83044" lon="4.82982">
        <ele>312.6</ele>
        <time>2010-01-01T00:11:28Z</time>
      </trkpt>
      <trkpt lat="45.83044" lon="4.82975">
        <ele>312.79998</ele>
        <time>2010-01-01T00:11:30Z</time>
      </trkpt>
      <trkpt lat="45.83047" lon="4.82947">
        <ele>313.20001</ele>
        <time>2010-01-01T00:11:38Z</time>
      </trkpt>
      <trkpt lat="45.83048" lon="4.82938">
        <ele>313.39999</ele>
        <time>2010-01-01T00:11:41Z</time>
      </trkpt>
      <trkpt lat="45.83048" lon="4.82931">
        <ele>313.39999</ele>
        <time>2010-01-01T00:11:43Z</time>
      </trkpt>
      <trkpt lat="45.83048" lon="4.82916">
        <ele>313.79998</ele>
        <time>2010-01-01T00:11:47Z</time>
      </trkpt>
      <trkpt lat="45.83052" lon="4.82892">
        <ele>314.6</ele>
        <time>2010-01-01T00:11:53Z</time>
      </trkpt>
      <trkpt lat="45.83057" lon="4.82877">
        <ele>315.39999</ele>
        <time>2010-01-01T00:11:58Z</time>
      </trkpt>
      <trkpt lat="45.83059" lon="4.82873">
        <ele>315.6</ele>
        <time>2010-01-01T00:11:59Z</time>
      </trkpt>
      <trkpt lat="45.8306" lon="4.82871">
        <ele>315.79998</ele>
        <time>2010-01-01T00:12:00Z</time>
      </trkpt>
      <trkpt lat="45.83059" lon="4.82867">
        <ele>316.20001</ele>
        <time>2010-01-01T00:12:01Z</time>
      </trkpt>
      <trkpt lat="45.83058" lon="4.82866">
        <ele>316.39999</ele>
        <time>2010-01-01T00:12:02Z</time>
      </trkpt>
      <trkpt lat="45.83055" lon="4.82862">
        <ele>317</ele>
        <time>2010-01-01T00:12:03Z</time>
      </trkpt>
      <trkpt lat="45.83054" lon="4.82862">
        <ele>317</ele>
        <time>2010-01-01T00:12:04Z</time>
      </trkpt>
      <trkpt lat="45.8305" lon="4.82858">
        <ele>317.6</ele>
        <time>2010-01-01T00:12:06Z</time>
      </trkpt>
      <trkpt lat="45.83047" lon="4.82856">
        <ele>318</ele>
        <time>2010-01-01T00:12:07Z</time>
      </trkpt>
      <trkpt lat="45.83042" lon="4.82854">
        <ele>318.6</ele>
        <time>2010-01-01T00:12:09Z</time>
      </trkpt>
      <trkpt lat="45.83039" lon="4.82851">
        <ele>319</ele>
        <time>2010-01-01T00:12:10Z</time>
      </trkpt>
      <trkpt lat="45.83033" lon="4.82847">
        <ele>319.79998</ele>
        <time>2010-01-01T00:12:13Z</time>
      </trkpt>
      <trkpt lat="45.83031" lon="4.82846">
        <ele>320.20001</ele>
        <time>2010-01-01T00:12:14Z</time>
      </trkpt>
      <trkpt lat="45.8303" lon="4.82846">
        <ele>320.39999</ele>
        <time>2010-01-01T00:12:14Z</time>
      </trkpt>
      <trkpt lat="45.83029" lon="4.82844">
        <ele>320.79998</ele>
        <time>2010-01-01T00:12:15Z</time>
      </trkpt>
      <trkpt lat="45.83028" lon="4.82842">
        <ele>321.20001</ele>
        <time>2010-01-01T00:12:16Z</time>
      </trkpt>
      <trkpt lat="45.83023" lon="4.82838">
        <ele>322</ele>
        <time>2010-01-01T00:12:18Z</time>
      </trkpt>
      <trkpt lat="45.83019" lon="4.82837">
        <ele>322.79998</ele>
        <time>2010-01-01T00:12:20Z</time>
      </trkpt>
      <trkpt lat="45.83017" lon="4.82836">
        <ele>323.39999</ele>
        <time>2010-01-01T00:12:21Z</time>
      </trkpt>
      <trkpt lat="45.83016" lon="4.82836">
        <ele>323.39999</ele>
        <time>2010-01-01T00:12:21Z</time>
      </trkpt>
      <trkpt lat="45.83014" lon="4.82835">
        <ele>324</ele>
        <time>2010-01-01T00:12:22Z</time>
      </trkpt>
      <trkpt lat="45.83008" lon="4.82831">
        <ele>325.6</ele>
        <time>2010-01-01T00:12:24Z</time>
      </trkpt>
      <trkpt lat="45.83004" lon="4.8283">
        <ele>326.6</ele>
        <time>2010-01-01T00:12:26Z</time>
      </trkpt>
      <trkpt lat="45.83" lon="4.82827">
        <ele>328</ele>
        <time>2010-01-01T00:12:28Z</time>
      </trkpt>
      <trkpt lat="45.82995" lon="4.82824">
        <ele>329.39999</ele>
        <time>2010-01-01T00:12:30Z</time>
      </trkpt>
      <trkpt lat="45.82991" lon="4.82822">
        <ele>330.6</ele>
        <time>2010-01-01T00:12:32Z</time>
      </trkpt>
      <trkpt lat="45.82991" lon="4.82813">
        <ele>331.79998</ele>
        <time>2010-01-01T00:12:34Z</time>
      </trkpt>
      <trkpt lat="45.82991" lon="4.8281">
        <ele>332.39999</ele>
        <time>2010-01-01T00:12:35Z</time>
      </trkpt>
      <trkpt lat="45.82991" lon="4.82807">
        <ele>332.79998</ele>
        <time>2010-01-01T00:12:36Z</time>
      </trkpt>
      <trkpt lat="45.82991" lon="4.82803">
        <ele>333.39999</ele>
        <time>2010-01-01T00:12:37Z</time>
      </trkpt>
      <trkpt lat="45.82992" lon="4.82801">
        <ele>333.6</ele>
        <time>2010-01-01T00:12:38Z</time>
      </trkpt>
      <trkpt lat="45.82994" lon="4.82796">
        <ele>334.39999</ele>
        <time>2010-01-01T00:12:39Z</time>
      </trkpt>
      <trkpt lat="45.82996" lon="4.82794">
        <ele>334.39999</ele>
        <time>2010-01-01T00:12:40Z</time>
      </trkpt>
      <trkpt lat="45.83001" lon="4.82785">
        <ele>335.20001</ele>
        <time>2010-01-01T00:12:44Z</time>
      </trkpt>
      <trkpt lat="45.83008" lon="4.82774">
        <ele>336</ele>
        <time>2010-01-01T00:12:48Z</time>
      </trkpt>
      <trkpt lat="45.83011" lon="4.82773">
        <ele>336.20001</ele>
        <time>2010-01-01T00:12:49Z</time>
      </trkpt>
      <trkpt lat="45.83012" lon="4.82769">
        <ele>336.39999</ele>
        <time>2010-01-01T00:12:50Z</time>
      </trkpt>
      <trkpt lat="45.83016" lon="4.82761">
        <ele>337.20001</ele>
        <time>2010-01-01T00:12:53Z</time>
      </trkpt>
      <trkpt lat="45.83027" lon="4.82741">
        <ele>338.79998</ele>
        <time>2010-01-01T00:13:00Z</time>
      </trkpt>
      <trkpt lat="45.83028" lon="4.82739">
        <ele>339</ele>
        <time>2010-01-01T00:13:01Z</time>
      </trkpt>
      <trkpt lat="45.83031" lon="4.82728">
        <ele>339.6</ele>
        <time>2010-01-01T00:13:04Z</time>
      </trkpt>
      <trkpt lat="45.83033" lon="4.82725">
        <ele>339.79998</ele>
        <time>2010-01-01T00:13:05Z</time>
      </trkpt>
      <trkpt lat="45.83035" lon="4.82719">
        <ele>340.20001</ele>
        <time>2010-01-01T00:13:07Z</time>
      </trkpt>
      <trkpt lat="45.83037" lon="4.82712">
        <ele>340.79998</ele>
        <time>2010-01-01T00:13:09Z</time>
      </trkpt>
      <trkpt lat="45.83039" lon="4.82704">
        <ele>341.20001</ele>
        <time>2010-01-01T00:13:11Z</time>
      </trkpt>
      <trkpt lat="45.8304" lon="4.827">
        <ele>341.39999</ele>
        <time>2010-01-01T00:13:13Z</time>
      </trkpt>
      <trkpt lat="45.83049" lon="4.82687">
        <ele>342.6</ele>
        <time>2010-01-01T00:13:18Z</time>
      </trkpt>
      <trkpt lat="45.83054" lon="4.82679">
        <ele>343.20001</ele>
        <time>2010-01-01T00:13:21Z</time>
      </trkpt>
      <trkpt lat="45.8306" lon="4.82673">
        <ele>343.79998</ele>
        <time>2010-01-01T00:13:24Z</time>
      </trkpt>
      <trkpt lat="45.83069" lon="4.82655">
        <ele>345</ele>
        <time>2010-01-01T00:13:30Z</time>
      </trkpt>
      <trkpt lat="45.83071" lon="4.82654">
        <ele>345.20001</ele>
        <time>2010-01-01T00:13:31Z</time>
      </trkpt>
      <trkpt lat="45.83076" lon="4.82644">
        <ele>346</ele>
        <time>2010-01-01T00:13:34Z</time>
      </trkpt>
      <trkpt lat="45.83085" lon="4.82629">
        <ele>346.79998</ele>
        <time>2010-01-01T00:13:40Z</time>
      </trkpt>
      <trkpt lat="45.83087" lon="4.82626">
        <ele>347</ele>
        <time>2010-01-01T00:13:41Z</time>
      </trkpt>
      <trkpt lat="45.83092" lon="4.82611">
        <ele>347.79998</ele>
        <time>2010-01-01T00:13:45Z</time>
      </trkpt>
      <trkpt lat="45.83095" lon="4.82607">
        <ele>348.20001</ele>
        <time>2010-01-01T00:13:47Z</time>
      </trkpt>
      <trkpt lat="45.83095" lon="4.82602">
        <ele>348.39999</ele>
        <time>2010-01-01T00:13:48Z</time>
      </trkpt>
      <trkpt lat="45.831" lon="4.82589">
        <ele>348.79998</ele>
        <time>2010-01-01T00:13:52Z</time>
      </trkpt>
      <trkpt lat="45.83104" lon="4.82576">
        <ele>349.20001</ele>
        <time>2010-01-01T00:13:56Z</time>
      </trkpt>
      <trkpt lat="45.83106" lon="4.82571">
        <ele>349.39999</ele>
        <time>2010-01-01T00:13:58Z</time>
      </trkpt>
      <trkpt lat="45.83109" lon="4.82564">
        <ele>349.39999</ele>
        <time>2010-01-01T00:14:00Z</time>
      </trkpt>
      <trkpt lat="45.83112" lon="4.82557">
        <ele>349.39999</ele>
        <time>2010-01-01T00:14:03Z</time>
      </trkpt>
      <trkpt lat="45.83112" lon="4.82554">
        <ele>349.39999</ele>
        <time>2010-01-01T00:14:03Z</time>
      </trkpt>
      <trkpt lat="45.83118" lon="4.82543">
        <ele>349.39999</ele>
        <time>2010-01-01T00:14:07Z</time>
      </trkpt>
      <trkpt lat="45.83123" lon="4.82523">
        <ele>349.39999</ele>
        <time>2010-01-01T00:14:13Z</time>
      </trkpt>
      <trkpt lat="45.83125" lon="4.82505">
        <ele>349.39999</ele>
        <time>2010-01-01T00:14:18Z</time>
      </trkpt>
      <trkpt lat="45.83128" lon="4.82487">
        <ele>349.39999</ele>
        <time>2010-01-01T00:14:23Z</time>
      </trkpt>
      <trkpt lat="45.83128" lon="4.82473">
        <ele>349.39999</ele>
        <time>2010-01-01T00:14:27Z</time>
      </trkpt>
      <trkpt lat="45.83127" lon="4.82468">
        <ele>349.39999</ele>
        <time>2010-01-01T00:14:29Z</time>
      </trkpt>
      <trkpt lat="45.83127" lon="4.82458">
        <ele>349.39999</ele>
        <time>2010-01-01T00:14:31Z</time>
      </trkpt>
      <trkpt lat="45.83127" lon="4.82456">
        <ele>349.39999</ele>
        <time>2010-01-01T00:14:32Z</time>
      </trkpt>
      <trkpt lat="45.83126" lon="4.82447">
        <ele>349.39999</ele>
        <time>2010-01-01T00:14:35Z</time>
      </trkpt>
      <trkpt lat="45.83127" lon="4.82441">
        <ele>349.39999</ele>
        <time>2010-01-01T00:14:36Z</time>
      </trkpt>
      <trkpt lat="45.83127" lon="4.82434">
        <ele>349.6</ele>
        <time>2010-01-01T00:14:38Z</time>
      </trkpt>
      <trkpt lat="45.83125" lon="4.82425">
        <ele>349.6</ele>
        <time>2010-01-01T00:14:41Z</time>
      </trkpt>
      <trkpt lat="45.83125" lon="4.82421">
        <ele>349.79998</ele>
        <time>2010-01-01T00:14:42Z</time>
      </trkpt>
      <trkpt lat="45.83126" lon="4.82415">
        <ele>349.79998</ele>
        <time>2010-01-01T00:14:44Z</time>
      </trkpt>
      <trkpt lat="45.83125" lon="4.82397">
        <ele>350.20001</ele>
        <time>2010-01-01T00:14:49Z</time>
      </trkpt>
      <trkpt lat="45.83125" lon="4.82394">
        <ele>350.20001</ele>
        <time>2010-01-01T00:14:49Z</time>
      </trkpt>
      <trkpt lat="45.83128" lon="4.82373">
        <ele>350.6</ele>
        <time>2010-01-01T00:14:55Z</time>
      </trkpt>
      <trkpt lat="45.83129" lon="4.82358">
        <ele>350.79998</ele>
        <time>2010-01-01T00:15:00Z</time>
      </trkpt>
      <trkpt lat="45.83128" lon="4.82342">
        <ele>351.39999</ele>
        <time>2010-01-01T00:15:04Z</time>
      </trkpt>
      <trkpt lat="45.83127" lon="4.82336">
        <ele>351.6</ele>
        <time>2010-01-01T00:15:06Z</time>
      </trkpt>
      <trkpt lat="45.83124" lon="4.82327">
        <ele>352</ele>
        <time>2010-01-01T00:15:09Z</time>
      </trkpt>
      <trkpt lat="45.83124" lon="4.82325">
        <ele>352</ele>
        <time>2010-01-01T00:15:09Z</time>
      </trkpt>
      <trkpt lat="45.8312" lon="4.82308">
        <ele>352.79998</ele>
        <time>2010-01-01T00:15:14Z</time>
      </trkpt>
      <trkpt lat="45.83119" lon="4.82294">
        <ele>353.39999</ele>
        <time>2010-01-01T00:15:18Z</time>
      </trkpt>
      <trkpt lat="45.83117" lon="4.82277">
        <ele>354.39999</ele>
        <time>2010-01-01T00:15:23Z</time>
      </trkpt>
      <trkpt lat="45.83116" lon="4.82274">
        <ele>354.6</ele>
        <time>2010-01-01T00:15:24Z</time>
      </trkpt>
      <trkpt lat="45.83116" lon="4.82267">
        <ele>355</ele>
        <time>2010-01-01T00:15:26Z</time>
      </trkpt>
      <trkpt lat="45.83115" lon="4.82258">
        <ele>355.79998</ele>
        <time>2010-01-01T00:15:28Z</time>
      </trkpt>
      <trkpt lat="45.83115" lon="4.82256">
        <ele>356</ele>
        <time>2010-01-01T00:15:29Z</time>
      </trkpt>
      <trkpt lat="45.83115" lon="4.82246">
        <ele>356.6</ele>
        <time>2010-01-01T00:15:32Z</time>
      </trkpt>
      <trkpt lat="45.83115" lon="4.82244">
        <ele>356.79998</ele>
        <time>2010-01-01T00:15:32Z</time>
      </trkpt>
      <trkpt lat="45.83111" lon="4.82231">
        <ele>358</ele>
        <time>2010-01-01T00:15:36Z</time>
      </trkpt>
      <trkpt lat="45.83108" lon="4.82216">
        <ele>358.79998</ele>
        <time>2010-01-01T00:15:41Z</time>
      </trkpt>
      <trkpt lat="45.83104" lon="4.82205">
        <ele>359.79998</ele>
        <time>2010-01-01T00:15:44Z</time>
      </trkpt>
      <trkpt lat="45.83103" lon="4.82202">
        <ele>360</ele>
        <time>2010-01-01T00:15:45Z</time>
      </trkpt>
      <trkpt lat="45.83096" lon="4.82185">
        <ele>361.39999</ele>
        <time>2010-01-01T00:15:50Z</time>
      </trkpt>
      <trkpt lat="45.83089" lon="4.8217">
        <ele>362.6</ele>
        <time>2010-01-01T00:15:55Z</time>
      </trkpt>
      <trkpt lat="45.83085" lon="4.82162">
        <ele>363.39999</ele>
        <time>2010-01-01T00:15:58Z</time>
      </trkpt>
      <trkpt lat="45.8308" lon="4.82153">
        <ele>364.39999</ele>
        <time>2010-01-01T00:16:02Z</time>
      </trkpt>
      <trkpt lat="45.83077" lon="4.82148">
        <ele>364.79998</ele>
        <time>2010-01-01T00:16:03Z</time>
      </trkpt>
      <trkpt lat="45.83076" lon="4.82146">
        <ele>365</ele>
        <time>2010-01-01T00:16:04Z</time>
      </trkpt>
      <trkpt lat="45.83075" lon="4.82145">
        <ele>365.20001</ele>
        <time>2010-01-01T00:16:05Z</time>
      </trkpt>
      <trkpt lat="45.83072" lon="4.82139">
        <ele>365.6</ele>
        <time>2010-01-01T00:16:07Z</time>
      </trkpt>
      <trkpt lat="45.83067" lon="4.82127">
        <ele>366.6</ele>
        <time>2010-01-01T00:16:10Z</time>
      </trkpt>
      <trkpt lat="45.83065" lon="4.82124">
        <ele>366.79998</ele>
        <time>2010-01-01T00:16:12Z</time>
      </trkpt>
      <trkpt lat="45.83062" lon="4.82121">
        <ele>367.39999</ele>
        <time>2010-01-01T00:16:13Z</time>
      </trkpt>
      <trkpt lat="45.83061" lon="4.82119">
        <ele>367.39999</ele>
        <time>2010-01-01T00:16:14Z</time>
      </trkpt>
      <trkpt lat="45.83054" lon="4.82111">
        <ele>368.20001</ele>
        <time>2010-01-01T00:16:17Z</time>
      </trkpt>
      <trkpt lat="45.83051" lon="4.82107">
        <ele>368.6</ele>
        <time>2010-01-01T00:16:19Z</time>
      </trkpt>
      <trkpt lat="45.83042" lon="4.82095">
        <ele>369.6</ele>
        <time>2010-01-01T00:16:24Z</time>
      </trkpt>
      <trkpt lat="45.83035" lon="4.82084">
        <ele>370.39999</ele>
        <time>2010-01-01T00:16:28Z</time>
      </trkpt>
      <trkpt lat="45.83026" lon="4.82074">
        <ele>371.6</ele>
        <time>2010-01-01T00:16:32Z</time>
      </trkpt>
      <trkpt lat="45.83018" lon="4.82065">
        <ele>372.6</ele>
        <time>2010-01-01T00:16:37Z</time>
      </trkpt>
      <trkpt lat="45.83013" lon="4.82057">
        <ele>373.6</ele>
        <time>2010-01-01T00:16:40Z</time>
      </trkpt>
      <trkpt lat="45.83002" lon="4.82043">
        <ele>375</ele>
        <time>2010-01-01T00:16:45Z</time>
      </trkpt>
      <trkpt lat="45.8299" lon="4.82026">
        <ele>376.39999</ele>
        <time>2010-01-01T00:16:52Z</time>
      </trkpt>
      <trkpt lat="45.82986" lon="4.82022">
        <ele>376.79998</ele>
        <time>2010-01-01T00:16:54Z</time>
      </trkpt>
      <trkpt lat="45.8298" lon="4.82011">
        <ele>377.79998</ele>
        <time>2010-01-01T00:16:58Z</time>
      </trkpt>
      <trkpt lat="45.82981" lon="4.82005">
        <ele>378.20001</ele>
        <time>2010-01-01T00:17:00Z</time>
      </trkpt>
      <trkpt lat="45.82983" lon="4.82001">
        <ele>378.6</ele>
        <time>2010-01-01T00:17:01Z</time>
      </trkpt>
      <trkpt lat="45.82989" lon="4.81995">
        <ele>379.6</ele>
        <time>2010-01-01T00:17:04Z</time>
      </trkpt>
      <trkpt lat="45.82991" lon="4.81993">
        <ele>379.79998</ele>
        <time>2010-01-01T00:17:05Z</time>
      </trkpt>
      <trkpt lat="45.82996" lon="4.81989">
        <ele>380.39999</ele>
        <time>2010-01-01T00:17:07Z</time>
      </trkpt>
      <trkpt lat="45.82997" lon="4.81986">
        <ele>380.39999</ele>
        <time>2010-01-01T00:17:08Z</time>
      </trkpt>
      <trkpt lat="45.82998" lon="4.81983">
        <ele>380.79998</ele>
        <time>2010-01-01T00:17:10Z</time>
      </trkpt>
      <trkpt lat="45.83" lon="4.8198">
        <ele>381.20001</ele>
        <time>2010-01-01T00:17:11Z</time>
      </trkpt>
      <trkpt lat="45.83003" lon="4.81977">
        <ele>381.39999</ele>
        <time>2010-01-01T00:17:12Z</time>
      </trkpt>
      <trkpt lat="45.83008" lon="4.81968">
        <ele>381.79998</ele>
        <time>2010-01-01T00:17:15Z</time>
      </trkpt>
      <trkpt lat="45.83009" lon="4.81967">
        <ele>381.79998</ele>
        <time>2010-01-01T00:17:15Z</time>
      </trkpt>
      <trkpt lat="45.83009" lon="4.81966">
        <ele>381.79998</ele>
        <time>2010-01-01T00:17:16Z</time>
      </trkpt>
      <trkpt lat="45.83011" lon="4.81964">
        <ele>382</ele>
        <time>2010-01-01T00:17:17Z</time>
      </trkpt>
      <trkpt lat="45.83012" lon="4.81962">
        <ele>382</ele>
        <time>2010-01-01T00:17:17Z</time>
      </trkpt>
      <trkpt lat="45.83012" lon="4.8196">
        <ele>382</ele>
        <time>2010-01-01T00:17:18Z</time>
      </trkpt>
      <trkpt lat="45.83016" lon="4.81954">
        <ele>382.20001</ele>
        <time>2010-01-01T00:17:20Z</time>
      </trkpt>
      <trkpt lat="45.83018" lon="4.8195">
        <ele>382.20001</ele>
        <time>2010-01-01T00:17:22Z</time>
      </trkpt>
      <trkpt lat="45.83019" lon="4.81946">
        <ele>382.39999</ele>
        <time>2010-01-01T00:17:23Z</time>
      </trkpt>
      <trkpt lat="45.83019" lon="4.81944">
        <ele>382.39999</ele>
        <time>2010-01-01T00:17:23Z</time>
      </trkpt>
      <trkpt lat="45.83019" lon="4.81939">
        <ele>382.39999</ele>
        <time>2010-01-01T00:17:25Z</time>
      </trkpt>
      <trkpt lat="45.83019" lon="4.81939">
        <ele>382.39999</ele>
        <time>2010-01-01T00:17:25Z</time>
      </trkpt>
      <trkpt lat="45.83018" lon="4.81935">
        <ele>382.39999</ele>
        <time>2010-01-01T00:17:26Z</time>
      </trkpt>
      <trkpt lat="45.83017" lon="4.81928">
        <ele>382.39999</ele>
        <time>2010-01-01T00:17:28Z</time>
      </trkpt>
      <trkpt lat="45.83016" lon="4.81922">
        <ele>382.20001</ele>
        <time>2010-01-01T00:17:30Z</time>
      </trkpt>
      <trkpt lat="45.83016" lon="4.81921">
        <ele>382.20001</ele>
        <time>2010-01-01T00:17:30Z</time>
      </trkpt>
      <trkpt lat="45.83015" lon="4.81913">
        <ele>382</ele>
        <time>2010-01-01T00:17:32Z</time>
      </trkpt>
      <trkpt lat="45.83015" lon="4.8191">
        <ele>382</ele>
        <time>2010-01-01T00:17:33Z</time>
      </trkpt>
      <trkpt lat="45.83014" lon="4.81908">
        <ele>382</ele>
        <time>2010-01-01T00:17:34Z</time>
      </trkpt>
      <trkpt lat="45.83012" lon="4.81903">
        <ele>382</ele>
        <time>2010-01-01T00:17:35Z</time>
      </trkpt>
      <trkpt lat="45.8301" lon="4.81899">
        <ele>381.79998</ele>
        <time>2010-01-01T00:17:37Z</time>
      </trkpt>
      <trkpt lat="45.83006" lon="4.81887">
        <ele>381.6</ele>
        <time>2010-01-01T00:17:40Z</time>
      </trkpt>
      <trkpt lat="45.83002" lon="4.81877">
        <ele>381.39999</ele>
        <time>2010-01-01T00:17:43Z</time>
      </trkpt>
      <trkpt lat="45.83" lon="4.81874">
        <ele>381.39999</ele>
        <time>2010-01-01T00:17:45Z</time>
      </trkpt>
      <trkpt lat="45.82999" lon="4.81867">
        <ele>381.39999</ele>
        <time>2010-01-01T00:17:47Z</time>
      </trkpt>
      <trkpt lat="45.82997" lon="4.81864">
        <ele>381.39999</ele>
        <time>2010-01-01T00:17:48Z</time>
      </trkpt>
      <trkpt lat="45.82994" lon="4.81858">
        <ele>381.39999</ele>
        <time>2010-01-01T00:17:50Z</time>
      </trkpt>
      <trkpt lat="45.82992" lon="4.8185">
        <ele>381.39999</ele>
        <time>2010-01-01T00:17:52Z</time>
      </trkpt>
      <trkpt lat="45.82991" lon="4.81845">
        <ele>381.39999</ele>
        <time>2010-01-01T00:17:54Z</time>
      </trkpt>
      <trkpt lat="45.82985" lon="4.81831">
        <ele>381.79998</ele>
        <time>2010-01-01T00:17:58Z</time>
      </trkpt>
      <trkpt lat="45.82981" lon="4.81823">
        <ele>382</ele>
        <time>2010-01-01T00:18:01Z</time>
      </trkpt>
      <trkpt lat="45.82979" lon="4.81819">
        <ele>382.20001</ele>
        <time>2010-01-01T00:18:02Z</time>
      </trkpt>
      <trkpt lat="45.82977" lon="4.81812">
        <ele>382.39999</ele>
        <time>2010-01-01T00:18:04Z</time>
      </trkpt>
      <trkpt lat="45.82976" lon="4.81808">
        <ele>382.39999</ele>
        <time>2010-01-01T00:18:06Z</time>
      </trkpt>
      <trkpt lat="45.82974" lon="4.81805">
        <ele>382.79998</ele>
        <time>2010-01-01T00:18:07Z</time>
      </trkpt>
      <trkpt lat="45.82972" lon="4.81801">
        <ele>383</ele>
        <time>2010-01-01T00:18:08Z</time>
      </trkpt>
      <trkpt lat="45.82971" lon="4.81799">
        <ele>383.20001</ele>
        <time>2010-01-01T00:18:09Z</time>
      </trkpt>
      <trkpt lat="45.82969" lon="4.81796">
        <ele>383.6</ele>
        <time>2010-01-01T00:18:10Z</time>
      </trkpt>
      <trkpt lat="45.82968" lon="4.81795">
        <ele>383.6</ele>
        <time>2010-01-01T00:18:11Z</time>
      </trkpt>
      <trkpt lat="45.82966" lon="4.81793">
        <ele>384</ele>
        <time>2010-01-01T00:18:12Z</time>
      </trkpt>
      <trkpt lat="45.82963" lon="4.81787">
        <ele>384.79998</ele>
        <time>2010-01-01T00:18:14Z</time>
      </trkpt>
      <trkpt lat="45.82961" lon="4.81781">
        <ele>385.39999</ele>
        <time>2010-01-01T00:18:16Z</time>
      </trkpt>
      <trkpt lat="45.8296" lon="4.8178">
        <ele>385.6</ele>
        <time>2010-01-01T00:18:16Z</time>
      </trkpt>
      <trkpt lat="45.8296" lon="4.81779">
        <ele>385.79998</ele>
        <time>2010-01-01T00:18:16Z</time>
      </trkpt>
      <trkpt lat="45.82959" lon="4.81776">
        <ele>386.39999</ele>
        <time>2010-01-01T00:18:17Z</time>
      </trkpt>
      <trkpt lat="45.82958" lon="4.81775">
        <ele>386.6</ele>
        <time>2010-01-01T00:18:17Z</time>
      </trkpt>
      <trkpt lat="45.82952" lon="4.81769">
        <ele>388.6</ele>
        <time>2010-01-01T00:18:20Z</time>
      </trkpt>
      <trkpt lat="45.82949" lon="4.81765">
        <ele>389.20001</ele>
        <time>2010-01-01T00:18:22Z</time>
      </trkpt>
      <trkpt lat="45.82947" lon="4.81764">
        <ele>389.79998</ele>
        <time>2010-01-01T00:18:23Z</time>
      </trkpt>
      <trkpt lat="45.82939" lon="4.81761">
        <ele>391.39999</ele>
        <time>2010-01-01T00:18:26Z</time>
      </trkpt>
      <trkpt lat="45.82937" lon="4.8176">
        <ele>391.6</ele>
        <time>2010-01-01T00:18:27Z</time>
      </trkpt>
      <trkpt lat="45.82936" lon="4.81758">
        <ele>392</ele>
        <time>2010-01-01T00:18:28Z</time>
      </trkpt>
      <trkpt lat="45.82936" lon="4.81758">
        <ele>392</ele>
        <time>2010-01-01T00:18:28Z</time>
      </trkpt>
      <trkpt lat="45.82933" lon="4.81755">
        <ele>392.6</ele>
        <time>2010-01-01T00:18:29Z</time>
      </trkpt>
      <trkpt lat="45.82932" lon="4.81752">
        <ele>392.79998</ele>
        <time>2010-01-01T00:18:30Z</time>
      </trkpt>
      <trkpt lat="45.8293" lon="4.81746">
        <ele>393.20001</ele>
        <time>2010-01-01T00:18:32Z</time>
      </trkpt>
      <trkpt lat="45.82929" lon="4.81741">
        <ele>393.39999</ele>
        <time>2010-01-01T00:18:33Z</time>
      </trkpt>
      <trkpt lat="45.82926" lon="4.81735">
        <ele>393.6</ele>
        <time>2010-01-01T00:18:35Z</time>
      </trkpt>
      <trkpt lat="45.82925" lon="4.8173">
        <ele>393.6</ele>
        <time>2010-01-01T00:18:37Z</time>
      </trkpt>
      <trkpt lat="45.82924" lon="4.81724">
        <ele>393.79998</ele>
        <time>2010-01-01T00:18:39Z</time>
      </trkpt>
      <trkpt lat="45.82919" lon="4.81717">
        <ele>394</ele>
        <time>2010-01-01T00:18:41Z</time>
      </trkpt>
      <trkpt lat="45.82915" lon="4.81701">
        <ele>394.39999</ele>
        <time>2010-01-01T00:18:46Z</time>
      </trkpt>
      <trkpt lat="45.82912" lon="4.81686">
        <ele>394.79998</ele>
        <time>2010-01-01T00:18:50Z</time>
      </trkpt>
      <trkpt lat="45.82912" lon="4.81683">
        <ele>394.79998</ele>
        <time>2010-01-01T00:18:51Z</time>
      </trkpt>
      <trkpt lat="45.82912" lon="4.81673">
        <ele>395</ele>
        <time>2010-01-01T00:18:54Z</time>
      </trkpt>
      <trkpt lat="45.8291" lon="4.81668">
        <ele>395</ele>
        <time>2010-01-01T00:18:56Z</time>
      </trkpt>
      <trkpt lat="45.82904" lon="4.81656">
        <ele>395.20001</ele>
        <time>2010-01-01T00:19:00Z</time>
      </trkpt>
      <trkpt lat="45.82901" lon="4.8165">
        <ele>395</ele>
        <time>2010-01-01T00:19:02Z</time>
      </trkpt>
      <trkpt lat="45.82895" lon="4.81641">
        <ele>395</ele>
        <time>2010-01-01T00:19:05Z</time>
      </trkpt>
      <trkpt lat="45.82879" lon="4.81626">
        <ele>394.79998</ele>
        <time>2010-01-01T00:19:13Z</time>
      </trkpt>
      <trkpt lat="45.82876" lon="4.81617">
        <ele>394.6</ele>
        <time>2010-01-01T00:19:16Z</time>
      </trkpt>
      <trkpt lat="45.82871" lon="4.81595">
        <ele>394.39999</ele>
        <time>2010-01-01T00:19:22Z</time>
      </trkpt>
      <trkpt lat="45.82868" lon="4.81582">
        <ele>394.20001</ele>
        <time>2010-01-01T00:19:26Z</time>
      </trkpt>
      <trkpt lat="45.82865" lon="4.8157">
        <ele>394</ele>
        <time>2010-01-01T00:19:29Z</time>
      </trkpt>
      <trkpt lat="45.82863" lon="4.81566">
        <ele>394</ele>
        <time>2010-01-01T00:19:31Z</time>
      </trkpt>
      <trkpt lat="45.82861" lon="4.81547">
        <ele>393.6</ele>
        <time>2010-01-01T00:19:36Z</time>
      </trkpt>
      <trkpt lat="45.82861" lon="4.81543">
        <ele>393.39999</ele>
        <time>2010-01-01T00:19:37Z</time>
      </trkpt>
      <trkpt lat="45.82865" lon="4.81518">
        <ele>392.6</ele>
        <time>2010-01-01T00:19:45Z</time>
      </trkpt>
      <trkpt lat="45.82865" lon="4.81515">
        <ele>392.6</ele>
        <time>2010-01-01T00:19:45Z</time>
      </trkpt>
      <trkpt lat="45.8287" lon="4.81497">
        <ele>391.79998</ele>
        <time>2010-01-01T00:19:51Z</time>
      </trkpt>
      <trkpt lat="45.82878" lon="4.81485">
        <ele>391.20001</ele>
        <time>2010-01-01T00:19:55Z</time>
      </trkpt>
      <trkpt lat="45.82885" lon="4.81472">
        <ele>390.39999</ele>
        <time>2010-01-01T00:20:00Z</time>
      </trkpt>
      <trkpt lat="45.82894" lon="4.81463">
        <ele>389.39999</ele>
        <time>2010-01-01T00:20:04Z</time>
      </trkpt>
      <trkpt lat="45.82903" lon="4.81447">
        <ele>388.39999</ele>
        <time>2010-01-01T00:20:10Z</time>
      </trkpt>
      <trkpt lat="45.82908" lon="4.81433">
        <ele>387.39999</ele>
        <time>2010-01-01T00:20:14Z</time>
      </trkpt>
      <trkpt lat="45.82915" lon="4.81418">
        <ele>386.20001</ele>
        <time>2010-01-01T00:20:20Z</time>
      </trkpt>
      <trkpt lat="45.82924" lon="4.81408">
        <ele>385</ele>
        <time>2010-01-01T00:20:24Z</time>
      </trkpt>
      <trkpt lat="45.82926" lon="4.81405">
        <ele>384.79998</ele>
        <time>2010-01-01T00:20:25Z</time>
      </trkpt>
      <trkpt lat="45.82933" lon="4.81397">
        <ele>384</ele>
        <time>2010-01-01T00:20:29Z</time>
      </trkpt>
      <trkpt lat="45.82934" lon="4.81395">
        <ele>383.79998</ele>
        <time>2010-01-01T00:20:29Z</time>
      </trkpt>
      <trkpt lat="45.82941" lon="4.81386">
        <ele>382.6</ele>
        <time>2010-01-01T00:20:33Z</time>
      </trkpt>
      <trkpt lat="45.82944" lon="4.81381">
        <ele>382.20001</ele>
        <time>2010-01-01T00:20:35Z</time>
      </trkpt>
      <trkpt lat="45.82946" lon="4.81379">
        <ele>381.79998</ele>
        <time>2010-01-01T00:20:36Z</time>
      </trkpt>
      <trkpt lat="45.82952" lon="4.81367">
        <ele>380.6</ele>
        <time>2010-01-01T00:20:40Z</time>
      </trkpt>
      <trkpt lat="45.82956" lon="4.81362">
        <ele>380.20001</ele>
        <time>2010-01-01T00:20:42Z</time>
      </trkpt>
      <trkpt lat="45.82959" lon="4.81353">
        <ele>379.39999</ele>
        <time>2010-01-01T00:20:45Z</time>
      </trkpt>
      <trkpt lat="45.82962" lon="4.81348">
        <ele>379.20001</ele>
        <time>2010-01-01T00:20:47Z</time>
      </trkpt>
      <trkpt lat="45.82967" lon="4.81343">
        <ele>378.6</ele>
        <time>2010-01-01T00:20:49Z</time>
      </trkpt>
      <trkpt lat="45.82974" lon="4.81334">
        <ele>377.79998</ele>
        <time>2010-01-01T00:20:53Z</time>
      </trkpt>
      <trkpt lat="45.82976" lon="4.81333">
        <ele>377.39999</ele>
        <time>2010-01-01T00:20:54Z</time>
      </trkpt>
      <trkpt lat="45.82981" lon="4.81327">
        <ele>376.79998</ele>
        <time>2010-01-01T00:20:56Z</time>
      </trkpt>
      <trkpt lat="45.82984" lon="4.81325">
        <ele>376.20001</ele>
        <time>2010-01-01T00:20:58Z</time>
      </trkpt>
      <trkpt lat="45.82988" lon="4.81319">
        <ele>375.79998</ele>
        <time>2010-01-01T00:21:00Z</time>
      </trkpt>
      <trkpt lat="45.82992" lon="4.81315">
        <ele>375.20001</ele>
        <time>2010-01-01T00:21:02Z</time>
      </trkpt>
      <trkpt lat="45.82997" lon="4.81312">
        <ele>374.79998</ele>
        <time>2010-01-01T00:21:04Z</time>
      </trkpt>
      <trkpt lat="45.83002" lon="4.81311">
        <ele>374.20001</ele>
        <time>2010-01-01T00:21:06Z</time>
      </trkpt>
      <trkpt lat="45.83007" lon="4.81303">
        <ele>373.20001</ele>
        <time>2010-01-01T00:21:09Z</time>
      </trkpt>
      <trkpt lat="45.83008" lon="4.81299">
        <ele>372.79998</ele>
        <time>2010-01-01T00:21:10Z</time>
      </trkpt>
      <trkpt lat="45.83011" lon="4.81295">
        <ele>372</ele>
        <time>2010-01-01T00:21:12Z</time>
      </trkpt>
      <trkpt lat="45.83014" lon="4.81294">
        <ele>371.39999</ele>
        <time>2010-01-01T00:21:13Z</time>
      </trkpt>
      <trkpt lat="45.83018" lon="4.81296">
        <ele>370.6</ele>
        <time>2010-01-01T00:21:15Z</time>
      </trkpt>
      <trkpt lat="45.83023" lon="4.81305">
        <ele>369.39999</ele>
        <time>2010-01-01T00:21:18Z</time>
      </trkpt>
      <trkpt lat="45.83031" lon="4.81314">
        <ele>368</ele>
        <time>2010-01-01T00:21:22Z</time>
      </trkpt>
      <trkpt lat="45.8304" lon="4.81318">
        <ele>366.79998</ele>
        <time>2010-01-01T00:21:26Z</time>
      </trkpt>
      <trkpt lat="45.83042" lon="4.81319">
        <ele>366.6</ele>
        <time>2010-01-01T00:21:27Z</time>
      </trkpt>
      <trkpt lat="45.8305" lon="4.81326">
        <ele>365.39999</ele>
        <time>2010-01-01T00:21:30Z</time>
      </trkpt>
      <trkpt lat="45.8306" lon="4.81337">
        <ele>363.79998</ele>
        <time>2010-01-01T00:21:35Z</time>
      </trkpt>
      <trkpt lat="45.83067" lon="4.81354">
        <ele>362.20001</ele>
        <time>2010-01-01T00:21:41Z</time>
      </trkpt>
      <trkpt lat="45.83073" lon="4.81371">
        <ele>360.6</ele>
        <time>2010-01-01T00:21:46Z</time>
      </trkpt>
      <trkpt lat="45.83075" lon="4.81372">
        <ele>360.39999</ele>
        <time>2010-01-01T00:21:47Z</time>
      </trkpt>
      <trkpt lat="45.83077" lon="4.81373">
        <ele>359.79998</ele>
        <time>2010-01-01T00:21:48Z</time>
      </trkpt>
      <trkpt lat="45.83082" lon="4.81368">
        <ele>358.20001</ele>
        <time>2010-01-01T00:21:51Z</time>
      </trkpt>
      <trkpt lat="45.83085" lon="4.81363">
        <ele>357</ele>
        <time>2010-01-01T00:21:52Z</time>
      </trkpt>
      <trkpt lat="45.83091" lon="4.81359">
        <ele>355.79998</ele>
        <time>2010-01-01T00:21:55Z</time>
      </trkpt>
      <trkpt lat="45.83092" lon="4.81357">
        <ele>355.20001</ele>
        <time>2010-01-01T00:21:56Z</time>
      </trkpt>
      <trkpt lat="45.83095" lon="4.81358">
        <ele>354.79998</ele>
        <time>2010-01-01T00:21:57Z</time>
      </trkpt>
      <trkpt lat="45.83097" lon="4.81358">
        <ele>354.6</ele>
        <time>2010-01-01T00:21:57Z</time>
      </trkpt>
      <trkpt lat="45.83103" lon="4.81356">
        <ele>353.6</ele>
        <time>2010-01-01T00:22:00Z</time>
      </trkpt>
      <trkpt lat="45.83105" lon="4.81354">
        <ele>353.39999</ele>
        <time>2010-01-01T00:22:01Z</time>
      </trkpt>
      <trkpt lat="45.83108" lon="4.81352">
        <ele>353</ele>
        <time>2010-01-01T00:22:02Z</time>
      </trkpt>
      <trkpt lat="45.83115" lon="4.81351">
        <ele>352.20001</ele>
        <time>2010-01-01T00:22:05Z</time>
      </trkpt>
      <trkpt lat="45.83118" lon="4.81349">
        <ele>351.6</ele>
        <time>2010-01-01T00:22:06Z</time>
      </trkpt>
      <trkpt lat="45.8312" lon="4.81348">
        <ele>351</ele>
        <time>2010-01-01T00:22:07Z</time>
      </trkpt>
      <trkpt lat="45.83121" lon="4.81346">
        <ele>350.20001</ele>
        <time>2010-01-01T00:22:08Z</time>
      </trkpt>
      <trkpt lat="45.83121" lon="4.81345">
        <ele>350</ele>
        <time>2010-01-01T00:22:08Z</time>
      </trkpt>
      <trkpt lat="45.83122" lon="4.81341">
        <ele>348.39999</ele>
        <time>2010-01-01T00:22:09Z</time>
      </trkpt>
      <trkpt lat="45.83122" lon="4.81336">
        <ele>347.20001</ele>
        <time>2010-01-01T00:22:11Z</time>
      </trkpt>
      <trkpt lat="45.83123" lon="4.81331">
        <ele>345.79998</ele>
        <time>2010-01-01T00:22:12Z</time>
      </trkpt>
      <trkpt lat="45.83124" lon="4.81323">
        <ele>344.39999</ele>
        <time>2010-01-01T00:22:14Z</time>
      </trkpt>
      <trkpt lat="45.83126" lon="4.81322">
        <ele>343.79998</ele>
        <time>2010-01-01T00:22:15Z</time>
      </trkpt>
      <trkpt lat="45.83131" lon="4.81326">
        <ele>342.20001</ele>
        <time>2010-01-01T00:22:18Z</time>
      </trkpt>
      <trkpt lat="45.83133" lon="4.81328">
        <ele>341.39999</ele>
        <time>2010-01-01T00:22:19Z</time>
      </trkpt>
      <trkpt lat="45.83137" lon="4.81333">
        <ele>340.20001</ele>
        <time>2010-01-01T00:22:21Z</time>
      </trkpt>
      <trkpt lat="45.8314" lon="4.81335">
        <ele>339.39999</ele>
        <time>2010-01-01T00:22:22Z</time>
      </trkpt>
      <trkpt lat="45.83143" lon="4.81338">
        <ele>339</ele>
        <time>2010-01-01T00:22:23Z</time>
      </trkpt>
      <trkpt lat="45.83145" lon="4.81339">
        <ele>338.6</ele>
        <time>2010-01-01T00:22:24Z</time>
      </trkpt>
      <trkpt lat="45.83148" lon="4.8134">
        <ele>338</ele>
        <time>2010-01-01T00:22:26Z</time>
      </trkpt>
      <trkpt lat="45.83151" lon="4.81342">
        <ele>337.39999</ele>
        <time>2010-01-01T00:22:27Z</time>
      </trkpt>
      <trkpt lat="45.83152" lon="4.81342">
        <ele>337.20001</ele>
        <time>2010-01-01T00:22:27Z</time>
      </trkpt>
      <trkpt lat="45.83156" lon="4.81345">
        <ele>336.39999</ele>
        <time>2010-01-01T00:22:29Z</time>
      </trkpt>
      <trkpt lat="45.83158" lon="4.81346">
        <ele>336.20001</ele>
        <time>2010-01-01T00:22:30Z</time>
      </trkpt>
      <trkpt lat="45.83161" lon="4.81347">
        <ele>335.79998</ele>
        <time>2010-01-01T00:22:31Z</time>
      </trkpt>
      <trkpt lat="45.83161" lon="4.81348">
        <ele>335.6</ele>
        <time>2010-01-01T00:22:31Z</time>
      </trkpt>
      <trkpt lat="45.83165" lon="4.8135">
        <ele>335</ele>
        <time>2010-01-01T00:22:33Z</time>
      </trkpt>
      <trkpt lat="45.8317" lon="4.81355">
        <ele>334.20001</ele>
        <time>2010-01-01T00:22:35Z</time>
      </trkpt>
      <trkpt lat="45.83175" lon="4.81355">
        <ele>333.6</ele>
        <time>2010-01-01T00:22:38Z</time>
      </trkpt>
      <trkpt lat="45.83179" lon="4.81359">
        <ele>333.20001</ele>
        <time>2010-01-01T00:22:39Z</time>
      </trkpt>
      <trkpt lat="45.83185" lon="4.8136">
        <ele>332.6</ele>
        <time>2010-01-01T00:22:42Z</time>
      </trkpt>
      <trkpt lat="45.8319" lon="4.81356">
        <ele>332.20001</ele>
        <time>2010-01-01T00:22:44Z</time>
      </trkpt>
      <trkpt lat="45.83192" lon="4.81356">
        <ele>332.20001</ele>
        <time>2010-01-01T00:22:45Z</time>
      </trkpt>
      <trkpt lat="45.83195" lon="4.81359">
        <ele>332</ele>
        <time>2010-01-01T00:22:47Z</time>
      </trkpt>
      <trkpt lat="45.83199" lon="4.81361">
        <ele>331.79998</ele>
        <time>2010-01-01T00:22:48Z</time>
      </trkpt>
      <trkpt lat="45.83202" lon="4.81359">
        <ele>331.79998</ele>
        <time>2010-01-01T00:22:49Z</time>
      </trkpt>
      <trkpt lat="45.83203" lon="4.81359">
        <ele>331.79998</ele>
        <time>2010-01-01T00:22:50Z</time>
      </trkpt>
      <trkpt lat="45.83205" lon="4.81356">
        <ele>331.79998</ele>
        <time>2010-01-01T00:22:51Z</time>
      </trkpt>
      <trkpt lat="45.83207" lon="4.81353">
        <ele>331.79998</ele>
        <time>2010-01-01T00:22:52Z</time>
      </trkpt>
      <trkpt lat="45.83208" lon="4.81353">
        <ele>331.79998</ele>
        <time>2010-01-01T00:22:52Z</time>
      </trkpt>
      <trkpt lat="45.83209" lon="4.81353">
        <ele>331.79998</ele>
        <time>2010-01-01T00:22:53Z</time>
      </trkpt>
      <trkpt lat="45.83213" lon="4.81353">
        <ele>332</ele>
        <time>2010-01-01T00:22:54Z</time>
      </trkpt>
      <trkpt lat="45.83214" lon="4.81353">
        <ele>332</ele>
        <time>2010-01-01T00:22:55Z</time>
      </trkpt>
      <trkpt lat="45.83217" lon="4.81357">
        <ele>332</ele>
        <time>2010-01-01T00:22:57Z</time>
      </trkpt>
      <trkpt lat="45.83221" lon="4.81361">
        <ele>332</ele>
        <time>2010-01-01T00:22:59Z</time>
      </trkpt>
      <trkpt lat="45.83223" lon="4.81364">
        <ele>332</ele>
        <time>2010-01-01T00:23:00Z</time>
      </trkpt>
      <trkpt lat="45.83225" lon="4.81363">
        <ele>332</ele>
        <time>2010-01-01T00:23:00Z</time>
      </trkpt>
      <trkpt lat="45.83226" lon="4.81362">
        <ele>332</ele>
        <time>2010-01-01T00:23:01Z</time>
      </trkpt>
      <trkpt lat="45.83226" lon="4.81362">
        <ele>332</ele>
        <time>2010-01-01T00:23:01Z</time>
      </trkpt>
      <trkpt lat="45.83231" lon="4.81359">
        <ele>332</ele>
        <time>2010-01-01T00:23:03Z</time>
      </trkpt>
      <trkpt lat="45.83232" lon="4.81355">
        <ele>332.39999</ele>
        <time>2010-01-01T00:23:04Z</time>
      </trkpt>
      <trkpt lat="45.83233" lon="4.81354">
        <ele>332.39999</ele>
        <time>2010-01-01T00:23:05Z</time>
      </trkpt>
      <trkpt lat="45.83236" lon="4.81353">
        <ele>332.6</ele>
        <time>2010-01-01T00:23:06Z</time>
      </trkpt>
      <trkpt lat="45.83241" lon="4.81349">
        <ele>333</ele>
        <time>2010-01-01T00:23:08Z</time>
      </trkpt>
      <trkpt lat="45.83242" lon="4.81344">
        <ele>333.6</ele>
        <time>2010-01-01T00:23:10Z</time>
      </trkpt>
      <trkpt lat="45.83243" lon="4.81342">
        <ele>333.6</ele>
        <time>2010-01-01T00:23:10Z</time>
      </trkpt>
      <trkpt lat="45.83247" lon="4.81338">
        <ele>334.20001</ele>
        <time>2010-01-01T00:23:12Z</time>
      </trkpt>
      <trkpt lat="45.83251" lon="4.81333">
        <ele>334.79998</ele>
        <time>2010-01-01T00:23:14Z</time>
      </trkpt>
      <trkpt lat="45.83252" lon="4.81332">
        <ele>335</ele>
        <time>2010-01-01T00:23:15Z</time>
      </trkpt>
      <trkpt lat="45.83254" lon="4.81326">
        <ele>336</ele>
        <time>2010-01-01T00:23:17Z</time>
      </trkpt>
      <trkpt lat="45.8325" lon="4.81314">
        <ele>337.20001</ele>
        <time>2010-01-01T00:23:20Z</time>
      </trkpt>
      <trkpt lat="45.83247" lon="4.81307">
        <ele>338.39999</ele>
        <time>2010-01-01T00:23:23Z</time>
      </trkpt>
      <trkpt lat="45.83247" lon="4.81303">
        <ele>339.20001</ele>
        <time>2010-01-01T00:23:24Z</time>
      </trkpt>
      <trkpt lat="45.83246" lon="4.813">
        <ele>340</ele>
        <time>2010-01-01T00:23:25Z</time>
      </trkpt>
      <trkpt lat="45.83242" lon="4.81288">
        <ele>342</ele>
        <time>2010-01-01T00:23:28Z</time>
      </trkpt>
      <trkpt lat="45.83239" lon="4.81279">
        <ele>343</ele>
        <time>2010-01-01T00:23:31Z</time>
      </trkpt>
      <trkpt lat="45.83239" lon="4.81267">
        <ele>344</ele>
        <time>2010-01-01T00:23:35Z</time>
      </trkpt>
      <trkpt lat="45.83236" lon="4.81252">
        <ele>345.39999</ele>
        <time>2010-01-01T00:23:39Z</time>
      </trkpt>
      <trkpt lat="45.83234" lon="4.8123">
        <ele>347.39999</ele>
        <time>2010-01-01T00:23:45Z</time>
      </trkpt>
      <trkpt lat="45.83234" lon="4.81218">
        <ele>348.6</ele>
        <time>2010-01-01T00:23:49Z</time>
      </trkpt>
      <trkpt lat="45.83235" lon="4.81201">
        <ele>350.39999</ele>
        <time>2010-01-01T00:23:53Z</time>
      </trkpt>
      <trkpt lat="45.83235" lon="4.81196">
        <ele>351</ele>
        <time>2010-01-01T00:23:54Z</time>
      </trkpt>
      <trkpt lat="45.83235" lon="4.81192">
        <ele>351.79998</ele>
        <time>2010-01-01T00:23:56Z</time>
      </trkpt>
      <trkpt lat="45.83235" lon="4.8119">
        <ele>352</ele>
        <time>2010-01-01T00:23:56Z</time>
      </trkpt>
      <trkpt lat="45.83232" lon="4.8118">
        <ele>353.6</ele>
        <time>2010-01-01T00:23:59Z</time>
      </trkpt>
      <trkpt lat="45.8323" lon="4.81167">
        <ele>355.39999</ele>
        <time>2010-01-01T00:24:03Z</time>
      </trkpt>
      <trkpt lat="45.83235" lon="4.81155">
        <ele>357</ele>
        <time>2010-01-01T00:24:07Z</time>
      </trkpt>
      <trkpt lat="45.83237" lon="4.81148">
        <ele>358</ele>
        <time>2010-01-01T00:24:09Z</time>
      </trkpt>
      <trkpt lat="45.83239" lon="4.81139">
        <ele>359.39999</ele>
        <time>2010-01-01T00:24:12Z</time>
      </trkpt>
      <trkpt lat="45.83239" lon="4.81138">
        <ele>359.39999</ele>
        <time>2010-01-01T00:24:12Z</time>
      </trkpt>
      <trkpt lat="45.83238" lon="4.81128">
        <ele>360.6</ele>
        <time>2010-01-01T00:24:15Z</time>
      </trkpt>
      <trkpt lat="45.83238" lon="4.81124">
        <ele>360.79998</ele>
        <time>2010-01-01T00:24:16Z</time>
      </trkpt>
      <trkpt lat="45.83238" lon="4.81117">
        <ele>361.39999</ele>
        <time>2010-01-01T00:24:18Z</time>
      </trkpt>
      <trkpt lat="45.83237" lon="4.81112">
        <ele>361.6</ele>
        <time>2010-01-01T00:24:19Z</time>
      </trkpt>
      <trkpt lat="45.83237" lon="4.81109">
        <ele>361.79998</ele>
        <time>2010-01-01T00:24:20Z</time>
      </trkpt>
      <trkpt lat="45.83235" lon="4.81099">
        <ele>362.6</ele>
        <time>2010-01-01T00:24:23Z</time>
      </trkpt>
      <trkpt lat="45.83233" lon="4.81097">
        <ele>363</ele>
        <time>2010-01-01T00:24:24Z</time>
      </trkpt>
      <trkpt lat="45.8322" lon="4.81092">
        <ele>364.6</ele>
        <time>2010-01-01T00:24:29Z</time>
      </trkpt>
      <trkpt lat="45.83217" lon="4.81091">
        <ele>365</ele>
        <time>2010-01-01T00:24:31Z</time>
      </trkpt>
      <trkpt lat="45.83211" lon="4.81089">
        <ele>365.79998</ele>
        <time>2010-01-01T00:24:33Z</time>
      </trkpt>
      <trkpt lat="45.83199" lon="4.81087">
        <ele>367.39999</ele>
        <time>2010-01-01T00:24:38Z</time>
      </trkpt>
      <trkpt lat="45.8319" lon="4.81081">
        <ele>368.6</ele>
        <time>2010-01-01T00:24:42Z</time>
      </trkpt>
      <trkpt lat="45.83182" lon="4.81078">
        <ele>369.79998</ele>
        <time>2010-01-01T00:24:45Z</time>
      </trkpt>
      <trkpt lat="45.83174" lon="4.81076">
        <ele>370.79998</ele>
        <time>2010-01-01T00:24:48Z</time>
      </trkpt>
      <trkpt lat="45.83169" lon="4.81074">
        <ele>371.39999</ele>
        <time>2010-01-01T00:24:50Z</time>
      </trkpt>
      <trkpt lat="45.83166" lon="4.81071">
        <ele>372</ele>
        <time>2010-01-01T00:24:52Z</time>
      </trkpt>
      <trkpt lat="45.83161" lon="4.81066">
        <ele>373</ele>
        <time>2010-01-01T00:24:54Z</time>
      </trkpt>
      <trkpt lat="45.83155" lon="4.81056">
        <ele>374</ele>
        <time>2010-01-01T00:24:58Z</time>
      </trkpt>
      <trkpt lat="45.83155" lon="4.81055">
        <ele>374.20001</ele>
        <time>2010-01-01T00:24:58Z</time>
      </trkpt>
      <trkpt lat="45.83152" lon="4.8105">
        <ele>374.79998</ele>
        <time>2010-01-01T00:25:00Z</time>
      </trkpt>
      <trkpt lat="45.83147" lon="4.81036">
        <ele>376</ele>
        <time>2010-01-01T00:25:04Z</time>
      </trkpt>
      <trkpt lat="45.83145" lon="4.81024">
        <ele>377</ele>
        <time>2010-01-01T00:25:08Z</time>
      </trkpt>
      <trkpt lat="45.83143" lon="4.81017">
        <ele>377.6</ele>
        <time>2010-01-01T00:25:10Z</time>
      </trkpt>
      <trkpt lat="45.83143" lon="4.81013">
        <ele>377.79998</ele>
        <time>2010-01-01T00:25:11Z</time>
      </trkpt>
      <trkpt lat="45.83142" lon="4.81007">
        <ele>378.6</ele>
        <time>2010-01-01T00:25:13Z</time>
      </trkpt>
      <trkpt lat="45.83143" lon="4.81003">
        <ele>379</ele>
        <time>2010-01-01T00:25:14Z</time>
      </trkpt>
      <trkpt lat="45.83143" lon="4.80999">
        <ele>379.6</ele>
        <time>2010-01-01T00:25:15Z</time>
      </trkpt>
      <trkpt lat="45.83142" lon="4.80995">
        <ele>380</ele>
        <time>2010-01-01T00:25:16Z</time>
      </trkpt>
      <trkpt lat="45.83143" lon="4.80989">
        <ele>380.79998</ele>
        <time>2010-01-01T00:25:18Z</time>
      </trkpt>
      <trkpt lat="45.83144" lon="4.80987">
        <ele>381.20001</ele>
        <time>2010-01-01T00:25:19Z</time>
      </trkpt>
      <trkpt lat="45.83145" lon="4.80985">
        <ele>381.79998</ele>
        <time>2010-01-01T00:25:19Z</time>
      </trkpt>
      <trkpt lat="45.83145" lon="4.80982">
        <ele>382.39999</ele>
        <time>2010-01-01T00:25:20Z</time>
      </trkpt>
      <trkpt lat="45.83148" lon="4.80977">
        <ele>383</ele>
        <time>2010-01-01T00:25:22Z</time>
      </trkpt>
      <trkpt lat="45.83148" lon="4.80977">
        <ele>383</ele>
        <time>2010-01-01T00:25:22Z</time>
      </trkpt>
      <trkpt lat="45.83149" lon="4.80976">
        <ele>383.20001</ele>
        <time>2010-01-01T00:25:22Z</time>
      </trkpt>
      <trkpt lat="45.8315" lon="4.80974">
        <ele>383.79998</ele>
        <time>2010-01-01T00:25:23Z</time>
      </trkpt>
      <trkpt lat="45.83152" lon="4.80972">
        <ele>383.79998</ele>
        <time>2010-01-01T00:25:24Z</time>
      </trkpt>
      <trkpt lat="45.83155" lon="4.80965">
        <ele>384.6</ele>
        <time>2010-01-01T00:25:26Z</time>
      </trkpt>
      <trkpt lat="45.83155" lon="4.80964">
        <ele>384.6</ele>
        <time>2010-01-01T00:25:27Z</time>
      </trkpt>
      <trkpt lat="45.83156" lon="4.8096">
        <ele>385.20001</ele>
        <time>2010-01-01T00:25:28Z</time>
      </trkpt>
      <trkpt lat="45.83157" lon="4.80957">
        <ele>385.39999</ele>
        <time>2010-01-01T00:25:29Z</time>
      </trkpt>
      <trkpt lat="45.83159" lon="4.80953">
        <ele>385.6</ele>
        <time>2010-01-01T00:25:30Z</time>
      </trkpt>
      <trkpt lat="45.83159" lon="4.80952">
        <ele>385.79998</ele>
        <time>2010-01-01T00:25:30Z</time>
      </trkpt>
      <trkpt lat="45.83161" lon="4.80949">
        <ele>386.20001</ele>
        <time>2010-01-01T00:25:32Z</time>
      </trkpt>
      <trkpt lat="45.83162" lon="4.80947">
        <ele>386.39999</ele>
        <time>2010-01-01T00:25:32Z</time>
      </trkpt>
      <trkpt lat="45.83163" lon="4.80946">
        <ele>386.6</ele>
        <time>2010-01-01T00:25:33Z</time>
      </trkpt>
      <trkpt lat="45.83163" lon="4.80944">
        <ele>387</ele>
        <time>2010-01-01T00:25:33Z</time>
      </trkpt>
      <trkpt lat="45.83164" lon="4.80941">
        <ele>387.39999</ele>
        <time>2010-01-01T00:25:34Z</time>
      </trkpt>
      <trkpt lat="45.83164" lon="4.80936">
        <ele>388.20001</ele>
        <time>2010-01-01T00:25:35Z</time>
      </trkpt>
      <trkpt lat="45.83163" lon="4.80933">
        <ele>388.6</ele>
        <time>2010-01-01T00:25:36Z</time>
      </trkpt>
      <trkpt lat="45.83164" lon="4.8093">
        <ele>388.79998</ele>
        <time>2010-01-01T00:25:37Z</time>
      </trkpt>
      <trkpt lat="45.83164" lon="4.80928">
        <ele>389</ele>
        <time>2010-01-01T00:25:38Z</time>
      </trkpt>
      <trkpt lat="45.83165" lon="4.80924">
        <ele>389.6</ele>
        <time>2010-01-01T00:25:39Z</time>
      </trkpt>
      <trkpt lat="45.83166" lon="4.80921">
        <ele>390</ele>
        <time>2010-01-01T00:25:40Z</time>
      </trkpt>
      <trkpt lat="45.83166" lon="4.80917">
        <ele>390.6</ele>
        <time>2010-01-01T00:25:41Z</time>
      </trkpt>
      <trkpt lat="45.83167" lon="4.80914">
        <ele>391.39999</ele>
        <time>2010-01-01T00:25:42Z</time>
      </trkpt>
      <trkpt lat="45.83167" lon="4.8091">
        <ele>392.20001</ele>
        <time>2010-01-01T00:25:43Z</time>
      </trkpt>
      <trkpt lat="45.83167" lon="4.80908">
        <ele>392.6</ele>
        <time>2010-01-01T00:25:43Z</time>
      </trkpt>
      <trkpt lat="45.83166" lon="4.80901">
        <ele>393.6</ele>
        <time>2010-01-01T00:25:45Z</time>
      </trkpt>
      <trkpt lat="45.83165" lon="4.80896">
        <ele>394.39999</ele>
        <time>2010-01-01T00:25:47Z</time>
      </trkpt>
      <trkpt lat="45.83165" lon="4.80892">
        <ele>394.79998</ele>
        <time>2010-01-01T00:25:48Z</time>
      </trkpt>
      <trkpt lat="45.83165" lon="4.80889">
        <ele>395.79998</ele>
        <time>2010-01-01T00:25:49Z</time>
      </trkpt>
      <trkpt lat="45.83165" lon="4.80887">
        <ele>396</ele>
        <time>2010-01-01T00:25:49Z</time>
      </trkpt>
      <trkpt lat="45.83165" lon="4.80885">
        <ele>396.39999</ele>
        <time>2010-01-01T00:25:50Z</time>
      </trkpt>
      <trkpt lat="45.83164" lon="4.80883">
        <ele>397</ele>
        <time>2010-01-01T00:25:51Z</time>
      </trkpt>
      <trkpt lat="45.83164" lon="4.80881">
        <ele>397.39999</ele>
        <time>2010-01-01T00:25:51Z</time>
      </trkpt>
      <trkpt lat="45.83165" lon="4.80879">
        <ele>397.79998</ele>
        <time>2010-01-01T00:25:52Z</time>
      </trkpt>
      <trkpt lat="45.83166" lon="4.80878">
        <ele>398.79998</ele>
        <time>2010-01-01T00:25:52Z</time>
      </trkpt>
      <trkpt lat="45.8317" lon="4.80876">
        <ele>400.6</ele>
        <time>2010-01-01T00:25:54Z</time>
      </trkpt>
      <trkpt lat="45.83173" lon="4.80873">
        <ele>401.20001</ele>
        <time>2010-01-01T00:25:55Z</time>
      </trkpt>
      <trkpt lat="45.83174" lon="4.80871">
        <ele>401.79998</ele>
        <time>2010-01-01T00:25:56Z</time>
      </trkpt>
      <trkpt lat="45.83175" lon="4.80869">
        <ele>402</ele>
        <time>2010-01-01T00:25:57Z</time>
      </trkpt>
      <trkpt lat="45.83177" lon="4.80867">
        <ele>402.6</ele>
        <time>2010-01-01T00:25:58Z</time>
      </trkpt>
      <trkpt lat="45.83178" lon="4.80867">
        <ele>402.79998</ele>
        <time>2010-01-01T00:25:58Z</time>
      </trkpt>
      <trkpt lat="45.8318" lon="4.80866">
        <ele>403.20001</ele>
        <time>2010-01-01T00:25:59Z</time>
      </trkpt>
      <trkpt lat="45.8318" lon="4.80865">
        <ele>403.39999</ele>
        <time>2010-01-01T00:25:59Z</time>
      </trkpt>
      <trkpt lat="45.83185" lon="4.80861">
        <ele>404.39999</ele>
        <time>2010-01-01T00:26:02Z</time>
      </trkpt>
      <trkpt lat="45.83186" lon="4.80858">
        <ele>404.39999</ele>
        <time>2010-01-01T00:26:02Z</time>
      </trkpt>
      <trkpt lat="45.83189" lon="4.80854">
        <ele>405</ele>
        <time>2010-01-01T00:26:04Z</time>
      </trkpt>
      <trkpt lat="45.83194" lon="4.80845">
        <ele>406</ele>
        <time>2010-01-01T00:26:07Z</time>
      </trkpt>
      <trkpt lat="45.83194" lon="4.80844">
        <ele>406</ele>
        <time>2010-01-01T00:26:08Z</time>
      </trkpt>
      <trkpt lat="45.83195" lon="4.80842">
        <ele>406.20001</ele>
        <time>2010-01-01T00:26:08Z</time>
      </trkpt>
      <trkpt lat="45.83198" lon="4.80837">
        <ele>406.79998</ele>
        <time>2010-01-01T00:26:10Z</time>
      </trkpt>
      <trkpt lat="45.83199" lon="4.80837">
        <ele>407</ele>
        <time>2010-01-01T00:26:10Z</time>
      </trkpt>
      <trkpt lat="45.83202" lon="4.80836">
        <ele>407.79998</ele>
        <time>2010-01-01T00:26:12Z</time>
      </trkpt>
      <trkpt lat="45.83204" lon="4.80835">
        <ele>408</ele>
        <time>2010-01-01T00:26:13Z</time>
      </trkpt>
      <trkpt lat="45.83206" lon="4.80834">
        <ele>408.20001</ele>
        <time>2010-01-01T00:26:13Z</time>
      </trkpt>
      <trkpt lat="45.83206" lon="4.80833">
        <ele>408.39999</ele>
        <time>2010-01-01T00:26:14Z</time>
      </trkpt>
      <trkpt lat="45.83211" lon="4.80828">
        <ele>409</ele>
        <time>2010-01-01T00:26:16Z</time>
      </trkpt>
      <trkpt lat="45.83212" lon="4.80827">
        <ele>409</ele>
        <time>2010-01-01T00:26:16Z</time>
      </trkpt>
      <trkpt lat="45.83216" lon="4.80819">
        <ele>409.39999</ele>
        <time>2010-01-01T00:26:19Z</time>
      </trkpt>
      <trkpt lat="45.83224" lon="4.80806">
        <ele>410</ele>
        <time>2010-01-01T00:26:24Z</time>
      </trkpt>
      <trkpt lat="45.83228" lon="4.80796">
        <ele>410.6</ele>
        <time>2010-01-01T00:26:27Z</time>
      </trkpt>
      <trkpt lat="45.83232" lon="4.80793">
        <ele>410.79998</ele>
        <time>2010-01-01T00:26:29Z</time>
      </trkpt>
      <trkpt lat="45.83236" lon="4.8079">
        <ele>411.39999</ele>
        <time>2010-01-01T00:26:31Z</time>
      </trkpt>
      <trkpt lat="45.83245" lon="4.80786">
        <ele>412.20001</ele>
        <time>2010-01-01T00:26:35Z</time>
      </trkpt>
      <trkpt lat="45.83251" lon="4.80787">
        <ele>412.79998</ele>
        <time>2010-01-01T00:26:37Z</time>
      </trkpt>
      <trkpt lat="45.83252" lon="4.80788">
        <ele>413</ele>
        <time>2010-01-01T00:26:38Z</time>
      </trkpt>
      <trkpt lat="45.83259" lon="4.80787">
        <ele>413.79998</ele>
        <time>2010-01-01T00:26:40Z</time>
      </trkpt>
      <trkpt lat="45.83262" lon="4.80785">
        <ele>414.39999</ele>
        <time>2010-01-01T00:26:42Z</time>
      </trkpt>
      <trkpt lat="45.83265" lon="4.80783">
        <ele>414.79998</ele>
        <time>2010-01-01T00:26:43Z</time>
      </trkpt>
      <trkpt lat="45.83265" lon="4.80783">
        <ele>415</ele>
        <time>2010-01-01T00:26:43Z</time>
      </trkpt>
      <trkpt lat="45.83267" lon="4.80785">
        <ele>415.20001</ele>
        <time>2010-01-01T00:26:44Z</time>
      </trkpt>
      <trkpt lat="45.83268" lon="4.80789">
        <ele>415.39999</ele>
        <time>2010-01-01T00:26:45Z</time>
      </trkpt>
      <trkpt lat="45.83274" lon="4.80793">
        <ele>415.6</ele>
        <time>2010-01-01T00:26:48Z</time>
      </trkpt>
      <trkpt lat="45.83279" lon="4.80802">
        <ele>415.6</ele>
        <time>2010-01-01T00:26:51Z</time>
      </trkpt>
      <trkpt lat="45.83281" lon="4.80808">
        <ele>415.6</ele>
        <time>2010-01-01T00:26:53Z</time>
      </trkpt>
      <trkpt lat="45.83284" lon="4.80819">
        <ele>415.79998</ele>
        <time>2010-01-01T00:26:56Z</time>
      </trkpt>
      <trkpt lat="45.83285" lon="4.80835">
        <ele>416</ele>
        <time>2010-01-01T00:27:00Z</time>
      </trkpt>
      <trkpt lat="45.83288" lon="4.80841">
        <ele>416.20001</ele>
        <time>2010-01-01T00:27:02Z</time>
      </trkpt>
      <trkpt lat="45.8329" lon="4.80843">
        <ele>416.20001</ele>
        <time>2010-01-01T00:27:03Z</time>
      </trkpt>
      <trkpt lat="45.83293" lon="4.80843">
        <ele>416.39999</ele>
        <time>2010-01-01T00:27:05Z</time>
      </trkpt>
      <trkpt lat="45.83296" lon="4.80841">
        <ele>416.6</ele>
        <time>2010-01-01T00:27:06Z</time>
      </trkpt>
      <trkpt lat="45.83297" lon="4.80841">
        <ele>416.79998</ele>
        <time>2010-01-01T00:27:06Z</time>
      </trkpt>
      <trkpt lat="45.83301" lon="4.80839">
        <ele>417</ele>
        <time>2010-01-01T00:27:08Z</time>
      </trkpt>
      <trkpt lat="45.83302" lon="4.80837">
        <ele>417.20001</ele>
        <time>2010-01-01T00:27:09Z</time>
      </trkpt>
      <trkpt lat="45.83308" lon="4.80834">
        <ele>417.6</ele>
        <time>2010-01-01T00:27:11Z</time>
      </trkpt>
      <trkpt lat="45.83308" lon="4.80833">
        <ele>417.79998</ele>
        <time>2010-01-01T00:27:11Z</time>
      </trkpt>
      <trkpt lat="45.83314" lon="4.80829">
        <ele>418.20001</ele>
        <time>2010-01-01T00:27:14Z</time>
      </trkpt>
      <trkpt lat="45.83321" lon="4.8082">
        <ele>419</ele>
        <time>2010-01-01T00:27:18Z</time>
      </trkpt>
      <trkpt lat="45.83329" lon="4.8081">
        <ele>419.79998</ele>
        <time>2010-01-01T00:27:22Z</time>
      </trkpt>
      <trkpt lat="45.83335" lon="4.80805">
        <ele>420.39999</ele>
        <time>2010-01-01T00:27:25Z</time>
      </trkpt>
      <trkpt lat="45.83342" lon="4.80798">
        <ele>421.20001</ele>
        <time>2010-01-01T00:27:28Z</time>
      </trkpt>
      <trkpt lat="45.8335" lon="4.80791">
        <ele>421.79998</ele>
        <time>2010-01-01T00:27:32Z</time>
      </trkpt>
      <trkpt lat="45.83356" lon="4.80785">
        <ele>422.39999</ele>
        <time>2010-01-01T00:27:35Z</time>
      </trkpt>
      <trkpt lat="45.83358" lon="4.80783">
        <ele>422.6</ele>
        <time>2010-01-01T00:27:36Z</time>
      </trkpt>
      <trkpt lat="45.83361" lon="4.80778">
        <ele>423.20001</ele>
        <time>2010-01-01T00:27:38Z</time>
      </trkpt>
      <trkpt lat="45.83368" lon="4.80771">
        <ele>424.20001</ele>
        <time>2010-01-01T00:27:41Z</time>
      </trkpt>
      <trkpt lat="45.83375" lon="4.80764">
        <ele>425</ele>
        <time>2010-01-01T00:27:44Z</time>
      </trkpt>
      <trkpt lat="45.83376" lon="4.80764">
        <ele>425</ele>
        <time>2010-01-01T00:27:45Z</time>
      </trkpt>
      <trkpt lat="45.83383" lon="4.80756">
        <ele>425.79998</ele>
        <time>2010-01-01T00:27:48Z</time>
      </trkpt>
      <trkpt lat="45.83391" lon="4.80747">
        <ele>426.39999</ele>
        <time>2010-01-01T00:27:52Z</time>
      </trkpt>
      <trkpt lat="45.83404" lon="4.80733">
        <ele>427.79998</ele>
        <time>2010-01-01T00:27:59Z</time>
      </trkpt>
      <trkpt lat="45.83411" lon="4.80723">
        <ele>428.6</ele>
        <time>2010-01-01T00:28:03Z</time>
      </trkpt>
      <trkpt lat="45.8341" lon="4.80721">
        <ele>428.79998</ele>
        <time>2010-01-01T00:28:04Z</time>
      </trkpt>
      <trkpt lat="45.83408" lon="4.80713">
        <ele>429.39999</ele>
        <time>2010-01-01T00:28:06Z</time>
      </trkpt>
      <trkpt lat="45.83405" lon="4.80708">
        <ele>429.79998</ele>
        <time>2010-01-01T00:28:08Z</time>
      </trkpt>
      <trkpt lat="45.834" lon="4.80698">
        <ele>430.79998</ele>
        <time>2010-01-01T00:28:11Z</time>
      </trkpt>
      <trkpt lat="45.8339" lon="4.80677">
        <ele>432.79998</ele>
        <time>2010-01-01T00:28:18Z</time>
      </trkpt>
      <trkpt lat="45.83385" lon="4.80664">
        <ele>434</ele>
        <time>2010-01-01T00:28:23Z</time>
      </trkpt>
      <trkpt lat="45.83381" lon="4.80639">
        <ele>435.39999</ele>
        <time>2010-01-01T00:28:29Z</time>
      </trkpt>
      <trkpt lat="45.83379" lon="4.8062">
        <ele>436.39999</ele>
        <time>2010-01-01T00:28:35Z</time>
      </trkpt>
      <trkpt lat="45.83376" lon="4.806">
        <ele>437.39999</ele>
        <time>2010-01-01T00:28:40Z</time>
      </trkpt>
      <trkpt lat="45.83372" lon="4.80577">
        <ele>438.20001</ele>
        <time>2010-01-01T00:28:47Z</time>
      </trkpt>
      <trkpt lat="45.8337" lon="4.80569">
        <ele>438.79998</ele>
        <time>2010-01-01T00:28:50Z</time>
      </trkpt>
      <trkpt lat="45.83371" lon="4.80567">
        <ele>438.79998</ele>
        <time>2010-01-01T00:28:50Z</time>
      </trkpt>
      <trkpt lat="45.83374" lon="4.80566">
        <ele>439.20001</ele>
        <time>2010-01-01T00:28:51Z</time>
      </trkpt>
      <trkpt lat="45.83378" lon="4.80563">
        <ele>439.39999</ele>
        <time>2010-01-01T00:28:53Z</time>
      </trkpt>
      <trkpt lat="45.83379" lon="4.80562">
        <ele>439.6</ele>
        <time>2010-01-01T00:28:54Z</time>
      </trkpt>
      <trkpt lat="45.83389" lon="4.80559">
        <ele>440.39999</ele>
        <time>2010-01-01T00:28:58Z</time>
      </trkpt>
      <trkpt lat="45.83393" lon="4.80558">
        <ele>441</ele>
        <time>2010-01-01T00:28:59Z</time>
      </trkpt>
      <trkpt lat="45.83397" lon="4.80557">
        <ele>441.20001</ele>
        <time>2010-01-01T00:29:01Z</time>
      </trkpt>
      <trkpt lat="45.83401" lon="4.80556">
        <ele>441.6</ele>
        <time>2010-01-01T00:29:03Z</time>
      </trkpt>
      <trkpt lat="45.83408" lon="4.80555">
        <ele>442</ele>
        <time>2010-01-01T00:29:05Z</time>
      </trkpt>
      <trkpt lat="45.83415" lon="4.80553">
        <ele>442.6</ele>
        <time>2010-01-01T00:29:08Z</time>
      </trkpt>
      <trkpt lat="45.83421" lon="4.80548">
        <ele>443</ele>
        <time>2010-01-01T00:29:11Z</time>
      </trkpt>
      <trkpt lat="45.83424" lon="4.80545">
        <ele>443.20001</ele>
        <time>2010-01-01T00:29:13Z</time>
      </trkpt>
      <trkpt lat="45.83426" lon="4.80542">
        <ele>443.6</ele>
        <time>2010-01-01T00:29:13Z</time>
      </trkpt>
      <trkpt lat="45.83426" lon="4.80542">
        <ele>443.79998</ele>
        <time>2010-01-01T00:29:14Z</time>
      </trkpt>
      <trkpt lat="45.83429" lon="4.8054">
        <ele>444</ele>
        <time>2010-01-01T00:29:15Z</time>
      </trkpt>
      <trkpt lat="45.83429" lon="4.80539">
        <ele>444.20001</ele>
        <time>2010-01-01T00:29:15Z</time>
      </trkpt>
      <trkpt lat="45.83436" lon="4.80536">
        <ele>445.20001</ele>
        <time>2010-01-01T00:29:18Z</time>
      </trkpt>
      <trkpt lat="45.83437" lon="4.80536">
        <ele>445.20001</ele>
        <time>2010-01-01T00:29:19Z</time>
      </trkpt>
      <trkpt lat="45.83445" lon="4.80531">
        <ele>446</ele>
        <time>2010-01-01T00:29:22Z</time>
      </trkpt>
      <trkpt lat="45.83446" lon="4.8053">
        <ele>446.20001</ele>
        <time>2010-01-01T00:29:22Z</time>
      </trkpt>
      <trkpt lat="45.83453" lon="4.80528">
        <ele>447</ele>
        <time>2010-01-01T00:29:25Z</time>
      </trkpt>
      <trkpt lat="45.83455" lon="4.80527">
        <ele>447.39999</ele>
        <time>2010-01-01T00:29:26Z</time>
      </trkpt>
      <trkpt lat="45.83458" lon="4.80526">
        <ele>447.6</ele>
        <time>2010-01-01T00:29:27Z</time>
      </trkpt>
      <trkpt lat="45.83461" lon="4.80525">
        <ele>448</ele>
        <time>2010-01-01T00:29:28Z</time>
      </trkpt>
      <trkpt lat="45.83463" lon="4.80523">
        <ele>448.20001</ele>
        <time>2010-01-01T00:29:29Z</time>
      </trkpt>
      <trkpt lat="45.83464" lon="4.80523">
        <ele>448.39999</ele>
        <time>2010-01-01T00:29:30Z</time>
      </trkpt>
      <trkpt lat="45.83465" lon="4.80522">
        <ele>448.6</ele>
        <time>2010-01-01T00:29:30Z</time>
      </trkpt>
      <trkpt lat="45.83468" lon="4.80521">
        <ele>448.79998</ele>
        <time>2010-01-01T00:29:32Z</time>
      </trkpt>
      <trkpt lat="45.8347" lon="4.8052">
        <ele>449</ele>
        <time>2010-01-01T00:29:32Z</time>
      </trkpt>
      <trkpt lat="45.83472" lon="4.80519">
        <ele>449.39999</ele>
        <time>2010-01-01T00:29:33Z</time>
      </trkpt>
      <trkpt lat="45.83475" lon="4.80517">
        <ele>449.6</ele>
        <time>2010-01-01T00:29:35Z</time>
      </trkpt>
      <trkpt lat="45.83482" lon="4.80514">
        <ele>450.20001</ele>
        <time>2010-01-01T00:29:38Z</time>
      </trkpt>
      <trkpt lat="45.83486" lon="4.80512">
        <ele>450.39999</ele>
        <time>2010-01-01T00:29:39Z</time>
      </trkpt>
      <trkpt lat="45.83493" lon="4.80507">
        <ele>450.79998</ele>
        <time>2010-01-01T00:29:42Z</time>
      </trkpt>
      <trkpt lat="45.83499" lon="4.80502">
        <ele>451.20001</ele>
        <time>2010-01-01T00:29:45Z</time>
      </trkpt>
      <trkpt lat="45.835" lon="4.80501">
        <ele>451.39999</ele>
        <time>2010-01-01T00:29:46Z</time>
      </trkpt>
      <trkpt lat="45.83502" lon="4.80496">
        <ele>451.6</ele>
        <time>2010-01-01T00:29:47Z</time>
      </trkpt>
      <trkpt lat="45.83503" lon="4.80493">
        <ele>451.79998</ele>
        <time>2010-01-01T00:29:48Z</time>
      </trkpt>
      <trkpt lat="45.83505" lon="4.80492">
        <ele>451.79998</ele>
        <time>2010-01-01T00:29:49Z</time>
      </trkpt>
      <trkpt lat="45.8351" lon="4.80489">
        <ele>452.20001</ele>
        <time>2010-01-01T00:29:51Z</time>
      </trkpt>
      <trkpt lat="45.83518" lon="4.80482">
        <ele>453</ele>
        <time>2010-01-01T00:29:55Z</time>
      </trkpt>
      <trkpt lat="45.83528" lon="4.80476">
        <ele>454.20001</ele>
        <time>2010-01-01T00:29:59Z</time>
      </trkpt>
      <trkpt lat="45.83537" lon="4.8047">
        <ele>455.6</ele>
        <time>2010-01-01T00:30:03Z</time>
      </trkpt>
      <trkpt lat="45.83546" lon="4.80465">
        <ele>457.20001</ele>
        <time>2010-01-01T00:30:07Z</time>
      </trkpt>
      <trkpt lat="45.8355" lon="4.80462">
        <ele>458</ele>
        <time>2010-01-01T00:30:09Z</time>
      </trkpt>
      <trkpt lat="45.83556" lon="4.8046">
        <ele>458.6</ele>
        <time>2010-01-01T00:30:11Z</time>
      </trkpt>
      <trkpt lat="45.83562" lon="4.80457">
        <ele>459.20001</ele>
        <time>2010-01-01T00:30:14Z</time>
      </trkpt>
      <trkpt lat="45.83566" lon="4.80453">
        <ele>459.79998</ele>
        <time>2010-01-01T00:30:16Z</time>
      </trkpt>
      <trkpt lat="45.83573" lon="4.80449">
        <ele>460.79998</ele>
        <time>2010-01-01T00:30:19Z</time>
      </trkpt>
      <trkpt lat="45.83575" lon="4.80448">
        <ele>461.20001</ele>
        <time>2010-01-01T00:30:20Z</time>
      </trkpt>
      <trkpt lat="45.83583" lon="4.80445">
        <ele>462.79998</ele>
        <time>2010-01-01T00:30:23Z</time>
      </trkpt>
      <trkpt lat="45.83585" lon="4.80445">
        <ele>463.20001</ele>
        <time>2010-01-01T00:30:24Z</time>
      </trkpt>
      <trkpt lat="45.83593" lon="4.80444">
        <ele>464.39999</ele>
        <time>2010-01-01T00:30:27Z</time>
      </trkpt>
      <trkpt lat="45.83595" lon="4.80443">
        <ele>464.79998</ele>
        <time>2010-01-01T00:30:28Z</time>
      </trkpt>
      <trkpt lat="45.836" lon="4.8044">
        <ele>465.79998</ele>
        <time>2010-01-01T00:30:30Z</time>
      </trkpt>
      <trkpt lat="45.83606" lon="4.80435">
        <ele>467</ele>
        <time>2010-01-01T00:30:33Z</time>
      </trkpt>
      <trkpt lat="45.83615" lon="4.80427">
        <ele>468.20001</ele>
        <time>2010-01-01T00:30:37Z</time>
      </trkpt>
      <trkpt lat="45.83626" lon="4.80416">
        <ele>469.39999</ele>
        <time>2010-01-01T00:30:42Z</time>
      </trkpt>
      <trkpt lat="45.83629" lon="4.80414">
        <ele>469.79998</ele>
        <time>2010-01-01T00:30:44Z</time>
      </trkpt>
      <trkpt lat="45.83633" lon="4.8041">
        <ele>470</ele>
        <time>2010-01-01T00:30:46Z</time>
      </trkpt>
      <trkpt lat="45.8365" lon="4.80396">
        <ele>470.79998</ele>
        <time>2010-01-01T00:30:54Z</time>
      </trkpt>
      <trkpt lat="45.83659" lon="4.80389">
        <ele>471.39999</ele>
        <time>2010-01-01T00:30:58Z</time>
      </trkpt>
      <trkpt lat="45.83669" lon="4.80384">
        <ele>471.79998</ele>
        <time>2010-01-01T00:31:02Z</time>
      </trkpt>
      <trkpt lat="45.83672" lon="4.80384">
        <ele>472</ele>
        <time>2010-01-01T00:31:03Z</time>
      </trkpt>
      <trkpt lat="45.83679" lon="4.80384">
        <ele>472.20001</ele>
        <time>2010-01-01T00:31:06Z</time>
      </trkpt>
      <trkpt lat="45.83684" lon="4.80392">
        <ele>472.20001</ele>
        <time>2010-01-01T00:31:09Z</time>
      </trkpt>
      <trkpt lat="45.83685" lon="4.80395">
        <ele>472</ele>
        <time>2010-01-01T00:31:10Z</time>
      </trkpt>
      <trkpt lat="45.8369" lon="4.80414">
        <ele>472</ele>
        <time>2010-01-01T00:31:15Z</time>
      </trkpt>
      <trkpt lat="45.83693" lon="4.80431">
        <ele>471.79998</ele>
        <time>2010-01-01T00:31:20Z</time>
      </trkpt>
      <trkpt lat="45.83698" lon="4.80443">
        <ele>471.6</ele>
        <time>2010-01-01T00:31:24Z</time>
      </trkpt>
      <trkpt lat="45.837" lon="4.80461">
        <ele>471.39999</ele>
        <time>2010-01-01T00:31:29Z</time>
      </trkpt>
      <trkpt lat="45.83701" lon="4.80477">
        <ele>471</ele>
        <time>2010-01-01T00:31:34Z</time>
      </trkpt>
      <trkpt lat="45.83698" lon="4.80492">
        <ele>470.6</ele>
        <time>2010-01-01T00:31:38Z</time>
      </trkpt>
      <trkpt lat="45.83699" lon="4.80508">
        <ele>470.20001</ele>
        <time>2010-01-01T00:31:42Z</time>
      </trkpt>
      <trkpt lat="45.837" lon="4.80511">
        <ele>470.20001</ele>
        <time>2010-01-01T00:31:43Z</time>
      </trkpt>
      <trkpt lat="45.83704" lon="4.80524">
        <ele>469.79998</ele>
        <time>2010-01-01T00:31:47Z</time>
      </trkpt>
      <trkpt lat="45.83708" lon="4.80533">
        <ele>469.39999</ele>
        <time>2010-01-01T00:31:50Z</time>
      </trkpt>
      <trkpt lat="45.8371" lon="4.80535">
        <ele>469.39999</ele>
        <time>2010-01-01T00:31:51Z</time>
      </trkpt>
      <trkpt lat="45.83715" lon="4.80537">
        <ele>469</ele>
        <time>2010-01-01T00:31:54Z</time>
      </trkpt>
      <trkpt lat="45.83717" lon="4.80537">
        <ele>469</ele>
        <time>2010-01-01T00:31:54Z</time>
      </trkpt>
      <trkpt lat="45.83721" lon="4.80537">
        <ele>468.6</ele>
        <time>2010-01-01T00:31:56Z</time>
      </trkpt>
      <trkpt lat="45.83732" lon="4.80535">
        <ele>468</ele>
        <time>2010-01-01T00:32:00Z</time>
      </trkpt>
      <trkpt lat="45.83744" lon="4.80532">
        <ele>467.39999</ele>
        <time>2010-01-01T00:32:05Z</time>
      </trkpt>
      <trkpt lat="45.83749" lon="4.80531">
        <ele>467</ele>
        <time>2010-01-01T00:32:07Z</time>
      </trkpt>
      <trkpt lat="45.83752" lon="4.8053">
        <ele>466.79998</ele>
        <time>2010-01-01T00:32:09Z</time>
      </trkpt>
      <trkpt lat="45.83756" lon="4.80529">
        <ele>466.6</ele>
        <time>2010-01-01T00:32:10Z</time>
      </trkpt>
      <trkpt lat="45.83764" lon="4.80526">
        <ele>466.20001</ele>
        <time>2010-01-01T00:32:14Z</time>
      </trkpt>
      <trkpt lat="45.83774" lon="4.80522">
        <ele>465.79998</ele>
        <time>2010-01-01T00:32:17Z</time>
      </trkpt>
      <trkpt lat="45.8378" lon="4.80523">
        <ele>465.6</ele>
        <time>2010-01-01T00:32:20Z</time>
      </trkpt>
      <trkpt lat="45.83781" lon="4.80524">
        <ele>465.6</ele>
        <time>2010-01-01T00:32:20Z</time>
      </trkpt>
      <trkpt lat="45.83793" lon="4.8053">
        <ele>465.20001</ele>
        <time>2010-01-01T00:32:26Z</time>
      </trkpt>
      <trkpt lat="45.83806" lon="4.80543">
        <ele>464.79998</ele>
        <time>2010-01-01T00:32:32Z</time>
      </trkpt>
      <trkpt lat="45.83814" lon="4.80557">
        <ele>464.79998</ele>
        <time>2010-01-01T00:32:37Z</time>
      </trkpt>
      <trkpt lat="45.83822" lon="4.80571">
        <ele>464.6</ele>
        <time>2010-01-01T00:32:42Z</time>
      </trkpt>
      <trkpt lat="45.83827" lon="4.80575">
        <ele>464.6</ele>
        <time>2010-01-01T00:32:44Z</time>
      </trkpt>
      <trkpt lat="45.83829" lon="4.80576">
        <ele>464.6</ele>
        <time>2010-01-01T00:32:45Z</time>
      </trkpt>
      <trkpt lat="45.83832" lon="4.8057">
        <ele>464.39999</ele>
        <time>2010-01-01T00:32:47Z</time>
      </trkpt>
      <trkpt lat="45.83833" lon="4.80563">
        <ele>464.39999</ele>
        <time>2010-01-01T00:32:49Z</time>
      </trkpt>
      <trkpt lat="45.83836" lon="4.80553">
        <ele>464.20001</ele>
        <time>2010-01-01T00:32:52Z</time>
      </trkpt>
      <trkpt lat="45.83836" lon="4.80547">
        <ele>464.20001</ele>
        <time>2010-01-01T00:32:54Z</time>
      </trkpt>
      <trkpt lat="45.83837" lon="4.80543">
        <ele>464.39999</ele>
        <time>2010-01-01T00:32:55Z</time>
      </trkpt>
      <trkpt lat="45.8384" lon="4.80529">
        <ele>464.6</ele>
        <time>2010-01-01T00:32:59Z</time>
      </trkpt>
      <trkpt lat="45.83841" lon="4.80524">
        <ele>464.6</ele>
        <time>2010-01-01T00:33:00Z</time>
      </trkpt>
      <trkpt lat="45.83841" lon="4.80518">
        <ele>464.79998</ele>
        <time>2010-01-01T00:33:02Z</time>
      </trkpt>
      <trkpt lat="45.83842" lon="4.80517">
        <ele>464.79998</ele>
        <time>2010-01-01T00:33:02Z</time>
      </trkpt>
      <trkpt lat="45.83843" lon="4.80513">
        <ele>465</ele>
        <time>2010-01-01T00:33:04Z</time>
      </trkpt>
      <trkpt lat="45.83843" lon="4.80512">
        <ele>465.20001</ele>
        <time>2010-01-01T00:33:04Z</time>
      </trkpt>
      <trkpt lat="45.83844" lon="4.80511">
        <ele>465.20001</ele>
        <time>2010-01-01T00:33:04Z</time>
      </trkpt>
      <trkpt lat="45.83846" lon="4.80502">
        <ele>465.39999</ele>
        <time>2010-01-01T00:33:07Z</time>
      </trkpt>
      <trkpt lat="45.83845" lon="4.80501">
        <ele>465.6</ele>
        <time>2010-01-01T00:33:07Z</time>
      </trkpt>
      <trkpt lat="45.83845" lon="4.805">
        <ele>465.79998</ele>
        <time>2010-01-01T00:33:08Z</time>
      </trkpt>
      <trkpt lat="45.83846" lon="4.80494">
        <ele>466.39999</ele>
        <time>2010-01-01T00:33:10Z</time>
      </trkpt>
      <trkpt lat="45.83849" lon="4.80481">
        <ele>467.20001</ele>
        <time>2010-01-01T00:33:13Z</time>
      </trkpt>
      <trkpt lat="45.83851" lon="4.80477">
        <ele>467.6</ele>
        <time>2010-01-01T00:33:15Z</time>
      </trkpt>
      <trkpt lat="45.83851" lon="4.80473">
        <ele>467.79998</ele>
        <time>2010-01-01T00:33:16Z</time>
      </trkpt>
      <trkpt lat="45.83853" lon="4.80466">
        <ele>468.6</ele>
        <time>2010-01-01T00:33:18Z</time>
      </trkpt>
      <trkpt lat="45.83854" lon="4.80464">
        <ele>469</ele>
        <time>2010-01-01T00:33:18Z</time>
      </trkpt>
      <trkpt lat="45.83854" lon="4.80459">
        <ele>469.39999</ele>
        <time>2010-01-01T00:33:20Z</time>
      </trkpt>
      <trkpt lat="45.83855" lon="4.80456">
        <ele>469.79998</ele>
        <time>2010-01-01T00:33:21Z</time>
      </trkpt>
      <trkpt lat="45.83855" lon="4.80454">
        <ele>470</ele>
        <time>2010-01-01T00:33:21Z</time>
      </trkpt>
      <trkpt lat="45.83856" lon="4.80451">
        <ele>470.39999</ele>
        <time>2010-01-01T00:33:22Z</time>
      </trkpt>
      <trkpt lat="45.83857" lon="4.80446">
        <ele>471.20001</ele>
        <time>2010-01-01T00:33:24Z</time>
      </trkpt>
      <trkpt lat="45.83858" lon="4.80439">
        <ele>472.20001</ele>
        <time>2010-01-01T00:33:26Z</time>
      </trkpt>
      <trkpt lat="45.83857" lon="4.80437">
        <ele>473</ele>
        <time>2010-01-01T00:33:26Z</time>
      </trkpt>
      <trkpt lat="45.83856" lon="4.80435">
        <ele>474.39999</ele>
        <time>2010-01-01T00:33:27Z</time>
      </trkpt>
      <trkpt lat="45.83859" lon="4.80435">
        <ele>475.20001</ele>
        <time>2010-01-01T00:33:28Z</time>
      </trkpt>
      <trkpt lat="45.83863" lon="4.80436">
        <ele>476</ele>
        <time>2010-01-01T00:33:29Z</time>
      </trkpt>
      <trkpt lat="45.83866" lon="4.80438">
        <ele>476.79998</ele>
        <time>2010-01-01T00:33:31Z</time>
      </trkpt>
      <trkpt lat="45.83869" lon="4.8044">
        <ele>477.39999</ele>
        <time>2010-01-01T00:33:32Z</time>
      </trkpt>
      <trkpt lat="45.83871" lon="4.80441">
        <ele>477.6</ele>
        <time>2010-01-01T00:33:33Z</time>
      </trkpt>
      <trkpt lat="45.83872" lon="4.80442">
        <ele>477.79998</ele>
        <time>2010-01-01T00:33:33Z</time>
      </trkpt>
      <trkpt lat="45.83874" lon="4.80444">
        <ele>478.20001</ele>
        <time>2010-01-01T00:33:34Z</time>
      </trkpt>
      <trkpt lat="45.83876" lon="4.80446">
        <ele>478.39999</ele>
        <time>2010-01-01T00:33:35Z</time>
      </trkpt>
      <trkpt lat="45.83879" lon="4.80451">
        <ele>479.20001</ele>
        <time>2010-01-01T00:33:37Z</time>
      </trkpt>
      <trkpt lat="45.83883" lon="4.80455">
        <ele>479.79998</ele>
        <time>2010-01-01T00:33:39Z</time>
      </trkpt>
      <trkpt lat="45.83884" lon="4.80456">
        <ele>480</ele>
        <time>2010-01-01T00:33:40Z</time>
      </trkpt>
      <trkpt lat="45.83888" lon="4.80457">
        <ele>480.6</ele>
        <time>2010-01-01T00:33:41Z</time>
      </trkpt>
      <trkpt lat="45.8389" lon="4.80456">
        <ele>480.79998</ele>
        <time>2010-01-01T00:33:42Z</time>
      </trkpt>
      <trkpt lat="45.83892" lon="4.80455">
        <ele>481.20001</ele>
        <time>2010-01-01T00:33:43Z</time>
      </trkpt>
      <trkpt lat="45.83893" lon="4.80454">
        <ele>481.6</ele>
        <time>2010-01-01T00:33:43Z</time>
      </trkpt>
      <trkpt lat="45.83894" lon="4.80453">
        <ele>481.6</ele>
        <time>2010-01-01T00:33:44Z</time>
      </trkpt>
      <trkpt lat="45.83895" lon="4.80451">
        <ele>482.20001</ele>
        <time>2010-01-01T00:33:45Z</time>
      </trkpt>
      <trkpt lat="45.83898" lon="4.80444">
        <ele>483.6</ele>
        <time>2010-01-01T00:33:47Z</time>
      </trkpt>
      <trkpt lat="45.839" lon="4.80439">
        <ele>484.6</ele>
        <time>2010-01-01T00:33:48Z</time>
      </trkpt>
      <trkpt lat="45.83901" lon="4.80437">
        <ele>484.79998</ele>
        <time>2010-01-01T00:33:49Z</time>
      </trkpt>
      <trkpt lat="45.83907" lon="4.8043">
        <ele>486.20001</ele>
        <time>2010-01-01T00:33:52Z</time>
      </trkpt>
      <trkpt lat="45.83912" lon="4.8042">
        <ele>487.20001</ele>
        <time>2010-01-01T00:33:56Z</time>
      </trkpt>
      <trkpt lat="45.83918" lon="4.80411">
        <ele>488.20001</ele>
        <time>2010-01-01T00:33:59Z</time>
      </trkpt>
      <trkpt lat="45.83919" lon="4.80408">
        <ele>488.39999</ele>
        <time>2010-01-01T00:34:00Z</time>
      </trkpt>
      <trkpt lat="45.83921" lon="4.80402">
        <ele>489.20001</ele>
        <time>2010-01-01T00:34:02Z</time>
      </trkpt>
      <trkpt lat="45.83925" lon="4.80396">
        <ele>490.79998</ele>
        <time>2010-01-01T00:34:04Z</time>
      </trkpt>
      <trkpt lat="45.83931" lon="4.80391">
        <ele>492.39999</ele>
        <time>2010-01-01T00:34:07Z</time>
      </trkpt>
      <trkpt lat="45.83936" lon="4.80386">
        <ele>494.20001</ele>
        <time>2010-01-01T00:34:10Z</time>
      </trkpt>
      <trkpt lat="45.83938" lon="4.80385">
        <ele>494.79998</ele>
        <time>2010-01-01T00:34:10Z</time>
      </trkpt>
      <trkpt lat="45.83943" lon="4.80382">
        <ele>496.6</ele>
        <time>2010-01-01T00:34:13Z</time>
      </trkpt>
      <trkpt lat="45.83944" lon="4.80382">
        <ele>496.79998</ele>
        <time>2010-01-01T00:34:13Z</time>
      </trkpt>
      <trkpt lat="45.8395" lon="4.80379">
        <ele>498.20001</ele>
        <time>2010-01-01T00:34:15Z</time>
      </trkpt>
      <trkpt lat="45.83951" lon="4.80379">
        <ele>498.39999</ele>
        <time>2010-01-01T00:34:16Z</time>
      </trkpt>
      <trkpt lat="45.83961" lon="4.80376">
        <ele>501.20001</ele>
        <time>2010-01-01T00:34:20Z</time>
      </trkpt>
      <trkpt lat="45.83966" lon="4.80373">
        <ele>503.20001</ele>
        <time>2010-01-01T00:34:22Z</time>
      </trkpt>
      <trkpt lat="45.83966" lon="4.80372">
        <ele>503.39999</ele>
        <time>2010-01-01T00:34:22Z</time>
      </trkpt>
      <trkpt lat="45.83969" lon="4.80372">
        <ele>504.20001</ele>
        <time>2010-01-01T00:34:23Z</time>
      </trkpt>
      <trkpt lat="45.83971" lon="4.80371">
        <ele>504.79998</ele>
        <time>2010-01-01T00:34:24Z</time>
      </trkpt>
      <trkpt lat="45.8398" lon="4.80365">
        <ele>506.79998</ele>
        <time>2010-01-01T00:34:28Z</time>
      </trkpt>
      <trkpt lat="45.8399" lon="4.80361">
        <ele>508</ele>
        <time>2010-01-01T00:34:32Z</time>
      </trkpt>
      <trkpt lat="45.83993" lon="4.80359">
        <ele>508.6</ele>
        <time>2010-01-01T00:34:34Z</time>
      </trkpt>
      <trkpt lat="45.83993" lon="4.80356">
        <ele>509</ele>
        <time>2010-01-01T00:34:34Z</time>
      </trkpt>
      <trkpt lat="45.8399" lon="4.80343">
        <ele>510.39999</ele>
        <time>2010-01-01T00:34:38Z</time>
      </trkpt>
      <trkpt lat="45.83986" lon="4.8033">
        <ele>512</ele>
        <time>2010-01-01T00:34:42Z</time>
      </trkpt>
      <trkpt lat="45.83984" lon="4.80317">
        <ele>513.59997</ele>
        <time>2010-01-01T00:34:46Z</time>
      </trkpt>
      <trkpt lat="45.83984" lon="4.80315">
        <ele>514</ele>
        <time>2010-01-01T00:34:46Z</time>
      </trkpt>
      <trkpt lat="45.83992" lon="4.80311">
        <ele>515.40002</ele>
        <time>2010-01-01T00:34:50Z</time>
      </trkpt>
      <trkpt lat="45.83993" lon="4.8031">
        <ele>515.59997</ele>
        <time>2010-01-01T00:34:50Z</time>
      </trkpt>
      <trkpt lat="45.83998" lon="4.8031">
        <ele>517</ele>
        <time>2010-01-01T00:34:52Z</time>
      </trkpt>
      <trkpt lat="45.84004" lon="4.80308">
        <ele>518.20001</ele>
        <time>2010-01-01T00:34:54Z</time>
      </trkpt>
      <trkpt lat="45.84005" lon="4.80308">
        <ele>518.40002</ele>
        <time>2010-01-01T00:34:55Z</time>
      </trkpt>
      <trkpt lat="45.84008" lon="4.80308">
        <ele>518.79998</ele>
        <time>2010-01-01T00:34:56Z</time>
      </trkpt>
      <trkpt lat="45.84011" lon="4.80306">
        <ele>519.40002</ele>
        <time>2010-01-01T00:34:58Z</time>
      </trkpt>
      <trkpt lat="45.84019" lon="4.80299">
        <ele>521</ele>
        <time>2010-01-01T00:35:01Z</time>
      </trkpt>
      <trkpt lat="45.8402" lon="4.80299">
        <ele>521.40002</ele>
        <time>2010-01-01T00:35:02Z</time>
      </trkpt>
      <trkpt lat="45.84025" lon="4.80298">
        <ele>522</ele>
        <time>2010-01-01T00:35:04Z</time>
      </trkpt>
      <trkpt lat="45.84027" lon="4.80296">
        <ele>522.59997</ele>
        <time>2010-01-01T00:35:05Z</time>
      </trkpt>
      <trkpt lat="45.84028" lon="4.80295">
        <ele>523</ele>
        <time>2010-01-01T00:35:05Z</time>
      </trkpt>
      <trkpt lat="45.84034" lon="4.80289">
        <ele>523.79998</ele>
        <time>2010-01-01T00:35:08Z</time>
      </trkpt>
      <trkpt lat="45.84035" lon="4.80287">
        <ele>524</ele>
        <time>2010-01-01T00:35:09Z</time>
      </trkpt>
      <trkpt lat="45.84036" lon="4.80281">
        <ele>524.79998</ele>
        <time>2010-01-01T00:35:10Z</time>
      </trkpt>
      <trkpt lat="45.84036" lon="4.8028">
        <ele>524.79998</ele>
        <time>2010-01-01T00:35:11Z</time>
      </trkpt>
      <trkpt lat="45.84037" lon="4.80276">
        <ele>525.59997</ele>
        <time>2010-01-01T00:35:12Z</time>
      </trkpt>
      <trkpt lat="45.84038" lon="4.80271">
        <ele>526.20001</ele>
        <time>2010-01-01T00:35:14Z</time>
      </trkpt>
      <trkpt lat="45.84038" lon="4.80268">
        <ele>526.79998</ele>
        <time>2010-01-01T00:35:14Z</time>
      </trkpt>
      <trkpt lat="45.84039" lon="4.80266">
        <ele>526.79998</ele>
        <time>2010-01-01T00:35:15Z</time>
      </trkpt>
      <trkpt lat="45.84039" lon="4.80263">
        <ele>527.20001</ele>
        <time>2010-01-01T00:35:16Z</time>
      </trkpt>
      <trkpt lat="45.8404" lon="4.80261">
        <ele>527.59997</ele>
        <time>2010-01-01T00:35:16Z</time>
      </trkpt>
      <trkpt lat="45.8404" lon="4.80257">
        <ele>528</ele>
        <time>2010-01-01T00:35:17Z</time>
      </trkpt>
      <trkpt lat="45.84041" lon="4.80254">
        <ele>528.40002</ele>
        <time>2010-01-01T00:35:18Z</time>
      </trkpt>
      <trkpt lat="45.84043" lon="4.80247">
        <ele>529.40002</ele>
        <time>2010-01-01T00:35:20Z</time>
      </trkpt>
      <trkpt lat="45.84045" lon="4.80242">
        <ele>530</ele>
        <time>2010-01-01T00:35:22Z</time>
      </trkpt>
      <trkpt lat="45.84046" lon="4.8024">
        <ele>530.40002</ele>
        <time>2010-01-01T00:35:23Z</time>
      </trkpt>
      <trkpt lat="45.84047" lon="4.80238">
        <ele>530.59997</ele>
        <time>2010-01-01T00:35:23Z</time>
      </trkpt>
      <trkpt lat="45.84048" lon="4.80233">
        <ele>531.20001</ele>
        <time>2010-01-01T00:35:25Z</time>
      </trkpt>
      <trkpt lat="45.84049" lon="4.80232">
        <ele>531.40002</ele>
        <time>2010-01-01T00:35:25Z</time>
      </trkpt>
      <trkpt lat="45.84052" lon="4.80228">
        <ele>531.79998</ele>
        <time>2010-01-01T00:35:27Z</time>
      </trkpt>
      <trkpt lat="45.84053" lon="4.80225">
        <ele>532.20001</ele>
        <time>2010-01-01T00:35:28Z</time>
      </trkpt>
      <trkpt lat="45.84055" lon="4.80221">
        <ele>532.59997</ele>
        <time>2010-01-01T00:35:29Z</time>
      </trkpt>
      <trkpt lat="45.84056" lon="4.8022">
        <ele>532.79998</ele>
        <time>2010-01-01T00:35:30Z</time>
      </trkpt>
      <trkpt lat="45.84059" lon="4.80217">
        <ele>533.59997</ele>
        <time>2010-01-01T00:35:31Z</time>
      </trkpt>
      <trkpt lat="45.8406" lon="4.80216">
        <ele>533.79998</ele>
        <time>2010-01-01T00:35:32Z</time>
      </trkpt>
      <trkpt lat="45.84061" lon="4.80215">
        <ele>534.20001</ele>
        <time>2010-01-01T00:35:32Z</time>
      </trkpt>
      <trkpt lat="45.84064" lon="4.80213">
        <ele>534.79998</ele>
        <time>2010-01-01T00:35:33Z</time>
      </trkpt>
      <trkpt lat="45.84069" lon="4.80209">
        <ele>536</ele>
        <time>2010-01-01T00:35:36Z</time>
      </trkpt>
      <trkpt lat="45.84076" lon="4.80205">
        <ele>537</ele>
        <time>2010-01-01T00:35:39Z</time>
      </trkpt>
      <trkpt lat="45.84078" lon="4.80203">
        <ele>537.20001</ele>
        <time>2010-01-01T00:35:40Z</time>
      </trkpt>
      <trkpt lat="45.84087" lon="4.80196">
        <ele>538.20001</ele>
        <time>2010-01-01T00:35:44Z</time>
      </trkpt>
      <trkpt lat="45.84094" lon="4.80192">
        <ele>539.20001</ele>
        <time>2010-01-01T00:35:47Z</time>
      </trkpt>
      <trkpt lat="45.84096" lon="4.80191">
        <ele>539.59997</ele>
        <time>2010-01-01T00:35:48Z</time>
      </trkpt>
      <trkpt lat="45.84099" lon="4.80189">
        <ele>539.79998</ele>
        <time>2010-01-01T00:35:49Z</time>
      </trkpt>
      <trkpt lat="45.84105" lon="4.80186">
        <ele>540.20001</ele>
        <time>2010-01-01T00:35:52Z</time>
      </trkpt>
      <trkpt lat="45.84109" lon="4.80182">
        <ele>541</ele>
        <time>2010-01-01T00:35:54Z</time>
      </trkpt>
      <trkpt lat="45.8411" lon="4.8018">
        <ele>541.40002</ele>
        <time>2010-01-01T00:35:54Z</time>
      </trkpt>
      <trkpt lat="45.84111" lon="4.80178">
        <ele>541.79998</ele>
        <time>2010-01-01T00:35:55Z</time>
      </trkpt>
      <trkpt lat="45.84115" lon="4.80172">
        <ele>543.20001</ele>
        <time>2010-01-01T00:35:57Z</time>
      </trkpt>
      <trkpt lat="45.84116" lon="4.80171">
        <ele>543.40002</ele>
        <time>2010-01-01T00:35:58Z</time>
      </trkpt>
      <trkpt lat="45.84118" lon="4.80166">
        <ele>544.20001</ele>
        <time>2010-01-01T00:35:59Z</time>
      </trkpt>
      <trkpt lat="45.84119" lon="4.80162">
        <ele>544.79998</ele>
        <time>2010-01-01T00:36:00Z</time>
      </trkpt>
      <trkpt lat="45.8412" lon="4.80161">
        <ele>545</ele>
        <time>2010-01-01T00:36:01Z</time>
      </trkpt>
      <trkpt lat="45.8412" lon="4.80159">
        <ele>545.20001</ele>
        <time>2010-01-01T00:36:02Z</time>
      </trkpt>
      <trkpt lat="45.8412" lon="4.80154">
        <ele>545.79998</ele>
        <time>2010-01-01T00:36:03Z</time>
      </trkpt>
      <trkpt lat="45.8412" lon="4.80153">
        <ele>545.79998</ele>
        <time>2010-01-01T00:36:03Z</time>
      </trkpt>
      <trkpt lat="45.8412" lon="4.80146">
        <ele>546.40002</ele>
        <time>2010-01-01T00:36:05Z</time>
      </trkpt>
      <trkpt lat="45.8412" lon="4.80145">
        <ele>546.40002</ele>
        <time>2010-01-01T00:36:05Z</time>
      </trkpt>
      <trkpt lat="45.8412" lon="4.80142">
        <ele>546.79998</ele>
        <time>2010-01-01T00:36:06Z</time>
      </trkpt>
      <trkpt lat="45.84121" lon="4.80139">
        <ele>547</ele>
        <time>2010-01-01T00:36:07Z</time>
      </trkpt>
      <trkpt lat="45.84121" lon="4.80136">
        <ele>547.20001</ele>
        <time>2010-01-01T00:36:08Z</time>
      </trkpt>
      <trkpt lat="45.84121" lon="4.8013">
        <ele>547.79998</ele>
        <time>2010-01-01T00:36:10Z</time>
      </trkpt>
      <trkpt lat="45.84121" lon="4.80129">
        <ele>548</ele>
        <time>2010-01-01T00:36:10Z</time>
      </trkpt>
      <trkpt lat="45.84122" lon="4.80126">
        <ele>548.40002</ele>
        <time>2010-01-01T00:36:11Z</time>
      </trkpt>
      <trkpt lat="45.84123" lon="4.80123">
        <ele>548.59997</ele>
        <time>2010-01-01T00:36:12Z</time>
      </trkpt>
      <trkpt lat="45.84125" lon="4.80118">
        <ele>549</ele>
        <time>2010-01-01T00:36:13Z</time>
      </trkpt>
      <trkpt lat="45.84125" lon="4.80115">
        <ele>549.20001</ele>
        <time>2010-01-01T00:36:14Z</time>
      </trkpt>
      <trkpt lat="45.84128" lon="4.8011">
        <ele>549.59997</ele>
        <time>2010-01-01T00:36:16Z</time>
      </trkpt>
      <trkpt lat="45.84129" lon="4.80107">
        <ele>549.79998</ele>
        <time>2010-01-01T00:36:17Z</time>
      </trkpt>
      <trkpt lat="45.84132" lon="4.80101">
        <ele>550.20001</ele>
        <time>2010-01-01T00:36:19Z</time>
      </trkpt>
      <trkpt lat="45.84135" lon="4.80097">
        <ele>550.79998</ele>
        <time>2010-01-01T00:36:20Z</time>
      </trkpt>
      <trkpt lat="45.84139" lon="4.80092">
        <ele>551.20001</ele>
        <time>2010-01-01T00:36:23Z</time>
      </trkpt>
      <trkpt lat="45.84149" lon="4.80085">
        <ele>552.20001</ele>
        <time>2010-01-01T00:36:27Z</time>
      </trkpt>
      <trkpt lat="45.84161" lon="4.80083">
        <ele>553.40002</ele>
        <time>2010-01-01T00:36:32Z</time>
      </trkpt>
      <trkpt lat="45.84176" lon="4.80084">
        <ele>554.59997</ele>
        <time>2010-01-01T00:36:38Z</time>
      </trkpt>
      <trkpt lat="45.84193" lon="4.80085">
        <ele>556</ele>
        <time>2010-01-01T00:36:45Z</time>
      </trkpt>
      <trkpt lat="45.84202" lon="4.80079">
        <ele>556.79998</ele>
        <time>2010-01-01T00:36:49Z</time>
      </trkpt>
      <trkpt lat="45.84208" lon="4.80073">
        <ele>557.79998</ele>
        <time>2010-01-01T00:36:52Z</time>
      </trkpt>
      <trkpt lat="45.8421" lon="4.80071">
        <ele>558</ele>
        <time>2010-01-01T00:36:53Z</time>
      </trkpt>
      <trkpt lat="45.84209" lon="4.80071">
        <ele>558.40002</ele>
        <time>2010-01-01T00:36:53Z</time>
      </trkpt>
      <trkpt lat="45.84212" lon="4.80068">
        <ele>558.79998</ele>
        <time>2010-01-01T00:36:54Z</time>
      </trkpt>
      <trkpt lat="45.84212" lon="4.80067">
        <ele>559</ele>
        <time>2010-01-01T00:36:55Z</time>
      </trkpt>
      <trkpt lat="45.8422" lon="4.80057">
        <ele>559.59997</ele>
        <time>2010-01-01T00:36:59Z</time>
      </trkpt>
      <trkpt lat="45.8422" lon="4.80055">
        <ele>559.79998</ele>
        <time>2010-01-01T00:36:59Z</time>
      </trkpt>
      <trkpt lat="45.84225" lon="4.80047">
        <ele>560.59997</ele>
        <time>2010-01-01T00:37:02Z</time>
      </trkpt>
      <trkpt lat="45.84233" lon="4.80034">
        <ele>562.20001</ele>
        <time>2010-01-01T00:37:07Z</time>
      </trkpt>
      <trkpt lat="45.84235" lon="4.80029">
        <ele>563</ele>
        <time>2010-01-01T00:37:09Z</time>
      </trkpt>
      <trkpt lat="45.84234" lon="4.80027">
        <ele>563.40002</ele>
        <time>2010-01-01T00:37:09Z</time>
      </trkpt>
      <trkpt lat="45.84234" lon="4.80025">
        <ele>563.59997</ele>
        <time>2010-01-01T00:37:10Z</time>
      </trkpt>
      <trkpt lat="45.84237" lon="4.80018">
        <ele>564.59997</ele>
        <time>2010-01-01T00:37:12Z</time>
      </trkpt>
      <trkpt lat="45.84237" lon="4.80016">
        <ele>564.79998</ele>
        <time>2010-01-01T00:37:13Z</time>
      </trkpt>
      <trkpt lat="45.84241" lon="4.80005">
        <ele>566.40002</ele>
        <time>2010-01-01T00:37:16Z</time>
      </trkpt>
      <trkpt lat="45.84242" lon="4.80003">
        <ele>566.59997</ele>
        <time>2010-01-01T00:37:17Z</time>
      </trkpt>
      <trkpt lat="45.84244" lon="4.79998">
        <ele>567.20001</ele>
        <time>2010-01-01T00:37:18Z</time>
      </trkpt>
      <trkpt lat="45.84247" lon="4.79986">
        <ele>569</ele>
        <time>2010-01-01T00:37:22Z</time>
      </trkpt>
      <trkpt lat="45.84248" lon="4.79982">
        <ele>569.40002</ele>
        <time>2010-01-01T00:37:23Z</time>
      </trkpt>
      <trkpt lat="45.84248" lon="4.79978">
        <ele>570</ele>
        <time>2010-01-01T00:37:24Z</time>
      </trkpt>
      <trkpt lat="45.84248" lon="4.79966">
        <ele>571.79998</ele>
        <time>2010-01-01T00:37:28Z</time>
      </trkpt>
      <trkpt lat="45.84247" lon="4.79956">
        <ele>573.20001</ele>
        <time>2010-01-01T00:37:30Z</time>
      </trkpt>
      <trkpt lat="45.8425" lon="4.79935">
        <ele>575</ele>
        <time>2010-01-01T00:37:36Z</time>
      </trkpt>
      <trkpt lat="45.84251" lon="4.79919">
        <ele>576.40002</ele>
        <time>2010-01-01T00:37:41Z</time>
      </trkpt>
      <trkpt lat="45.84251" lon="4.79903">
        <ele>577.79998</ele>
        <time>2010-01-01T00:37:45Z</time>
      </trkpt>
      <trkpt lat="45.84247" lon="4.79883">
        <ele>579.59997</ele>
        <time>2010-01-01T00:37:51Z</time>
      </trkpt>
      <trkpt lat="45.84241" lon="4.79869">
        <ele>581</ele>
        <time>2010-01-01T00:37:56Z</time>
      </trkpt>
      <trkpt lat="45.84231" lon="4.79854">
        <ele>583.20001</ele>
        <time>2010-01-01T00:38:02Z</time>
      </trkpt>
      <trkpt lat="45.84226" lon="4.79836">
        <ele>585.40002</ele>
        <time>2010-01-01T00:38:07Z</time>
      </trkpt>
      <trkpt lat="45.84223" lon="4.79818">
        <ele>587.40002</ele>
        <time>2010-01-01T00:38:12Z</time>
      </trkpt>
      <trkpt lat="45.84232" lon="4.79812">
        <ele>597.20001</ele>
        <time>2010-01-01T00:38:16Z</time>
      </trkpt>
      <trkpt lat="45.84232" lon="4.79814">
        <ele>597.20001</ele>
        <time>2010-01-01T00:38:17Z</time>
      </trkpt>
      <trkpt lat="45.84234" lon="4.79817">
        <ele>597.20001</ele>
        <time>2010-01-01T00:38:18Z</time>
      </trkpt>
      <trkpt lat="45.8424" lon="4.79823">
        <ele>597.20001</ele>
        <time>2010-01-01T00:38:21Z</time>
      </trkpt>
      <trkpt lat="45.84247" lon="4.79833">
        <ele>597.20001</ele>
        <time>2010-01-01T00:38:25Z</time>
      </trkpt>
      <trkpt lat="45.84252" lon="4.7984">
        <ele>597.20001</ele>
        <time>2010-01-01T00:38:28Z</time>
      </trkpt>
      <trkpt lat="45.84267" lon="4.79859">
        <ele>597.20001</ele>
        <time>2010-01-01T00:38:36Z</time>
      </trkpt>
      <trkpt lat="45.84281" lon="4.79873">
        <ele>597.20001</ele>
        <time>2010-01-01T00:38:43Z</time>
      </trkpt>
      <trkpt lat="45.84291" lon="4.79885">
        <ele>597</ele>
        <time>2010-01-01T00:38:48Z</time>
      </trkpt>
      <trkpt lat="45.84306" lon="4.79902">
        <ele>596.79998</ele>
        <time>2010-01-01T00:38:55Z</time>
      </trkpt>
      <trkpt lat="45.84321" lon="4.79918">
        <ele>596.59997</ele>
        <time>2010-01-01T00:39:03Z</time>
      </trkpt>
      <trkpt lat="45.84323" lon="4.7992">
        <ele>596.59997</ele>
        <time>2010-01-01T00:39:04Z</time>
      </trkpt>
      <trkpt lat="45.84337" lon="4.79937">
        <ele>596.20001</ele>
        <time>2010-01-01T00:39:11Z</time>
      </trkpt>
      <trkpt lat="45.84348" lon="4.79946">
        <ele>595.79998</ele>
        <time>2010-01-01T00:39:16Z</time>
      </trkpt>
      <trkpt lat="45.84363" lon="4.79956">
        <ele>595.40002</ele>
        <time>2010-01-01T00:39:23Z</time>
      </trkpt>
      <trkpt lat="45.84374" lon="4.79973">
        <ele>595</ele>
        <time>2010-01-01T00:39:29Z</time>
      </trkpt>
      <trkpt lat="45.84373" lon="4.79983">
        <ele>594.79998</ele>
        <time>2010-01-01T00:39:32Z</time>
      </trkpt>
      <trkpt lat="45.84373" lon="4.79992">
        <ele>594.59997</ele>
        <time>2010-01-01T00:39:35Z</time>
      </trkpt>
      <trkpt lat="45.84372" lon="4.80001">
        <ele>594.20001</ele>
        <time>2010-01-01T00:39:37Z</time>
      </trkpt>
      <trkpt lat="45.84373" lon="4.80016">
        <ele>594</ele>
        <time>2010-01-01T00:39:41Z</time>
      </trkpt>
      <trkpt lat="45.84377" lon="4.80032">
        <ele>593.40002</ele>
        <time>2010-01-01T00:39:46Z</time>
      </trkpt>
      <trkpt lat="45.84387" lon="4.80047">
        <ele>592.79998</ele>
        <time>2010-01-01T00:39:52Z</time>
      </trkpt>
      <trkpt lat="45.84399" lon="4.80056">
        <ele>592</ele>
        <time>2010-01-01T00:39:57Z</time>
      </trkpt>
      <trkpt lat="45.84409" lon="4.80069">
        <ele>591.40002</ele>
        <time>2010-01-01T00:40:03Z</time>
      </trkpt>
      <trkpt lat="45.8442" lon="4.80089">
        <ele>590.59997</ele>
        <time>2010-01-01T00:40:10Z</time>
      </trkpt>
      <trkpt lat="45.84432" lon="4.80109">
        <ele>589.79998</ele>
        <time>2010-01-01T00:40:17Z</time>
      </trkpt>
      <trkpt lat="45.84434" lon="4.80113">
        <ele>589.59997</ele>
        <time>2010-01-01T00:40:18Z</time>
      </trkpt>
      <trkpt lat="45.84445" lon="4.80134">
        <ele>588.79998</ele>
        <time>2010-01-01T00:40:26Z</time>
      </trkpt>
      <trkpt lat="45.84446" lon="4.80139">
        <ele>588.59997</ele>
        <time>2010-01-01T00:40:27Z</time>
      </trkpt>
      <trkpt lat="45.84448" lon="4.80148">
        <ele>588.40002</ele>
        <time>2010-01-01T00:40:30Z</time>
      </trkpt>
      <trkpt lat="45.84455" lon="4.80159">
        <ele>587.79998</ele>
        <time>2010-01-01T00:40:34Z</time>
      </trkpt>
      <trkpt lat="45.84457" lon="4.80164">
        <ele>587.59997</ele>
        <time>2010-01-01T00:40:36Z</time>
      </trkpt>
      <trkpt lat="45.84467" lon="4.80184">
        <ele>586.79998</ele>
        <time>2010-01-01T00:40:42Z</time>
      </trkpt>
      <trkpt lat="45.84479" lon="4.80206">
        <ele>585.79998</ele>
        <time>2010-01-01T00:40:50Z</time>
      </trkpt>
      <trkpt lat="45.84481" lon="4.8021">
        <ele>585.59997</ele>
        <time>2010-01-01T00:40:52Z</time>
      </trkpt>
      <trkpt lat="45.84492" lon="4.80226">
        <ele>584.59997</ele>
        <time>2010-01-01T00:40:58Z</time>
      </trkpt>
      <trkpt lat="45.84509" lon="4.80242">
        <ele>583.40002</ele>
        <time>2010-01-01T00:41:06Z</time>
      </trkpt>
      <trkpt lat="45.84522" lon="4.8025">
        <ele>582.59997</ele>
        <time>2010-01-01T00:41:12Z</time>
      </trkpt>
      <trkpt lat="45.84538" lon="4.8026">
        <ele>581.59997</ele>
        <time>2010-01-01T00:41:19Z</time>
      </trkpt>
      <trkpt lat="45.84544" lon="4.80262">
        <ele>581.20001</ele>
        <time>2010-01-01T00:41:21Z</time>
      </trkpt>
      <trkpt lat="45.84551" lon="4.80259">
        <ele>580.79998</ele>
        <time>2010-01-01T00:41:24Z</time>
      </trkpt>
      <trkpt lat="45.84569" lon="4.80255">
        <ele>579.79998</ele>
        <time>2010-01-01T00:41:31Z</time>
      </trkpt>
      <trkpt lat="45.84573" lon="4.80256">
        <ele>579.40002</ele>
        <time>2010-01-01T00:41:33Z</time>
      </trkpt>
      <trkpt lat="45.84591" lon="4.80263">
        <ele>578.40002</ele>
        <time>2010-01-01T00:41:40Z</time>
      </trkpt>
      <trkpt lat="45.84603" lon="4.8027">
        <ele>577.59997</ele>
        <time>2010-01-01T00:41:45Z</time>
      </trkpt>
      <trkpt lat="45.84618" lon="4.80272">
        <ele>576.59997</ele>
        <time>2010-01-01T00:41:51Z</time>
      </trkpt>
      <trkpt lat="45.84633" lon="4.80281">
        <ele>575.40002</ele>
        <time>2010-01-01T00:41:58Z</time>
      </trkpt>
      <trkpt lat="45.84645" lon="4.80292">
        <ele>574.59997</ele>
        <time>2010-01-01T00:42:04Z</time>
      </trkpt>
      <trkpt lat="45.84662" lon="4.80311">
        <ele>573.59997</ele>
        <time>2010-01-01T00:42:12Z</time>
      </trkpt>
      <trkpt lat="45.84675" lon="4.80325">
        <ele>572.40002</ele>
        <time>2010-01-01T00:42:19Z</time>
      </trkpt>
      <trkpt lat="45.84686" lon="4.80338">
        <ele>571.59997</ele>
        <time>2010-01-01T00:42:25Z</time>
      </trkpt>
      <trkpt lat="45.847" lon="4.80354">
        <ele>570.59997</ele>
        <time>2010-01-01T00:42:32Z</time>
      </trkpt>
      <trkpt lat="45.84708" lon="4.80363">
        <ele>570</ele>
        <time>2010-01-01T00:42:36Z</time>
      </trkpt>
      <trkpt lat="45.84717" lon="4.80377">
        <ele>569</ele>
        <time>2010-01-01T00:42:41Z</time>
      </trkpt>
      <trkpt lat="45.84727" lon="4.80391">
        <ele>568.20001</ele>
        <time>2010-01-01T00:42:47Z</time>
      </trkpt>
      <trkpt lat="45.8473" lon="4.80394">
        <ele>568</ele>
        <time>2010-01-01T00:42:48Z</time>
      </trkpt>
      <trkpt lat="45.84742" lon="4.8041">
        <ele>566.79998</ele>
        <time>2010-01-01T00:42:55Z</time>
      </trkpt>
      <trkpt lat="45.84754" lon="4.80428">
        <ele>565.79998</ele>
        <time>2010-01-01T00:43:02Z</time>
      </trkpt>
      <trkpt lat="45.84765" lon="4.80443">
        <ele>564.59997</ele>
        <time>2010-01-01T00:43:08Z</time>
      </trkpt>
      <trkpt lat="45.8478" lon="4.8046">
        <ele>563</ele>
        <time>2010-01-01T00:43:15Z</time>
      </trkpt>
      <trkpt lat="45.84783" lon="4.80463">
        <ele>562.79998</ele>
        <time>2010-01-01T00:43:17Z</time>
      </trkpt>
      <trkpt lat="45.84797" lon="4.80478">
        <ele>561.20001</ele>
        <time>2010-01-01T00:43:24Z</time>
      </trkpt>
      <trkpt lat="45.84808" lon="4.80487">
        <ele>560.20001</ele>
        <time>2010-01-01T00:43:29Z</time>
      </trkpt>
      <trkpt lat="45.84822" lon="4.805">
        <ele>559</ele>
        <time>2010-01-01T00:43:36Z</time>
      </trkpt>
      <trkpt lat="45.84835" lon="4.80512">
        <ele>557.59997</ele>
        <time>2010-01-01T00:43:42Z</time>
      </trkpt>
      <trkpt lat="45.84845" lon="4.8052">
        <ele>556.59997</ele>
        <time>2010-01-01T00:43:46Z</time>
      </trkpt>
      <trkpt lat="45.84855" lon="4.80533">
        <ele>555.59997</ele>
        <time>2010-01-01T00:43:52Z</time>
      </trkpt>
      <trkpt lat="45.84865" lon="4.80549">
        <ele>554.40002</ele>
        <time>2010-01-01T00:43:58Z</time>
      </trkpt>
      <trkpt lat="45.84873" lon="4.80564">
        <ele>553.40002</ele>
        <time>2010-01-01T00:44:03Z</time>
      </trkpt>
      <trkpt lat="45.84885" lon="4.80578">
        <ele>552</ele>
        <time>2010-01-01T00:44:09Z</time>
      </trkpt>
      <trkpt lat="45.84892" lon="4.80588">
        <ele>551</ele>
        <time>2010-01-01T00:44:13Z</time>
      </trkpt>
      <trkpt lat="45.84906" lon="4.80601">
        <ele>549.59997</ele>
        <time>2010-01-01T00:44:20Z</time>
      </trkpt>
      <trkpt lat="45.84918" lon="4.80618">
        <ele>548</ele>
        <time>2010-01-01T00:44:27Z</time>
      </trkpt>
      <trkpt lat="45.8493" lon="4.80632">
        <ele>546.40002</ele>
        <time>2010-01-01T00:44:33Z</time>
      </trkpt>
      <trkpt lat="45.84941" lon="4.80648">
        <ele>545</ele>
        <time>2010-01-01T00:44:39Z</time>
      </trkpt>
      <trkpt lat="45.84944" lon="4.80655">
        <ele>544.40002</ele>
        <time>2010-01-01T00:44:41Z</time>
      </trkpt>
      <trkpt lat="45.84947" lon="4.80661">
        <ele>543.79998</ele>
        <time>2010-01-01T00:44:43Z</time>
      </trkpt>
      <trkpt lat="45.84946" lon="4.80667">
        <ele>543.20001</ele>
        <time>2010-01-01T00:44:45Z</time>
      </trkpt>
      <trkpt lat="45.84942" lon="4.80666">
        <ele>543</ele>
        <time>2010-01-01T00:44:47Z</time>
      </trkpt>
      <trkpt lat="45.84932" lon="4.80664">
        <ele>541.59997</ele>
        <time>2010-01-01T00:44:51Z</time>
      </trkpt>
      <trkpt lat="45.84922" lon="4.80664">
        <ele>540.59997</ele>
        <time>2010-01-01T00:44:55Z</time>
      </trkpt>
      <trkpt lat="45.84906" lon="4.80662">
        <ele>539</ele>
        <time>2010-01-01T00:45:01Z</time>
      </trkpt>
      <trkpt lat="45.84892" lon="4.80658">
        <ele>537.40002</ele>
        <time>2010-01-01T00:45:07Z</time>
      </trkpt>
      <trkpt lat="45.8488" lon="4.80653">
        <ele>536</ele>
        <time>2010-01-01T00:45:12Z</time>
      </trkpt>
      <trkpt lat="45.84862" lon="4.80649">
        <ele>534.20001</ele>
        <time>2010-01-01T00:45:19Z</time>
      </trkpt>
      <trkpt lat="45.84847" lon="4.80646">
        <ele>532.79998</ele>
        <time>2010-01-01T00:45:25Z</time>
      </trkpt>
      <trkpt lat="45.84832" lon="4.80643">
        <ele>531.40002</ele>
        <time>2010-01-01T00:45:32Z</time>
      </trkpt>
      <trkpt lat="45.8482" lon="4.80641">
        <ele>530.20001</ele>
        <time>2010-01-01T00:45:36Z</time>
      </trkpt>
      <trkpt lat="45.84802" lon="4.80637">
        <ele>528.59997</ele>
        <time>2010-01-01T00:45:44Z</time>
      </trkpt>
      <trkpt lat="45.84783" lon="4.80635">
        <ele>527.20001</ele>
        <time>2010-01-01T00:45:51Z</time>
      </trkpt>
      <trkpt lat="45.8477" lon="4.80636">
        <ele>526</ele>
        <time>2010-01-01T00:45:57Z</time>
      </trkpt>
      <trkpt lat="45.84768" lon="4.80636">
        <ele>525.79998</ele>
        <time>2010-01-01T00:45:57Z</time>
      </trkpt>
      <trkpt lat="45.8476" lon="4.80637">
        <ele>525.40002</ele>
        <time>2010-01-01T00:46:01Z</time>
      </trkpt>
      <trkpt lat="45.84747" lon="4.80641">
        <ele>524.20001</ele>
        <time>2010-01-01T00:46:06Z</time>
      </trkpt>
      <trkpt lat="45.8474" lon="4.80644">
        <ele>523.79998</ele>
        <time>2010-01-01T00:46:09Z</time>
      </trkpt>
      <trkpt lat="45.84735" lon="4.80645">
        <ele>523.40002</ele>
        <time>2010-01-01T00:46:10Z</time>
      </trkpt>
      <trkpt lat="45.84727" lon="4.80646">
        <ele>523</ele>
        <time>2010-01-01T00:46:14Z</time>
      </trkpt>
      <trkpt lat="45.84711" lon="4.80648">
        <ele>522</ele>
        <time>2010-01-01T00:46:20Z</time>
      </trkpt>
      <trkpt lat="45.84701" lon="4.80648">
        <ele>521.40002</ele>
        <time>2010-01-01T00:46:24Z</time>
      </trkpt>
      <trkpt lat="45.84685" lon="4.8065">
        <ele>520.59997</ele>
        <time>2010-01-01T00:46:31Z</time>
      </trkpt>
      <trkpt lat="45.84676" lon="4.80649">
        <ele>520.20001</ele>
        <time>2010-01-01T00:46:34Z</time>
      </trkpt>
      <trkpt lat="45.84671" lon="4.80646">
        <ele>519.79998</ele>
        <time>2010-01-01T00:46:37Z</time>
      </trkpt>
      <trkpt lat="45.84657" lon="4.80643">
        <ele>519.20001</ele>
        <time>2010-01-01T00:46:42Z</time>
      </trkpt>
      <trkpt lat="45.84645" lon="4.8064">
        <ele>518.59997</ele>
        <time>2010-01-01T00:46:47Z</time>
      </trkpt>
      <trkpt lat="45.84633" lon="4.80639">
        <ele>518</ele>
        <time>2010-01-01T00:46:52Z</time>
      </trkpt>
      <trkpt lat="45.84614" lon="4.8064">
        <ele>517.20001</ele>
        <time>2010-01-01T00:46:59Z</time>
      </trkpt>
      <trkpt lat="45.84601" lon="4.80635">
        <ele>516.59997</ele>
        <time>2010-01-01T00:47:05Z</time>
      </trkpt>
      <trkpt lat="45.84589" lon="4.80621">
        <ele>516</ele>
        <time>2010-01-01T00:47:11Z</time>
      </trkpt>
      <trkpt lat="45.8458" lon="4.80604">
        <ele>515.40002</ele>
        <time>2010-01-01T00:47:17Z</time>
      </trkpt>
      <trkpt lat="45.84576" lon="4.80589">
        <ele>514.79998</ele>
        <time>2010-01-01T00:47:21Z</time>
      </trkpt>
      <trkpt lat="45.84575" lon="4.80587">
        <ele>514.79998</ele>
        <time>2010-01-01T00:47:22Z</time>
      </trkpt>
      <trkpt lat="45.8457" lon="4.80577">
        <ele>514.40002</ele>
        <time>2010-01-01T00:47:25Z</time>
      </trkpt>
      <trkpt lat="45.84569" lon="4.80574">
        <ele>514.40002</ele>
        <time>2010-01-01T00:47:26Z</time>
      </trkpt>
      <trkpt lat="45.8456" lon="4.80568">
        <ele>514</ele>
        <time>2010-01-01T00:47:30Z</time>
      </trkpt>
      <trkpt lat="45.84551" lon="4.80568">
        <ele>513.59997</ele>
        <time>2010-01-01T00:47:34Z</time>
      </trkpt>
      <trkpt lat="45.84549" lon="4.80568">
        <ele>513.40002</ele>
        <time>2010-01-01T00:47:35Z</time>
      </trkpt>
      <trkpt lat="45.84545" lon="4.8057">
        <ele>513.40002</ele>
        <time>2010-01-01T00:47:36Z</time>
      </trkpt>
      <trkpt lat="45.84536" lon="4.80574">
        <ele>513</ele>
        <time>2010-01-01T00:47:40Z</time>
      </trkpt>
      <trkpt lat="45.84534" lon="4.80576">
        <ele>513</ele>
        <time>2010-01-01T00:47:41Z</time>
      </trkpt>
      <trkpt lat="45.84526" lon="4.80584">
        <ele>512.59997</ele>
        <time>2010-01-01T00:47:45Z</time>
      </trkpt>
      <trkpt lat="45.84515" lon="4.80591">
        <ele>512.20001</ele>
        <time>2010-01-01T00:47:50Z</time>
      </trkpt>
      <trkpt lat="45.84505" lon="4.80596">
        <ele>511.79998</ele>
        <time>2010-01-01T00:47:54Z</time>
      </trkpt>
      <trkpt lat="45.84494" lon="4.80601">
        <ele>511.39999</ele>
        <time>2010-01-01T00:47:59Z</time>
      </trkpt>
      <trkpt lat="45.84493" lon="4.80601">
        <ele>511.20001</ele>
        <time>2010-01-01T00:47:59Z</time>
      </trkpt>
      <trkpt lat="45.8448" lon="4.80604">
        <ele>510.79998</ele>
        <time>2010-01-01T00:48:05Z</time>
      </trkpt>
      <trkpt lat="45.84467" lon="4.80604">
        <ele>510.39999</ele>
        <time>2010-01-01T00:48:10Z</time>
      </trkpt>
      <trkpt lat="45.84456" lon="4.80603">
        <ele>510.20001</ele>
        <time>2010-01-01T00:48:14Z</time>
      </trkpt>
      <trkpt lat="45.84453" lon="4.80602">
        <ele>510.20001</ele>
        <time>2010-01-01T00:48:15Z</time>
      </trkpt>
      <trkpt lat="45.84447" lon="4.806">
        <ele>510</ele>
        <time>2010-01-01T00:48:18Z</time>
      </trkpt>
      <trkpt lat="45.8444" lon="4.80596">
        <ele>509.79998</ele>
        <time>2010-01-01T00:48:21Z</time>
      </trkpt>
      <trkpt lat="45.84438" lon="4.80596">
        <ele>509.79998</ele>
        <time>2010-01-01T00:48:22Z</time>
      </trkpt>
      <trkpt lat="45.8443" lon="4.80596">
        <ele>509.6</ele>
        <time>2010-01-01T00:48:25Z</time>
      </trkpt>
      <trkpt lat="45.84427" lon="4.80601">
        <ele>509.39999</ele>
        <time>2010-01-01T00:48:27Z</time>
      </trkpt>
      <trkpt lat="45.84425" lon="4.80605">
        <ele>509.39999</ele>
        <time>2010-01-01T00:48:28Z</time>
      </trkpt>
      <trkpt lat="45.84421" lon="4.80616">
        <ele>509</ele>
        <time>2010-01-01T00:48:31Z</time>
      </trkpt>
      <trkpt lat="45.84417" lon="4.80635">
        <ele>508.6</ele>
        <time>2010-01-01T00:48:37Z</time>
      </trkpt>
      <trkpt lat="45.84414" lon="4.80647">
        <ele>508.39999</ele>
        <time>2010-01-01T00:48:41Z</time>
      </trkpt>
      <trkpt lat="45.84413" lon="4.80653">
        <ele>508.20001</ele>
        <time>2010-01-01T00:48:42Z</time>
      </trkpt>
      <trkpt lat="45.84414" lon="4.80661">
        <ele>508</ele>
        <time>2010-01-01T00:48:45Z</time>
      </trkpt>
      <trkpt lat="45.84414" lon="4.80671">
        <ele>507.79998</ele>
        <time>2010-01-01T00:48:47Z</time>
      </trkpt>
      <trkpt lat="45.84414" lon="4.80674">
        <ele>507.6</ele>
        <time>2010-01-01T00:48:48Z</time>
      </trkpt>
      <trkpt lat="45.84414" lon="4.80683">
        <ele>507.20001</ele>
        <time>2010-01-01T00:48:51Z</time>
      </trkpt>
      <trkpt lat="45.84413" lon="4.80705">
        <ele>506.39999</ele>
        <time>2010-01-01T00:48:57Z</time>
      </trkpt>
      <trkpt lat="45.84414" lon="4.80725">
        <ele>505.79998</ele>
        <time>2010-01-01T00:49:02Z</time>
      </trkpt>
      <trkpt lat="45.84415" lon="4.80737">
        <ele>505</ele>
        <time>2010-01-01T00:49:06Z</time>
      </trkpt>
      <trkpt lat="45.84414" lon="4.8074">
        <ele>505</ele>
        <time>2010-01-01T00:49:07Z</time>
      </trkpt>
      <trkpt lat="45.84415" lon="4.80752">
        <ele>504.39999</ele>
        <time>2010-01-01T00:49:10Z</time>
      </trkpt>
      <trkpt lat="45.84415" lon="4.80764">
        <ele>503.6</ele>
        <time>2010-01-01T00:49:13Z</time>
      </trkpt>
      <trkpt lat="45.84414" lon="4.80768">
        <ele>503.39999</ele>
        <time>2010-01-01T00:49:15Z</time>
      </trkpt>
      <trkpt lat="45.84414" lon="4.80776">
        <ele>503</ele>
        <time>2010-01-01T00:49:17Z</time>
      </trkpt>
      <trkpt lat="45.84414" lon="4.8078">
        <ele>502.79998</ele>
        <time>2010-01-01T00:49:18Z</time>
      </trkpt>
      <trkpt lat="45.84417" lon="4.80793">
        <ele>502</ele>
        <time>2010-01-01T00:49:22Z</time>
      </trkpt>
      <trkpt lat="45.84418" lon="4.80805">
        <ele>501.39999</ele>
        <time>2010-01-01T00:49:25Z</time>
      </trkpt>
      <trkpt lat="45.84419" lon="4.8081">
        <ele>501</ele>
        <time>2010-01-01T00:49:26Z</time>
      </trkpt>
      <trkpt lat="45.84418" lon="4.80817">
        <ele>500.39999</ele>
        <time>2010-01-01T00:49:28Z</time>
      </trkpt>
      <trkpt lat="45.84419" lon="4.80824">
        <ele>500</ele>
        <time>2010-01-01T00:49:30Z</time>
      </trkpt>
      <trkpt lat="45.8442" lon="4.80839">
        <ele>499</ele>
        <time>2010-01-01T00:49:35Z</time>
      </trkpt>
      <trkpt lat="45.84419" lon="4.80845">
        <ele>498.79998</ele>
        <time>2010-01-01T00:49:36Z</time>
      </trkpt>
      <trkpt lat="45.84414" lon="4.80862">
        <ele>497.79998</ele>
        <time>2010-01-01T00:49:41Z</time>
      </trkpt>
      <trkpt lat="45.84407" lon="4.80885">
        <ele>496.39999</ele>
        <time>2010-01-01T00:49:49Z</time>
      </trkpt>
      <trkpt lat="45.84403" lon="4.80898">
        <ele>495.6</ele>
        <time>2010-01-01T00:49:52Z</time>
      </trkpt>
      <trkpt lat="45.844" lon="4.80919">
        <ele>494.39999</ele>
        <time>2010-01-01T00:49:58Z</time>
      </trkpt>
      <trkpt lat="45.84395" lon="4.80933">
        <ele>493.39999</ele>
        <time>2010-01-01T00:50:03Z</time>
      </trkpt>
      <trkpt lat="45.8439" lon="4.80946">
        <ele>492.39999</ele>
        <time>2010-01-01T00:50:07Z</time>
      </trkpt>
      <trkpt lat="45.84385" lon="4.80971">
        <ele>491.20001</ele>
        <time>2010-01-01T00:50:14Z</time>
      </trkpt>
      <trkpt lat="45.84382" lon="4.80987">
        <ele>490.20001</ele>
        <time>2010-01-01T00:50:19Z</time>
      </trkpt>
      <trkpt lat="45.84379" lon="4.81004">
        <ele>489.20001</ele>
        <time>2010-01-01T00:50:24Z</time>
      </trkpt>
      <trkpt lat="45.84375" lon="4.81024">
        <ele>487.79998</ele>
        <time>2010-01-01T00:50:30Z</time>
      </trkpt>
      <trkpt lat="45.84371" lon="4.81042">
        <ele>486.79998</ele>
        <time>2010-01-01T00:50:35Z</time>
      </trkpt>
      <trkpt lat="45.84366" lon="4.81061">
        <ele>485.6</ele>
        <time>2010-01-01T00:50:40Z</time>
      </trkpt>
      <trkpt lat="45.84363" lon="4.81076">
        <ele>484.6</ele>
        <time>2010-01-01T00:50:45Z</time>
      </trkpt>
      <trkpt lat="45.84361" lon="4.81095">
        <ele>483.39999</ele>
        <time>2010-01-01T00:50:50Z</time>
      </trkpt>
      <trkpt lat="45.84357" lon="4.81112">
        <ele>482</ele>
        <time>2010-01-01T00:50:55Z</time>
      </trkpt>
      <trkpt lat="45.84357" lon="4.8113">
        <ele>480.79998</ele>
        <time>2010-01-01T00:51:00Z</time>
      </trkpt>
      <trkpt lat="45.84356" lon="4.81147">
        <ele>479.79998</ele>
        <time>2010-01-01T00:51:05Z</time>
      </trkpt>
      <trkpt lat="45.84353" lon="4.81171">
        <ele>478.20001</ele>
        <time>2010-01-01T00:51:12Z</time>
      </trkpt>
      <trkpt lat="45.84352" lon="4.81187">
        <ele>477</ele>
        <time>2010-01-01T00:51:16Z</time>
      </trkpt>
      <trkpt lat="45.84351" lon="4.81191">
        <ele>476.6</ele>
        <time>2010-01-01T00:51:17Z</time>
      </trkpt>
      <trkpt lat="45.84347" lon="4.81203">
        <ele>475.79998</ele>
        <time>2010-01-01T00:51:21Z</time>
      </trkpt>
      <trkpt lat="45.84344" lon="4.81216">
        <ele>474.79998</ele>
        <time>2010-01-01T00:51:25Z</time>
      </trkpt>
      <trkpt lat="45.8434" lon="4.81235">
        <ele>473.39999</ele>
        <time>2010-01-01T00:51:30Z</time>
      </trkpt>
      <trkpt lat="45.84334" lon="4.81254">
        <ele>472</ele>
        <time>2010-01-01T00:51:36Z</time>
      </trkpt>
      <trkpt lat="45.84325" lon="4.81268">
        <ele>470.39999</ele>
        <time>2010-01-01T00:51:41Z</time>
      </trkpt>
      <trkpt lat="45.84321" lon="4.81269">
        <ele>470.20001</ele>
        <time>2010-01-01T00:51:43Z</time>
      </trkpt>
      <trkpt lat="45.84313" lon="4.81267">
        <ele>469.20001</ele>
        <time>2010-01-01T00:51:46Z</time>
      </trkpt>
      <trkpt lat="45.84302" lon="4.81264">
        <ele>468</ele>
        <time>2010-01-01T00:51:51Z</time>
      </trkpt>
      <trkpt lat="45.843" lon="4.81263">
        <ele>467.79998</ele>
        <time>2010-01-01T00:51:52Z</time>
      </trkpt>
      <trkpt lat="45.84285" lon="4.8126">
        <ele>466.20001</ele>
        <time>2010-01-01T00:51:58Z</time>
      </trkpt>
      <trkpt lat="45.84271" lon="4.81253">
        <ele>464.79998</ele>
        <time>2010-01-01T00:52:04Z</time>
      </trkpt>
      <trkpt lat="45.84255" lon="4.81249">
        <ele>463.20001</ele>
        <time>2010-01-01T00:52:10Z</time>
      </trkpt>
      <trkpt lat="45.84246" lon="4.81243">
        <ele>462.20001</ele>
        <time>2010-01-01T00:52:14Z</time>
      </trkpt>
      <trkpt lat="45.8423" lon="4.81238">
        <ele>461</ele>
        <time>2010-01-01T00:52:20Z</time>
      </trkpt>
      <trkpt lat="45.84218" lon="4.81239">
        <ele>459.79998</ele>
        <time>2010-01-01T00:52:25Z</time>
      </trkpt>
      <trkpt lat="45.84205" lon="4.8124">
        <ele>458.39999</ele>
        <time>2010-01-01T00:52:31Z</time>
      </trkpt>
      <trkpt lat="45.84195" lon="4.81242">
        <ele>457.6</ele>
        <time>2010-01-01T00:52:35Z</time>
      </trkpt>
      <trkpt lat="45.84189" lon="4.81242">
        <ele>457</ele>
        <time>2010-01-01T00:52:37Z</time>
      </trkpt>
      <trkpt lat="45.84185" lon="4.81244">
        <ele>456.6</ele>
        <time>2010-01-01T00:52:39Z</time>
      </trkpt>
      <trkpt lat="45.84172" lon="4.81248">
        <ele>455.20001</ele>
        <time>2010-01-01T00:52:44Z</time>
      </trkpt>
      <trkpt lat="45.84163" lon="4.81249">
        <ele>454.20001</ele>
        <time>2010-01-01T00:52:48Z</time>
      </trkpt>
      <trkpt lat="45.84155" lon="4.81251">
        <ele>453.39999</ele>
        <time>2010-01-01T00:52:51Z</time>
      </trkpt>
      <trkpt lat="45.84148" lon="4.81252">
        <ele>452.6</ele>
        <time>2010-01-01T00:52:54Z</time>
      </trkpt>
      <trkpt lat="45.84146" lon="4.81252">
        <ele>452.39999</ele>
        <time>2010-01-01T00:52:54Z</time>
      </trkpt>
      <trkpt lat="45.84142" lon="4.81253">
        <ele>451.79998</ele>
        <time>2010-01-01T00:52:56Z</time>
      </trkpt>
      <trkpt lat="45.84133" lon="4.81253">
        <ele>450.6</ele>
        <time>2010-01-01T00:53:00Z</time>
      </trkpt>
      <trkpt lat="45.84131" lon="4.81254">
        <ele>450.39999</ele>
        <time>2010-01-01T00:53:00Z</time>
      </trkpt>
      <trkpt lat="45.84124" lon="4.81256">
        <ele>449.79998</ele>
        <time>2010-01-01T00:53:03Z</time>
      </trkpt>
      <trkpt lat="45.84117" lon="4.81257">
        <ele>449.39999</ele>
        <time>2010-01-01T00:53:06Z</time>
      </trkpt>
      <trkpt lat="45.84114" lon="4.81257">
        <ele>449.39999</ele>
        <time>2010-01-01T00:53:07Z</time>
      </trkpt>
      <trkpt lat="45.84112" lon="4.81257">
        <ele>449.20001</ele>
        <time>2010-01-01T00:53:08Z</time>
      </trkpt>
      <trkpt lat="45.84106" lon="4.81256">
        <ele>448.79998</ele>
        <time>2010-01-01T00:53:11Z</time>
      </trkpt>
      <trkpt lat="45.84096" lon="4.81255">
        <ele>448.20001</ele>
        <time>2010-01-01T00:53:15Z</time>
      </trkpt>
      <trkpt lat="45.84085" lon="4.81254">
        <ele>447.6</ele>
        <time>2010-01-01T00:53:19Z</time>
      </trkpt>
      <trkpt lat="45.84083" lon="4.81255">
        <ele>447.39999</ele>
        <time>2010-01-01T00:53:20Z</time>
      </trkpt>
      <trkpt lat="45.84072" lon="4.81255">
        <ele>446.79998</ele>
        <time>2010-01-01T00:53:24Z</time>
      </trkpt>
      <trkpt lat="45.84057" lon="4.81253">
        <ele>446.39999</ele>
        <time>2010-01-01T00:53:31Z</time>
      </trkpt>
      <trkpt lat="45.84047" lon="4.81251">
        <ele>446</ele>
        <time>2010-01-01T00:53:34Z</time>
      </trkpt>
      <trkpt lat="45.84034" lon="4.81246">
        <ele>445.6</ele>
        <time>2010-01-01T00:53:40Z</time>
      </trkpt>
      <trkpt lat="45.84022" lon="4.81239">
        <ele>445.20001</ele>
        <time>2010-01-01T00:53:45Z</time>
      </trkpt>
      <trkpt lat="45.84014" lon="4.81231">
        <ele>445</ele>
        <time>2010-01-01T00:53:49Z</time>
      </trkpt>
      <trkpt lat="45.84003" lon="4.81217">
        <ele>444.6</ele>
        <time>2010-01-01T00:53:55Z</time>
      </trkpt>
      <trkpt lat="45.83994" lon="4.81205">
        <ele>444.39999</ele>
        <time>2010-01-01T00:54:00Z</time>
      </trkpt>
      <trkpt lat="45.83991" lon="4.81198">
        <ele>444.20001</ele>
        <time>2010-01-01T00:54:02Z</time>
      </trkpt>
      <trkpt lat="45.83987" lon="4.81193">
        <ele>444.20001</ele>
        <time>2010-01-01T00:54:04Z</time>
      </trkpt>
      <trkpt lat="45.83979" lon="4.81177">
        <ele>444</ele>
        <time>2010-01-01T00:54:10Z</time>
      </trkpt>
      <trkpt lat="45.83972" lon="4.81158">
        <ele>443.79998</ele>
        <time>2010-01-01T00:54:15Z</time>
      </trkpt>
      <trkpt lat="45.83964" lon="4.81139">
        <ele>443.6</ele>
        <time>2010-01-01T00:54:22Z</time>
      </trkpt>
      <trkpt lat="45.83956" lon="4.81119">
        <ele>443.39999</ele>
        <time>2010-01-01T00:54:28Z</time>
      </trkpt>
      <trkpt lat="45.83948" lon="4.81096">
        <ele>443.39999</ele>
        <time>2010-01-01T00:54:35Z</time>
      </trkpt>
      <trkpt lat="45.83944" lon="4.81081">
        <ele>443.39999</ele>
        <time>2010-01-01T00:54:40Z</time>
      </trkpt>
      <trkpt lat="45.8394" lon="4.81061">
        <ele>443.6</ele>
        <time>2010-01-01T00:54:45Z</time>
      </trkpt>
      <trkpt lat="45.83937" lon="4.81039">
        <ele>443.79998</ele>
        <time>2010-01-01T00:54:52Z</time>
      </trkpt>
      <trkpt lat="45.83937" lon="4.81019">
        <ele>443.79998</ele>
        <time>2010-01-01T00:54:57Z</time>
      </trkpt>
      <trkpt lat="45.83938" lon="4.80994">
        <ele>443.79998</ele>
        <time>2010-01-01T00:55:04Z</time>
      </trkpt>
      <trkpt lat="45.8394" lon="4.80976">
        <ele>443.79998</ele>
        <time>2010-01-01T00:55:09Z</time>
      </trkpt>
      <trkpt lat="45.83939" lon="4.80966">
        <ele>443.6</ele>
        <time>2010-01-01T00:55:12Z</time>
      </trkpt>
      <trkpt lat="45.83935" lon="4.80963">
        <ele>443.6</ele>
        <time>2010-01-01T00:55:14Z</time>
      </trkpt>
      <trkpt lat="45.83929" lon="4.80968">
        <ele>443.39999</ele>
        <time>2010-01-01T00:55:17Z</time>
      </trkpt>
      <trkpt lat="45.83926" lon="4.80971">
        <ele>443.39999</ele>
        <time>2010-01-01T00:55:18Z</time>
      </trkpt>
      <trkpt lat="45.83925" lon="4.80972">
        <ele>443.39999</ele>
        <time>2010-01-01T00:55:19Z</time>
      </trkpt>
      <trkpt lat="45.83915" lon="4.80975">
        <ele>443.20001</ele>
        <time>2010-01-01T00:55:23Z</time>
      </trkpt>
      <trkpt lat="45.83905" lon="4.80977">
        <ele>443</ele>
        <time>2010-01-01T00:55:27Z</time>
      </trkpt>
      <trkpt lat="45.83895" lon="4.80977">
        <ele>442.6</ele>
        <time>2010-01-01T00:55:31Z</time>
      </trkpt>
      <trkpt lat="45.83894" lon="4.80979">
        <ele>442.39999</ele>
        <time>2010-01-01T00:55:31Z</time>
      </trkpt>
      <trkpt lat="45.83887" lon="4.80981">
        <ele>442.20001</ele>
        <time>2010-01-01T00:55:34Z</time>
      </trkpt>
      <trkpt lat="45.83883" lon="4.80984">
        <ele>442</ele>
        <time>2010-01-01T00:55:36Z</time>
      </trkpt>
      <trkpt lat="45.83878" lon="4.80987">
        <ele>441.79998</ele>
        <time>2010-01-01T00:55:38Z</time>
      </trkpt>
      <trkpt lat="45.83874" lon="4.80989">
        <ele>441.39999</ele>
        <time>2010-01-01T00:55:40Z</time>
      </trkpt>
      <trkpt lat="45.83871" lon="4.80989">
        <ele>441.20001</ele>
        <time>2010-01-01T00:55:41Z</time>
      </trkpt>
      <trkpt lat="45.83868" lon="4.80989">
        <ele>441</ele>
        <time>2010-01-01T00:55:42Z</time>
      </trkpt>
      <trkpt lat="45.83863" lon="4.8099">
        <ele>440.6</ele>
        <time>2010-01-01T00:55:44Z</time>
      </trkpt>
      <trkpt lat="45.83856" lon="4.80993">
        <ele>440</ele>
        <time>2010-01-01T00:55:47Z</time>
      </trkpt>
      <trkpt lat="45.83854" lon="4.80995">
        <ele>439.79998</ele>
        <time>2010-01-01T00:55:48Z</time>
      </trkpt>
      <trkpt lat="45.83849" lon="4.80994">
        <ele>439.39999</ele>
        <time>2010-01-01T00:55:50Z</time>
      </trkpt>
      <trkpt lat="45.83845" lon="4.80989">
        <ele>438.79998</ele>
        <time>2010-01-01T00:55:52Z</time>
      </trkpt>
      <trkpt lat="45.83846" lon="4.80977">
        <ele>438.20001</ele>
        <time>2010-01-01T00:55:56Z</time>
      </trkpt>
      <trkpt lat="45.83848" lon="4.80963">
        <ele>437.39999</ele>
        <time>2010-01-01T00:56:00Z</time>
      </trkpt>
      <trkpt lat="45.8385" lon="4.80942">
        <ele>436.6</ele>
        <time>2010-01-01T00:56:05Z</time>
      </trkpt>
      <trkpt lat="45.83851" lon="4.80927">
        <ele>435.79998</ele>
        <time>2010-01-01T00:56:10Z</time>
      </trkpt>
      <trkpt lat="45.8385" lon="4.80924">
        <ele>435.6</ele>
        <time>2010-01-01T00:56:11Z</time>
      </trkpt>
      <trkpt lat="45.8385" lon="4.80923">
        <ele>435.39999</ele>
        <time>2010-01-01T00:56:11Z</time>
      </trkpt>
      <trkpt lat="45.83849" lon="4.80924">
        <ele>435.20001</ele>
        <time>2010-01-01T00:56:11Z</time>
      </trkpt>
      <trkpt lat="45.83844" lon="4.80928">
        <ele>434.79998</ele>
        <time>2010-01-01T00:56:14Z</time>
      </trkpt>
      <trkpt lat="45.83832" lon="4.80934">
        <ele>433.6</ele>
        <time>2010-01-01T00:56:19Z</time>
      </trkpt>
      <trkpt lat="45.83824" lon="4.80939">
        <ele>432.79998</ele>
        <time>2010-01-01T00:56:22Z</time>
      </trkpt>
      <trkpt lat="45.83822" lon="4.80942">
        <ele>432.6</ele>
        <time>2010-01-01T00:56:23Z</time>
      </trkpt>
      <trkpt lat="45.8382" lon="4.80945">
        <ele>432.20001</ele>
        <time>2010-01-01T00:56:25Z</time>
      </trkpt>
      <trkpt lat="45.83817" lon="4.80947">
        <ele>431.79998</ele>
        <time>2010-01-01T00:56:26Z</time>
      </trkpt>
      <trkpt lat="45.8381" lon="4.80956">
        <ele>431</ele>
        <time>2010-01-01T00:56:29Z</time>
      </trkpt>
      <trkpt lat="45.83806" lon="4.80971">
        <ele>430.20001</ele>
        <time>2010-01-01T00:56:34Z</time>
      </trkpt>
      <trkpt lat="45.83806" lon="4.80974">
        <ele>430</ele>
        <time>2010-01-01T00:56:35Z</time>
      </trkpt>
      <trkpt lat="45.83799" lon="4.80976">
        <ele>429.39999</ele>
        <time>2010-01-01T00:56:37Z</time>
      </trkpt>
      <trkpt lat="45.83797" lon="4.80977">
        <ele>429.20001</ele>
        <time>2010-01-01T00:56:38Z</time>
      </trkpt>
      <trkpt lat="45.83795" lon="4.80979">
        <ele>428.79998</ele>
        <time>2010-01-01T00:56:39Z</time>
      </trkpt>
      <trkpt lat="45.83792" lon="4.80986">
        <ele>428.20001</ele>
        <time>2010-01-01T00:56:41Z</time>
      </trkpt>
      <trkpt lat="45.83791" lon="4.80999">
        <ele>427.39999</ele>
        <time>2010-01-01T00:56:45Z</time>
      </trkpt>
      <trkpt lat="45.8379" lon="4.81009">
        <ele>426.6</ele>
        <time>2010-01-01T00:56:48Z</time>
      </trkpt>
      <trkpt lat="45.8379" lon="4.81022">
        <ele>425.6</ele>
        <time>2010-01-01T00:56:52Z</time>
      </trkpt>
      <trkpt lat="45.8379" lon="4.81024">
        <ele>425.39999</ele>
        <time>2010-01-01T00:56:52Z</time>
      </trkpt>
      <trkpt lat="45.83789" lon="4.81039">
        <ele>424.20001</ele>
        <time>2010-01-01T00:56:56Z</time>
      </trkpt>
      <trkpt lat="45.8379" lon="4.81047">
        <ele>423.20001</ele>
        <time>2010-01-01T00:56:59Z</time>
      </trkpt>
      <trkpt lat="45.83794" lon="4.81063">
        <ele>422.20001</ele>
        <time>2010-01-01T00:57:03Z</time>
      </trkpt>
      <trkpt lat="45.83792" lon="4.8107">
        <ele>421.39999</ele>
        <time>2010-01-01T00:57:06Z</time>
      </trkpt>
      <trkpt lat="45.83794" lon="4.81081">
        <ele>420.6</ele>
        <time>2010-01-01T00:57:09Z</time>
      </trkpt>
      <trkpt lat="45.83794" lon="4.81095">
        <ele>419.39999</ele>
        <time>2010-01-01T00:57:13Z</time>
      </trkpt>
      <trkpt lat="45.83793" lon="4.81114">
        <ele>418</ele>
        <time>2010-01-01T00:57:18Z</time>
      </trkpt>
      <trkpt lat="45.83793" lon="4.8113">
        <ele>416.79998</ele>
        <time>2010-01-01T00:57:22Z</time>
      </trkpt>
      <trkpt lat="45.83792" lon="4.81139">
        <ele>416.20001</ele>
        <time>2010-01-01T00:57:25Z</time>
      </trkpt>
      <trkpt lat="45.83794" lon="4.81146">
        <ele>415.39999</ele>
        <time>2010-01-01T00:57:27Z</time>
      </trkpt>
      <trkpt lat="45.83795" lon="4.81157">
        <ele>414.6</ele>
        <time>2010-01-01T00:57:30Z</time>
      </trkpt>
      <trkpt lat="45.83796" lon="4.81161">
        <ele>414.20001</ele>
        <time>2010-01-01T00:57:31Z</time>
      </trkpt>
      <trkpt lat="45.83792" lon="4.81182">
        <ele>412.79998</ele>
        <time>2010-01-01T00:57:37Z</time>
      </trkpt>
      <trkpt lat="45.83791" lon="4.81188">
        <ele>412.39999</ele>
        <time>2010-01-01T00:57:39Z</time>
      </trkpt>
      <trkpt lat="45.83789" lon="4.81201">
        <ele>411.39999</ele>
        <time>2010-01-01T00:57:43Z</time>
      </trkpt>
      <trkpt lat="45.83787" lon="4.81212">
        <ele>410.39999</ele>
        <time>2010-01-01T00:57:46Z</time>
      </trkpt>
      <trkpt lat="45.83788" lon="4.81215">
        <ele>410</ele>
        <time>2010-01-01T00:57:47Z</time>
      </trkpt>
      <trkpt lat="45.83783" lon="4.81234">
        <ele>408.6</ele>
        <time>2010-01-01T00:57:52Z</time>
      </trkpt>
      <trkpt lat="45.83784" lon="4.81244">
        <ele>407.6</ele>
        <time>2010-01-01T00:57:55Z</time>
      </trkpt>
      <trkpt lat="45.83784" lon="4.81247">
        <ele>407.20001</ele>
        <time>2010-01-01T00:57:56Z</time>
      </trkpt>
      <trkpt lat="45.83783" lon="4.81264">
        <ele>405.79998</ele>
        <time>2010-01-01T00:58:01Z</time>
      </trkpt>
      <trkpt lat="45.83781" lon="4.81285">
        <ele>403.79998</ele>
        <time>2010-01-01T00:58:07Z</time>
      </trkpt>
      <trkpt lat="45.83779" lon="4.81308">
        <ele>401.79998</ele>
        <time>2010-01-01T00:58:13Z</time>
      </trkpt>
      <trkpt lat="45.83779" lon="4.81311">
        <ele>401.39999</ele>
        <time>2010-01-01T00:58:14Z</time>
      </trkpt>
      <trkpt lat="45.83781" lon="4.81319">
        <ele>400.20001</ele>
        <time>2010-01-01T00:58:16Z</time>
      </trkpt>
      <trkpt lat="45.83783" lon="4.81322">
        <ele>399.79998</ele>
        <time>2010-01-01T00:58:17Z</time>
      </trkpt>
      <trkpt lat="45.83787" lon="4.8134">
        <ele>397.79998</ele>
        <time>2010-01-01T00:58:23Z</time>
      </trkpt>
      <trkpt lat="45.83789" lon="4.81356">
        <ele>396.20001</ele>
        <time>2010-01-01T00:58:27Z</time>
      </trkpt>
      <trkpt lat="45.83793" lon="4.81378">
        <ele>393.6</ele>
        <time>2010-01-01T00:58:34Z</time>
      </trkpt>
      <trkpt lat="45.83797" lon="4.81396">
        <ele>391.79998</ele>
        <time>2010-01-01T00:58:39Z</time>
      </trkpt>
      <trkpt lat="45.83797" lon="4.8141">
        <ele>390.20001</ele>
        <time>2010-01-01T00:58:43Z</time>
      </trkpt>
      <trkpt lat="45.83796" lon="4.81417">
        <ele>389.39999</ele>
        <time>2010-01-01T00:58:45Z</time>
      </trkpt>
      <trkpt lat="45.83796" lon="4.81425">
        <ele>388.39999</ele>
        <time>2010-01-01T00:58:47Z</time>
      </trkpt>
      <trkpt lat="45.83796" lon="4.81439">
        <ele>386.79998</ele>
        <time>2010-01-01T00:58:51Z</time>
      </trkpt>
      <trkpt lat="45.83795" lon="4.81446">
        <ele>385.79998</ele>
        <time>2010-01-01T00:58:53Z</time>
      </trkpt>
      <trkpt lat="45.83797" lon="4.8146">
        <ele>385</ele>
        <time>2010-01-01T00:58:57Z</time>
      </trkpt>
      <trkpt lat="45.83799" lon="4.81471">
        <ele>383.6</ele>
        <time>2010-01-01T00:59:00Z</time>
      </trkpt>
      <trkpt lat="45.83799" lon="4.81483">
        <ele>382.20001</ele>
        <time>2010-01-01T00:59:03Z</time>
      </trkpt>
      <trkpt lat="45.83799" lon="4.81487">
        <ele>381.79998</ele>
        <time>2010-01-01T00:59:05Z</time>
      </trkpt>
      <trkpt lat="45.83798" lon="4.81501">
        <ele>380</ele>
        <time>2010-01-01T00:59:08Z</time>
      </trkpt>
      <trkpt lat="45.83795" lon="4.81514">
        <ele>378.6</ele>
        <time>2010-01-01T00:59:12Z</time>
      </trkpt>
      <trkpt lat="45.83794" lon="4.81524">
        <ele>377.20001</ele>
        <time>2010-01-01T00:59:15Z</time>
      </trkpt>
      <trkpt lat="45.83795" lon="4.81531">
        <ele>376.20001</ele>
        <time>2010-01-01T00:59:17Z</time>
      </trkpt>
      <trkpt lat="45.83796" lon="4.81537">
        <ele>375.20001</ele>
        <time>2010-01-01T00:59:19Z</time>
      </trkpt>
      <trkpt lat="45.83795" lon="4.81545">
        <ele>374.20001</ele>
        <time>2010-01-01T00:59:21Z</time>
      </trkpt>
      <trkpt lat="45.83797" lon="4.81548">
        <ele>373.79998</ele>
        <time>2010-01-01T00:59:22Z</time>
      </trkpt>
      <trkpt lat="45.83797" lon="4.81561">
        <ele>371.79998</ele>
        <time>2010-01-01T00:59:26Z</time>
      </trkpt>
      <trkpt lat="45.83801" lon="4.81578">
        <ele>370</ele>
        <time>2010-01-01T00:59:30Z</time>
      </trkpt>
      <trkpt lat="45.83805" lon="4.81592">
        <ele>368</ele>
        <time>2010-01-01T00:59:35Z</time>
      </trkpt>
      <trkpt lat="45.83806" lon="4.81597">
        <ele>367</ele>
        <time>2010-01-01T00:59:36Z</time>
      </trkpt>
      <trkpt lat="45.83808" lon="4.81612">
        <ele>365</ele>
        <time>2010-01-01T00:59:41Z</time>
      </trkpt>
      <trkpt lat="45.83812" lon="4.81624">
        <ele>363</ele>
        <time>2010-01-01T00:59:44Z</time>
      </trkpt>
      <trkpt lat="45.83812" lon="4.81628">
        <ele>362.6</ele>
        <time>2010-01-01T00:59:45Z</time>
      </trkpt>
      <trkpt lat="45.83813" lon="4.81638">
        <ele>361</ele>
        <time>2010-01-01T00:59:48Z</time>
      </trkpt>
      <trkpt lat="45.83814" lon="4.81642">
        <ele>360.39999</ele>
        <time>2010-01-01T00:59:49Z</time>
      </trkpt>
      <trkpt lat="45.83816" lon="4.81645">
        <ele>360</ele>
        <time>2010-01-01T00:59:50Z</time>
      </trkpt>
      <trkpt lat="45.83819" lon="4.8165">
        <ele>358.79998</ele>
        <time>2010-01-01T00:59:52Z</time>
      </trkpt>
      <trkpt lat="45.83826" lon="4.81661">
        <ele>356.79998</ele>
        <time>2010-01-01T00:59:57Z</time>
      </trkpt>
      <trkpt lat="45.8383" lon="4.81669">
        <ele>355.6</ele>
        <time>2010-01-01T00:59:59Z</time>
      </trkpt>
      <trkpt lat="45.83833" lon="4.81676">
        <ele>354.6</ele>
        <time>2010-01-01T01:00:01Z</time>
      </trkpt>
      <trkpt lat="45.83834" lon="4.81686">
        <ele>353</ele>
        <time>2010-01-01T01:00:04Z</time>
      </trkpt>
      <trkpt lat="45.83838" lon="4.81704">
        <ele>350.79998</ele>
        <time>2010-01-01T01:00:09Z</time>
      </trkpt>
      <trkpt lat="45.8384" lon="4.81728">
        <ele>347.39999</ele>
        <time>2010-01-01T01:00:16Z</time>
      </trkpt>
      <trkpt lat="45.83843" lon="4.81748">
        <ele>344.6</ele>
        <time>2010-01-01T01:00:22Z</time>
      </trkpt>
      <trkpt lat="45.83847" lon="4.81763">
        <ele>342.20001</ele>
        <time>2010-01-01T01:00:26Z</time>
      </trkpt>
      <trkpt lat="45.8385" lon="4.81784">
        <ele>339.39999</ele>
        <time>2010-01-01T01:00:32Z</time>
      </trkpt>
      <trkpt lat="45.83851" lon="4.81799">
        <ele>337</ele>
        <time>2010-01-01T01:00:37Z</time>
      </trkpt>
      <trkpt lat="45.83853" lon="4.81803">
        <ele>336.39999</ele>
        <time>2010-01-01T01:00:38Z</time>
      </trkpt>
      <trkpt lat="45.83856" lon="4.81816">
        <ele>334.20001</ele>
        <time>2010-01-01T01:00:42Z</time>
      </trkpt>
      <trkpt lat="45.83857" lon="4.81819">
        <ele>333.6</ele>
        <time>2010-01-01T01:00:43Z</time>
      </trkpt>
      <trkpt lat="45.8386" lon="4.8183">
        <ele>331.20001</ele>
        <time>2010-01-01T01:00:46Z</time>
      </trkpt>
      <trkpt lat="45.83862" lon="4.81831">
        <ele>330.6</ele>
        <time>2010-01-01T01:00:47Z</time>
      </trkpt>
      <trkpt lat="45.8387" lon="4.81844">
        <ele>327.6</ele>
        <time>2010-01-01T01:00:52Z</time>
      </trkpt>
      <trkpt lat="45.8387" lon="4.81848">
        <ele>327</ele>
        <time>2010-01-01T01:00:53Z</time>
      </trkpt>
      <trkpt lat="45.83875" lon="4.8187">
        <ele>323.39999</ele>
        <time>2010-01-01T01:00:59Z</time>
      </trkpt>
      <trkpt lat="45.83875" lon="4.81887">
        <ele>320.79998</ele>
        <time>2010-01-01T01:01:04Z</time>
      </trkpt>
      <trkpt lat="45.83874" lon="4.81902">
        <ele>318.39999</ele>
        <time>2010-01-01T01:01:08Z</time>
      </trkpt>
      <trkpt lat="45.83872" lon="4.81918">
        <ele>316</ele>
        <time>2010-01-01T01:01:13Z</time>
      </trkpt>
      <trkpt lat="45.83869" lon="4.81933">
        <ele>313.6</ele>
        <time>2010-01-01T01:01:17Z</time>
      </trkpt>
      <trkpt lat="45.83868" lon="4.81956">
        <ele>310</ele>
        <time>2010-01-01T01:01:23Z</time>
      </trkpt>
      <trkpt lat="45.83874" lon="4.81979">
        <ele>306.39999</ele>
        <time>2010-01-01T01:01:30Z</time>
      </trkpt>
      <trkpt lat="45.83877" lon="4.81992">
        <ele>304</ele>
        <time>2010-01-01T01:01:34Z</time>
      </trkpt>
      <trkpt lat="45.83881" lon="4.82015">
        <ele>300.6</ele>
        <time>2010-01-01T01:01:41Z</time>
      </trkpt>
      <trkpt lat="45.83878" lon="4.82038">
        <ele>297.39999</ele>
        <time>2010-01-01T01:01:47Z</time>
      </trkpt>
      <trkpt lat="45.83875" lon="4.82058">
        <ele>294.6</ele>
        <time>2010-01-01T01:01:53Z</time>
      </trkpt>
      <trkpt lat="45.83876" lon="4.82075">
        <ele>292.6</ele>
        <time>2010-01-01T01:01:58Z</time>
      </trkpt>
      <trkpt lat="45.83873" lon="4.82101">
        <ele>289.39999</ele>
        <time>2010-01-01T01:02:05Z</time>
      </trkpt>
      <trkpt lat="45.83871" lon="4.82121">
        <ele>286.79998</ele>
        <time>2010-01-01T01:02:11Z</time>
      </trkpt>
      <trkpt lat="45.83869" lon="4.82139">
        <ele>284.6</ele>
        <time>2010-01-01T01:02:16Z</time>
      </trkpt>
      <trkpt lat="45.83865" lon="4.82159">
        <ele>282.20001</ele>
        <time>2010-01-01T01:02:21Z</time>
      </trkpt>
      <trkpt lat="45.83863" lon="4.82175">
        <ele>280.20001</ele>
        <time>2010-01-01T01:02:26Z</time>
      </trkpt>
      <trkpt lat="45.83858" lon="4.82201">
        <ele>277.20001</ele>
        <time>2010-01-01T01:02:33Z</time>
      </trkpt>
      <trkpt lat="45.8385" lon="4.82213">
        <ele>275.39999</ele>
        <time>2010-01-01T01:02:38Z</time>
      </trkpt>
      <trkpt lat="45.83838" lon="4.82219">
        <ele>273.39999</ele>
        <time>2010-01-01T01:02:43Z</time>
      </trkpt>
      <trkpt lat="45.83835" lon="4.8222">
        <ele>273</ele>
        <time>2010-01-01T01:02:45Z</time>
      </trkpt>
      <trkpt lat="45.83821" lon="4.8223">
        <ele>270.6</ele>
        <time>2010-01-01T01:02:51Z</time>
      </trkpt>
      <trkpt lat="45.83805" lon="4.82245">
        <ele>268</ele>
        <time>2010-01-01T01:02:58Z</time>
      </trkpt>
      <trkpt lat="45.83794" lon="4.82252">
        <ele>266.20001</ele>
        <time>2010-01-01T01:03:03Z</time>
      </trkpt>
      <trkpt lat="45.8378" lon="4.82262">
        <ele>264</ele>
        <time>2010-01-01T01:03:09Z</time>
      </trkpt>
      <trkpt lat="45.83769" lon="4.82273">
        <ele>262</ele>
        <time>2010-01-01T01:03:15Z</time>
      </trkpt>
      <trkpt lat="45.83757" lon="4.82282">
        <ele>260</ele>
        <time>2010-01-01T01:03:20Z</time>
      </trkpt>
      <trkpt lat="45.83739" lon="4.82294">
        <ele>257.39999</ele>
        <time>2010-01-01T01:03:28Z</time>
      </trkpt>
      <trkpt lat="45.83737" lon="4.82295">
        <ele>257</ele>
        <time>2010-01-01T01:03:29Z</time>
      </trkpt>
      <trkpt lat="45.8373" lon="4.82298">
        <ele>256</ele>
        <time>2010-01-01T01:03:32Z</time>
      </trkpt>
      <trkpt lat="45.83724" lon="4.82303">
        <ele>254.8</ele>
        <time>2010-01-01T01:03:35Z</time>
      </trkpt>
      <trkpt lat="45.83723" lon="4.82303">
        <ele>254.39999</ele>
        <time>2010-01-01T01:03:35Z</time>
      </trkpt>
      <trkpt lat="45.8372" lon="4.82303">
        <ele>253.39999</ele>
        <time>2010-01-01T01:03:36Z</time>
      </trkpt>
    </trkseg>
  </trk>
</gpx>